<?xml version="1.0" encoding="UTF-8" standalone="no" ?>
<gpx xmlns="http://www.topografix.com/GPX/1/1" xmlns:xsi="http://www.w3.org/2001/XMLSchema-instance" xsi:schemaLocation="http://www.topografix.com/GPX/1/1 http://www.topografix.com/GPX/1/1/gpx.xsd" version="1.1" creator="VisuGPX - https://www.visugpx.com">
  <metadata>
    <name>Mont Morbié</name>
    <desc><![CDATA[Trace AlpineQuest 19/09/2024 08:48:38]]></desc>
  </metadata>
  <wpt lat="45.6071" lon="6.12162">
    <ele>1336.6</ele>
    <name><![CDATA[1 Début hors sentier]]></name>
    <desc><![CDATA[Début tronçon hors sentier.]]></desc>
    <cmt><![CDATA[Très raide]]></cmt>
    <type><![CDATA[_]]></type>
  </wpt>
  <wpt lat="45.60509" lon="6.12853">
    <ele>1002.9</ele>
    <name><![CDATA[2 Fin hors sentier]]></name>
    <desc><![CDATA[Fin tronçon hors sentier.]]></desc>
    <type><![CDATA[_]]></type>
  </wpt>
  <trk>
    <name><![CDATA[visugpx_2fbIEDewrG_1]]></name>
    <desc><![CDATA[

]]></desc>
    <extensions>
      <line xmlns="http://www.topografix.com/GPX/gpx_style/0/2">
        <color>0000FF</color>
        <width>4</width>
      </line>
    </extensions>
    <trkseg>
      <trkpt lat="45.59541" lon="6.13737">
        <ele>845.079</ele>
        <time>2024-09-19T06:48:38Z</time>
        <extensions>
          <visugpx:TrkExtension xmlns:visugpx="https://www.visugpx.com/editgpx/">
            <visugpx:node>1</visugpx:node>
            </visugpx:TrkExtension>
        </extensions>
      </trkpt>
      <trkpt lat="45.59542" lon="6.13735">
        <ele>846.851</ele>
        <time>2024-09-19T06:48:59Z</time>
      </trkpt>
      <trkpt lat="45.59542" lon="6.13732">
        <ele>847.163</ele>
        <time>2024-09-19T06:49:20Z</time>
      </trkpt>
      <trkpt lat="45.59543" lon="6.1373">
        <ele>852.257</ele>
        <time>2024-09-19T06:49:29Z</time>
      </trkpt>
      <trkpt lat="45.59545" lon="6.13729">
        <ele>844.706</ele>
        <time>2024-09-19T06:50:06Z</time>
      </trkpt>
      <trkpt lat="45.59546" lon="6.13727">
        <ele>846.449</ele>
        <time>2024-09-19T06:50:16Z</time>
      </trkpt>
      <trkpt lat="45.59544" lon="6.13716">
        <ele>852.664</ele>
        <time>2024-09-19T06:50:25Z</time>
      </trkpt>
      <trkpt lat="45.59541" lon="6.13711">
        <ele>853.24</ele>
        <time>2024-09-19T06:50:34Z</time>
      </trkpt>
      <trkpt lat="45.59537" lon="6.13708">
        <ele>856.292</ele>
        <time>2024-09-19T06:50:47Z</time>
      </trkpt>
      <trkpt lat="45.59536" lon="6.13708">
        <ele>856.376</ele>
        <time>2024-09-19T06:51:08Z</time>
      </trkpt>
      <trkpt lat="45.59535" lon="6.13702">
        <ele>854.837</ele>
        <time>2024-09-19T06:51:29Z</time>
      </trkpt>
      <trkpt lat="45.59531" lon="6.137">
        <ele>854.866</ele>
        <time>2024-09-19T06:51:50Z</time>
      </trkpt>
      <trkpt lat="45.59528" lon="6.13699">
        <ele>857.448</ele>
        <time>2024-09-19T06:51:59Z</time>
      </trkpt>
      <trkpt lat="45.59523" lon="6.13698">
        <ele>859.312</ele>
        <time>2024-09-19T06:52:04Z</time>
      </trkpt>
      <trkpt lat="45.59513" lon="6.13694">
        <ele>860.754</ele>
        <time>2024-09-19T06:52:13Z</time>
      </trkpt>
      <trkpt lat="45.59509" lon="6.1369">
        <ele>862.972</ele>
        <time>2024-09-19T06:52:17Z</time>
      </trkpt>
      <trkpt lat="45.59501" lon="6.13686">
        <ele>859.994</ele>
        <time>2024-09-19T06:52:27Z</time>
      </trkpt>
      <trkpt lat="45.59496" lon="6.13684">
        <ele>861.445</ele>
        <time>2024-09-19T06:52:31Z</time>
      </trkpt>
      <trkpt lat="45.59487" lon="6.13682">
        <ele>866.85</ele>
        <time>2024-09-19T06:52:39Z</time>
      </trkpt>
      <trkpt lat="45.59483" lon="6.1368">
        <ele>868.286</ele>
        <time>2024-09-19T06:52:43Z</time>
      </trkpt>
      <trkpt lat="45.5948" lon="6.13678">
        <ele>864.856</ele>
        <time>2024-09-19T06:52:48Z</time>
      </trkpt>
      <trkpt lat="45.59476" lon="6.13678">
        <ele>867.533</ele>
        <time>2024-09-19T06:52:53Z</time>
      </trkpt>
      <trkpt lat="45.59471" lon="6.13676">
        <ele>867.986</ele>
        <time>2024-09-19T06:52:58Z</time>
      </trkpt>
      <trkpt lat="45.59467" lon="6.13672">
        <ele>870.732</ele>
        <time>2024-09-19T06:53:03Z</time>
      </trkpt>
      <trkpt lat="45.59462" lon="6.13669">
        <ele>871.474</ele>
        <time>2024-09-19T06:53:07Z</time>
      </trkpt>
      <trkpt lat="45.59454" lon="6.13663">
        <ele>869.858</ele>
        <time>2024-09-19T06:53:19Z</time>
      </trkpt>
      <trkpt lat="45.5945" lon="6.13659">
        <ele>870.562</ele>
        <time>2024-09-19T06:53:26Z</time>
      </trkpt>
      <trkpt lat="45.59446" lon="6.13662">
        <ele>872.416</ele>
        <time>2024-09-19T06:53:41Z</time>
      </trkpt>
      <trkpt lat="45.59442" lon="6.13661">
        <ele>873.666</ele>
        <time>2024-09-19T06:53:57Z</time>
      </trkpt>
      <trkpt lat="45.59437" lon="6.13659">
        <ele>872.213</ele>
        <time>2024-09-19T06:54:03Z</time>
      </trkpt>
      <trkpt lat="45.59432" lon="6.13658">
        <ele>871.667</ele>
        <time>2024-09-19T06:54:08Z</time>
      </trkpt>
      <trkpt lat="45.59425" lon="6.13651">
        <ele>866.069</ele>
        <time>2024-09-19T06:54:18Z</time>
      </trkpt>
      <trkpt lat="45.59423" lon="6.13651">
        <ele>861.437</ele>
        <time>2024-09-19T06:54:27Z</time>
      </trkpt>
      <trkpt lat="45.59417" lon="6.1365">
        <ele>863.352</ele>
        <time>2024-09-19T06:54:36Z</time>
      </trkpt>
      <trkpt lat="45.59413" lon="6.13648">
        <ele>865.096</ele>
        <time>2024-09-19T06:54:40Z</time>
      </trkpt>
      <trkpt lat="45.59408" lon="6.13649">
        <ele>867.302</ele>
        <time>2024-09-19T06:54:45Z</time>
      </trkpt>
      <trkpt lat="45.59404" lon="6.13648">
        <ele>869.978</ele>
        <time>2024-09-19T06:54:49Z</time>
      </trkpt>
      <trkpt lat="45.59399" lon="6.13645">
        <ele>871.518</ele>
        <time>2024-09-19T06:54:54Z</time>
      </trkpt>
      <trkpt lat="45.59387" lon="6.13636">
        <ele>869.944</ele>
        <time>2024-09-19T06:55:12Z</time>
      </trkpt>
      <trkpt lat="45.59378" lon="6.13634">
        <ele>872.064</ele>
        <time>2024-09-19T06:55:24Z</time>
      </trkpt>
      <trkpt lat="45.59372" lon="6.13632">
        <ele>872.567</ele>
        <time>2024-09-19T06:55:30Z</time>
      </trkpt>
      <trkpt lat="45.59368" lon="6.1363">
        <ele>874.6</ele>
        <time>2024-09-19T06:55:38Z</time>
      </trkpt>
      <trkpt lat="45.5936" lon="6.13632">
        <ele>882.212</ele>
        <time>2024-09-19T06:55:45Z</time>
      </trkpt>
      <trkpt lat="45.59356" lon="6.13631">
        <ele>880.457</ele>
        <time>2024-09-19T06:55:50Z</time>
      </trkpt>
      <trkpt lat="45.59346" lon="6.13625">
        <ele>882.669</ele>
        <time>2024-09-19T06:56:00Z</time>
      </trkpt>
      <trkpt lat="45.59342" lon="6.13622">
        <ele>885.291</ele>
        <time>2024-09-19T06:56:04Z</time>
      </trkpt>
      <trkpt lat="45.59337" lon="6.13619">
        <ele>885.944</ele>
        <time>2024-09-19T06:56:09Z</time>
      </trkpt>
      <trkpt lat="45.59329" lon="6.13615">
        <ele>880.274</ele>
        <time>2024-09-19T06:56:20Z</time>
      </trkpt>
      <trkpt lat="45.59324" lon="6.13613">
        <ele>878.247</ele>
        <time>2024-09-19T06:56:27Z</time>
      </trkpt>
      <trkpt lat="45.5932" lon="6.13613">
        <ele>877.714</ele>
        <time>2024-09-19T06:56:33Z</time>
      </trkpt>
      <trkpt lat="45.59316" lon="6.13614">
        <ele>871.643</ele>
        <time>2024-09-19T06:56:38Z</time>
      </trkpt>
      <trkpt lat="45.59311" lon="6.13612">
        <ele>869.217</ele>
        <time>2024-09-19T06:56:42Z</time>
      </trkpt>
      <trkpt lat="45.59307" lon="6.13611">
        <ele>866.396</ele>
        <time>2024-09-19T06:56:45Z</time>
      </trkpt>
      <trkpt lat="45.59301" lon="6.13608">
        <ele>866.87</ele>
        <time>2024-09-19T06:56:49Z</time>
      </trkpt>
      <trkpt lat="45.59298" lon="6.13605">
        <ele>870.022</ele>
        <time>2024-09-19T06:56:52Z</time>
      </trkpt>
      <trkpt lat="45.59295" lon="6.13601">
        <ele>873.269</ele>
        <time>2024-09-19T06:56:55Z</time>
      </trkpt>
      <trkpt lat="45.59292" lon="6.13596">
        <ele>877.203</ele>
        <time>2024-09-19T06:56:59Z</time>
      </trkpt>
      <trkpt lat="45.59289" lon="6.13593">
        <ele>880.896</ele>
        <time>2024-09-19T06:57:02Z</time>
      </trkpt>
      <trkpt lat="45.59286" lon="6.13588">
        <ele>883.745</ele>
        <time>2024-09-19T06:57:06Z</time>
      </trkpt>
      <trkpt lat="45.59286" lon="6.13584">
        <ele>879.425</ele>
        <time>2024-09-19T06:57:11Z</time>
      </trkpt>
      <trkpt lat="45.59284" lon="6.13578">
        <ele>881.615</ele>
        <time>2024-09-19T06:57:18Z</time>
      </trkpt>
      <trkpt lat="45.59282" lon="6.13573">
        <ele>884.105</ele>
        <time>2024-09-19T06:57:22Z</time>
      </trkpt>
      <trkpt lat="45.59279" lon="6.13569">
        <ele>886.987</ele>
        <time>2024-09-19T06:57:27Z</time>
      </trkpt>
      <trkpt lat="45.59276" lon="6.13563">
        <ele>889.284</ele>
        <time>2024-09-19T06:57:33Z</time>
      </trkpt>
      <trkpt lat="45.59272" lon="6.13559">
        <ele>889.634</ele>
        <time>2024-09-19T06:57:38Z</time>
      </trkpt>
      <trkpt lat="45.59269" lon="6.13555">
        <ele>885.021</ele>
        <time>2024-09-19T06:57:52Z</time>
      </trkpt>
      <trkpt lat="45.59267" lon="6.13554">
        <ele>887.639</ele>
        <time>2024-09-19T06:58:00Z</time>
      </trkpt>
      <trkpt lat="45.59266" lon="6.13551">
        <ele>886.762</ele>
        <time>2024-09-19T06:58:21Z</time>
      </trkpt>
      <trkpt lat="45.59263" lon="6.13548">
        <ele>883.482</ele>
        <time>2024-09-19T06:58:41Z</time>
      </trkpt>
      <trkpt lat="45.59254" lon="6.13546">
        <ele>888.696</ele>
        <time>2024-09-19T06:58:51Z</time>
      </trkpt>
      <trkpt lat="45.5925" lon="6.13543">
        <ele>886.227</ele>
        <time>2024-09-19T06:58:58Z</time>
      </trkpt>
      <trkpt lat="45.59241" lon="6.13541">
        <ele>891.633</ele>
        <time>2024-09-19T06:59:07Z</time>
      </trkpt>
      <trkpt lat="45.59236" lon="6.13539">
        <ele>893.759</ele>
        <time>2024-09-19T06:59:11Z</time>
      </trkpt>
      <trkpt lat="45.59232" lon="6.13538">
        <ele>897.246</ele>
        <time>2024-09-19T06:59:14Z</time>
      </trkpt>
      <trkpt lat="45.59228" lon="6.13536">
        <ele>895.156</ele>
        <time>2024-09-19T06:59:19Z</time>
      </trkpt>
      <trkpt lat="45.59226" lon="6.1353">
        <ele>895.687</ele>
        <time>2024-09-19T06:59:25Z</time>
      </trkpt>
      <trkpt lat="45.59226" lon="6.13526">
        <ele>891.262</ele>
        <time>2024-09-19T06:59:29Z</time>
      </trkpt>
      <trkpt lat="45.59225" lon="6.1352">
        <ele>889.206</ele>
        <time>2024-09-19T06:59:36Z</time>
      </trkpt>
      <trkpt lat="45.59222" lon="6.13516">
        <ele>885.464</ele>
        <time>2024-09-19T06:59:41Z</time>
      </trkpt>
      <trkpt lat="45.59224" lon="6.1351">
        <ele>886.94</ele>
        <time>2024-09-19T06:59:48Z</time>
      </trkpt>
      <trkpt lat="45.59221" lon="6.13503">
        <ele>885.24</ele>
        <time>2024-09-19T06:59:54Z</time>
      </trkpt>
      <trkpt lat="45.59218" lon="6.13498">
        <ele>884.689</ele>
        <time>2024-09-19T07:00:00Z</time>
      </trkpt>
      <trkpt lat="45.59215" lon="6.13494">
        <ele>882.61</ele>
        <time>2024-09-19T07:00:06Z</time>
      </trkpt>
      <trkpt lat="45.59213" lon="6.13488">
        <ele>883.278</ele>
        <time>2024-09-19T07:00:13Z</time>
      </trkpt>
      <trkpt lat="45.59213" lon="6.13481">
        <ele>885.769</ele>
        <time>2024-09-19T07:00:21Z</time>
      </trkpt>
      <trkpt lat="45.59211" lon="6.13475">
        <ele>883.878</ele>
        <time>2024-09-19T07:00:26Z</time>
      </trkpt>
      <trkpt lat="45.59209" lon="6.13462">
        <ele>884.995</ele>
        <time>2024-09-19T07:00:37Z</time>
      </trkpt>
      <trkpt lat="45.59209" lon="6.13455">
        <ele>886.385</ele>
        <time>2024-09-19T07:00:42Z</time>
      </trkpt>
      <trkpt lat="45.5921" lon="6.13449">
        <ele>886.908</ele>
        <time>2024-09-19T07:00:48Z</time>
      </trkpt>
      <trkpt lat="45.59208" lon="6.13443">
        <ele>890.722</ele>
        <time>2024-09-19T07:00:54Z</time>
      </trkpt>
      <trkpt lat="45.59208" lon="6.13425">
        <ele>897.984</ele>
        <time>2024-09-19T07:01:10Z</time>
      </trkpt>
      <trkpt lat="45.59207" lon="6.1342">
        <ele>894.552</ele>
        <time>2024-09-19T07:01:15Z</time>
      </trkpt>
      <trkpt lat="45.59207" lon="6.13414">
        <ele>890.974</ele>
        <time>2024-09-19T07:01:20Z</time>
      </trkpt>
      <trkpt lat="45.59208" lon="6.13408">
        <ele>889.705</ele>
        <time>2024-09-19T07:01:25Z</time>
      </trkpt>
      <trkpt lat="45.5921" lon="6.13401">
        <ele>888.583</ele>
        <time>2024-09-19T07:01:32Z</time>
      </trkpt>
      <trkpt lat="45.59209" lon="6.13395">
        <ele>885.506</ele>
        <time>2024-09-19T07:01:38Z</time>
      </trkpt>
      <trkpt lat="45.5921" lon="6.13389">
        <ele>890.326</ele>
        <time>2024-09-19T07:01:45Z</time>
      </trkpt>
      <trkpt lat="45.59212" lon="6.13385">
        <ele>895.692</ele>
        <time>2024-09-19T07:01:48Z</time>
      </trkpt>
      <trkpt lat="45.59212" lon="6.13379">
        <ele>897.907</ele>
        <time>2024-09-19T07:01:51Z</time>
      </trkpt>
      <trkpt lat="45.59208" lon="6.13366">
        <ele>898.439</ele>
        <time>2024-09-19T07:02:02Z</time>
      </trkpt>
      <trkpt lat="45.59208" lon="6.13361">
        <ele>900.845</ele>
        <time>2024-09-19T07:02:06Z</time>
      </trkpt>
      <trkpt lat="45.59206" lon="6.13357">
        <ele>901.306</ele>
        <time>2024-09-19T07:02:26Z</time>
      </trkpt>
      <trkpt lat="45.59202" lon="6.13354">
        <ele>905.41</ele>
        <time>2024-09-19T07:02:34Z</time>
      </trkpt>
      <trkpt lat="45.59197" lon="6.13353">
        <ele>907.459</ele>
        <time>2024-09-19T07:02:39Z</time>
      </trkpt>
      <trkpt lat="45.59194" lon="6.1335">
        <ele>911.258</ele>
        <time>2024-09-19T07:02:44Z</time>
      </trkpt>
      <trkpt lat="45.59189" lon="6.13348">
        <ele>910.744</ele>
        <time>2024-09-19T07:02:50Z</time>
      </trkpt>
      <trkpt lat="45.59186" lon="6.13344">
        <ele>912.787</ele>
        <time>2024-09-19T07:02:57Z</time>
      </trkpt>
      <trkpt lat="45.59182" lon="6.13341">
        <ele>916.25</ele>
        <time>2024-09-19T07:03:06Z</time>
      </trkpt>
      <trkpt lat="45.59176" lon="6.13338">
        <ele>915.012</ele>
        <time>2024-09-19T07:03:10Z</time>
      </trkpt>
      <trkpt lat="45.59166" lon="6.13334">
        <ele>912.508</ele>
        <time>2024-09-19T07:03:18Z</time>
      </trkpt>
      <trkpt lat="45.59157" lon="6.13332">
        <ele>911.071</ele>
        <time>2024-09-19T07:03:28Z</time>
      </trkpt>
      <trkpt lat="45.59152" lon="6.1333">
        <ele>911.433</ele>
        <time>2024-09-19T07:03:35Z</time>
      </trkpt>
      <trkpt lat="45.59148" lon="6.13327">
        <ele>911.062</ele>
        <time>2024-09-19T07:03:42Z</time>
      </trkpt>
      <trkpt lat="45.59143" lon="6.13326">
        <ele>912.454</ele>
        <time>2024-09-19T07:03:49Z</time>
      </trkpt>
      <trkpt lat="45.59139" lon="6.13324">
        <ele>914.138</ele>
        <time>2024-09-19T07:03:54Z</time>
      </trkpt>
      <trkpt lat="45.59134" lon="6.13322">
        <ele>914.974</ele>
        <time>2024-09-19T07:04:01Z</time>
      </trkpt>
      <trkpt lat="45.5913" lon="6.13318">
        <ele>916.54</ele>
        <time>2024-09-19T07:04:06Z</time>
      </trkpt>
      <trkpt lat="45.59122" lon="6.13314">
        <ele>919.812</ele>
        <time>2024-09-19T07:04:18Z</time>
      </trkpt>
      <trkpt lat="45.59117" lon="6.13312">
        <ele>919.974</ele>
        <time>2024-09-19T07:04:23Z</time>
      </trkpt>
      <trkpt lat="45.59113" lon="6.13314">
        <ele>920.587</ele>
        <time>2024-09-19T07:04:29Z</time>
      </trkpt>
      <trkpt lat="45.59108" lon="6.13315">
        <ele>920.39</ele>
        <time>2024-09-19T07:04:38Z</time>
      </trkpt>
      <trkpt lat="45.59095" lon="6.13312">
        <ele>920.863</ele>
        <time>2024-09-19T07:04:59Z</time>
      </trkpt>
      <trkpt lat="45.59081" lon="6.13305">
        <ele>923.312</ele>
        <time>2024-09-19T07:05:15Z</time>
      </trkpt>
      <trkpt lat="45.59071" lon="6.13301">
        <ele>924.378</ele>
        <time>2024-09-19T07:05:26Z</time>
      </trkpt>
      <trkpt lat="45.59068" lon="6.13299">
        <ele>926.872</ele>
        <time>2024-09-19T07:05:31Z</time>
      </trkpt>
      <trkpt lat="45.59062" lon="6.13297">
        <ele>927.211</ele>
        <time>2024-09-19T07:05:37Z</time>
      </trkpt>
      <trkpt lat="45.59058" lon="6.13295">
        <ele>928.222</ele>
        <time>2024-09-19T07:05:42Z</time>
      </trkpt>
      <trkpt lat="45.59053" lon="6.13293">
        <ele>929.054</ele>
        <time>2024-09-19T07:05:47Z</time>
      </trkpt>
      <trkpt lat="45.59049" lon="6.13291">
        <ele>931.018</ele>
        <time>2024-09-19T07:05:52Z</time>
      </trkpt>
      <trkpt lat="45.59046" lon="6.1329">
        <ele>936.279</ele>
        <time>2024-09-19T07:05:56Z</time>
      </trkpt>
      <trkpt lat="45.59041" lon="6.13289">
        <ele>934.725</ele>
        <time>2024-09-19T07:06:02Z</time>
      </trkpt>
      <trkpt lat="45.59036" lon="6.13287">
        <ele>936.178</ele>
        <time>2024-09-19T07:06:10Z</time>
      </trkpt>
      <trkpt lat="45.59026" lon="6.13285">
        <ele>935.303</ele>
        <time>2024-09-19T07:06:26Z</time>
      </trkpt>
      <trkpt lat="45.59022" lon="6.13282">
        <ele>935.778</ele>
        <time>2024-09-19T07:06:31Z</time>
      </trkpt>
      <trkpt lat="45.59014" lon="6.13278">
        <ele>937.167</ele>
        <time>2024-09-19T07:06:40Z</time>
      </trkpt>
      <trkpt lat="45.59012" lon="6.13275">
        <ele>932.34</ele>
        <time>2024-09-19T07:06:47Z</time>
      </trkpt>
      <trkpt lat="45.59008" lon="6.13272">
        <ele>935.128</ele>
        <time>2024-09-19T07:07:00Z</time>
      </trkpt>
      <trkpt lat="45.59004" lon="6.13271">
        <ele>938.387</ele>
        <time>2024-09-19T07:07:07Z</time>
      </trkpt>
      <trkpt lat="45.59" lon="6.13271">
        <ele>937.63</ele>
        <time>2024-09-19T07:07:12Z</time>
      </trkpt>
      <trkpt lat="45.58991" lon="6.13269">
        <ele>935.463</ele>
        <time>2024-09-19T07:07:24Z</time>
      </trkpt>
      <trkpt lat="45.58988" lon="6.13269">
        <ele>930.469</ele>
        <time>2024-09-19T07:09:52Z</time>
      </trkpt>
      <trkpt lat="45.5899" lon="6.13265">
        <ele>928.614</ele>
        <time>2024-09-19T07:10:12Z</time>
      </trkpt>
      <trkpt lat="45.58994" lon="6.13261">
        <ele>927.578</ele>
        <time>2024-09-19T07:10:20Z</time>
      </trkpt>
      <trkpt lat="45.58995" lon="6.13255">
        <ele>930.146</ele>
        <time>2024-09-19T07:10:26Z</time>
      </trkpt>
      <trkpt lat="45.58993" lon="6.13243">
        <ele>931.797</ele>
        <time>2024-09-19T07:10:45Z</time>
      </trkpt>
      <trkpt lat="45.58991" lon="6.13239">
        <ele>935.337</ele>
        <time>2024-09-19T07:10:52Z</time>
      </trkpt>
      <trkpt lat="45.58989" lon="6.1324">
        <ele>934.993</ele>
        <time>2024-09-19T07:12:14Z</time>
      </trkpt>
      <trkpt lat="45.58984" lon="6.1324">
        <ele>933.689</ele>
        <time>2024-09-19T07:12:24Z</time>
      </trkpt>
      <trkpt lat="45.58979" lon="6.13237">
        <ele>932.353</ele>
        <time>2024-09-19T07:12:29Z</time>
      </trkpt>
      <trkpt lat="45.58975" lon="6.13237">
        <ele>932.443</ele>
        <time>2024-09-19T07:12:36Z</time>
      </trkpt>
      <trkpt lat="45.5897" lon="6.13235">
        <ele>933.712</ele>
        <time>2024-09-19T07:12:40Z</time>
      </trkpt>
      <trkpt lat="45.58966" lon="6.13232">
        <ele>937.323</ele>
        <time>2024-09-19T07:12:49Z</time>
      </trkpt>
      <trkpt lat="45.58962" lon="6.1323">
        <ele>936.304</ele>
        <time>2024-09-19T07:13:03Z</time>
      </trkpt>
      <trkpt lat="45.58958" lon="6.13226">
        <ele>934.252</ele>
        <time>2024-09-19T07:13:08Z</time>
      </trkpt>
      <trkpt lat="45.58953" lon="6.13227">
        <ele>936.59</ele>
        <time>2024-09-19T07:13:15Z</time>
      </trkpt>
      <trkpt lat="45.58949" lon="6.13225">
        <ele>937.666</ele>
        <time>2024-09-19T07:13:21Z</time>
      </trkpt>
      <trkpt lat="45.58946" lon="6.13223">
        <ele>941.038</ele>
        <time>2024-09-19T07:13:40Z</time>
      </trkpt>
      <trkpt lat="45.58942" lon="6.13219">
        <ele>938.296</ele>
        <time>2024-09-19T07:13:48Z</time>
      </trkpt>
      <trkpt lat="45.5894" lon="6.13216">
        <ele>934.743</ele>
        <time>2024-09-19T07:13:53Z</time>
      </trkpt>
      <trkpt lat="45.58936" lon="6.13214">
        <ele>937.237</ele>
        <time>2024-09-19T07:13:58Z</time>
      </trkpt>
      <trkpt lat="45.58931" lon="6.13211">
        <ele>937.445</ele>
        <time>2024-09-19T07:14:01Z</time>
      </trkpt>
      <trkpt lat="45.58927" lon="6.13209">
        <ele>939.884</ele>
        <time>2024-09-19T07:14:07Z</time>
      </trkpt>
      <trkpt lat="45.58922" lon="6.13207">
        <ele>941.642</ele>
        <time>2024-09-19T07:14:11Z</time>
      </trkpt>
      <trkpt lat="45.58918" lon="6.13204">
        <ele>941.105</ele>
        <time>2024-09-19T07:14:15Z</time>
      </trkpt>
      <trkpt lat="45.5891" lon="6.132">
        <ele>946.484</ele>
        <time>2024-09-19T07:14:32Z</time>
      </trkpt>
      <trkpt lat="45.58906" lon="6.13197">
        <ele>949.087</ele>
        <time>2024-09-19T07:14:37Z</time>
      </trkpt>
      <trkpt lat="45.58898" lon="6.13193">
        <ele>956.47</ele>
        <time>2024-09-19T07:14:54Z</time>
      </trkpt>
      <trkpt lat="45.58895" lon="6.13194">
        <ele>960.636</ele>
        <time>2024-09-19T07:14:58Z</time>
      </trkpt>
      <trkpt lat="45.58891" lon="6.1319">
        <ele>961.329</ele>
        <time>2024-09-19T07:15:13Z</time>
      </trkpt>
      <trkpt lat="45.58887" lon="6.13189">
        <ele>963.35</ele>
        <time>2024-09-19T07:15:22Z</time>
      </trkpt>
      <trkpt lat="45.58882" lon="6.13187">
        <ele>962.875</ele>
        <time>2024-09-19T07:15:30Z</time>
      </trkpt>
      <trkpt lat="45.58876" lon="6.13186">
        <ele>963.256</ele>
        <time>2024-09-19T07:15:41Z</time>
      </trkpt>
      <trkpt lat="45.58869" lon="6.13181">
        <ele>968.227</ele>
        <time>2024-09-19T07:15:50Z</time>
      </trkpt>
      <trkpt lat="45.58863" lon="6.1318">
        <ele>971.148</ele>
        <time>2024-09-19T07:15:56Z</time>
      </trkpt>
      <trkpt lat="45.58858" lon="6.13181">
        <ele>973.427</ele>
        <time>2024-09-19T07:15:59Z</time>
      </trkpt>
      <trkpt lat="45.58848" lon="6.13179">
        <ele>972.313</ele>
        <time>2024-09-19T07:16:04Z</time>
      </trkpt>
      <trkpt lat="45.58843" lon="6.13179">
        <ele>971.986</ele>
        <time>2024-09-19T07:16:09Z</time>
      </trkpt>
      <trkpt lat="45.58838" lon="6.13178">
        <ele>973.823</ele>
        <time>2024-09-19T07:16:15Z</time>
      </trkpt>
      <trkpt lat="45.58834" lon="6.13176">
        <ele>974.298</ele>
        <time>2024-09-19T07:16:24Z</time>
      </trkpt>
      <trkpt lat="45.58825" lon="6.13176">
        <ele>970.243</ele>
        <time>2024-09-19T07:16:43Z</time>
      </trkpt>
      <trkpt lat="45.58821" lon="6.13174">
        <ele>968.931</ele>
        <time>2024-09-19T07:16:49Z</time>
      </trkpt>
      <trkpt lat="45.58816" lon="6.13173">
        <ele>971.092</ele>
        <time>2024-09-19T07:16:59Z</time>
      </trkpt>
      <trkpt lat="45.58804" lon="6.13173">
        <ele>970.5</ele>
        <time>2024-09-19T07:17:27Z</time>
      </trkpt>
      <trkpt lat="45.58799" lon="6.13174">
        <ele>972.004</ele>
        <time>2024-09-19T07:17:30Z</time>
      </trkpt>
      <trkpt lat="45.58795" lon="6.13176">
        <ele>972.117</ele>
        <time>2024-09-19T07:17:35Z</time>
      </trkpt>
      <trkpt lat="45.58791" lon="6.13175">
        <ele>977.76</ele>
        <time>2024-09-19T07:17:42Z</time>
      </trkpt>
      <trkpt lat="45.58787" lon="6.13172">
        <ele>979.968</ele>
        <time>2024-09-19T07:17:46Z</time>
      </trkpt>
      <trkpt lat="45.58784" lon="6.13171">
        <ele>984.006</ele>
        <time>2024-09-19T07:17:49Z</time>
      </trkpt>
      <trkpt lat="45.58783" lon="6.13165">
        <ele>982.155</ele>
        <time>2024-09-19T07:17:57Z</time>
      </trkpt>
      <trkpt lat="45.5878" lon="6.1316">
        <ele>984.575</ele>
        <time>2024-09-19T07:18:05Z</time>
      </trkpt>
      <trkpt lat="45.58777" lon="6.13156">
        <ele>986.349</ele>
        <time>2024-09-19T07:18:14Z</time>
      </trkpt>
      <trkpt lat="45.58772" lon="6.13153">
        <ele>986.361</ele>
        <time>2024-09-19T07:18:25Z</time>
      </trkpt>
      <trkpt lat="45.58769" lon="6.1315">
        <ele>982.81</ele>
        <time>2024-09-19T07:18:30Z</time>
      </trkpt>
      <trkpt lat="45.58765" lon="6.1315">
        <ele>983.287</ele>
        <time>2024-09-19T07:18:38Z</time>
      </trkpt>
      <trkpt lat="45.58761" lon="6.13151">
        <ele>987.82</ele>
        <time>2024-09-19T07:18:48Z</time>
      </trkpt>
      <trkpt lat="45.58754" lon="6.13144">
        <ele>992.248</ele>
        <time>2024-09-19T07:19:01Z</time>
      </trkpt>
      <trkpt lat="45.5875" lon="6.13139">
        <ele>994.478</ele>
        <time>2024-09-19T07:19:09Z</time>
      </trkpt>
      <trkpt lat="45.58746" lon="6.13136">
        <ele>995.303</ele>
        <time>2024-09-19T07:19:15Z</time>
      </trkpt>
      <trkpt lat="45.58741" lon="6.13133">
        <ele>994.994</ele>
        <time>2024-09-19T07:19:21Z</time>
      </trkpt>
      <trkpt lat="45.58738" lon="6.13129">
        <ele>997.296</ele>
        <time>2024-09-19T07:19:29Z</time>
      </trkpt>
      <trkpt lat="45.58734" lon="6.13127">
        <ele>995.846</ele>
        <time>2024-09-19T07:19:37Z</time>
      </trkpt>
      <trkpt lat="45.58731" lon="6.13123">
        <ele>999.605</ele>
        <time>2024-09-19T07:19:42Z</time>
      </trkpt>
      <trkpt lat="45.58728" lon="6.1312">
        <ele>1002.478</ele>
        <time>2024-09-19T07:19:50Z</time>
      </trkpt>
      <trkpt lat="45.58718" lon="6.13116">
        <ele>999.422</ele>
        <time>2024-09-19T07:20:01Z</time>
      </trkpt>
      <trkpt lat="45.58716" lon="6.1311">
        <ele>1000.314</ele>
        <time>2024-09-19T07:20:07Z</time>
      </trkpt>
      <trkpt lat="45.58715" lon="6.13102">
        <ele>1002.693</ele>
        <time>2024-09-19T07:21:18Z</time>
      </trkpt>
      <trkpt lat="45.58711" lon="6.13103">
        <ele>1003.774</ele>
        <time>2024-09-19T07:21:38Z</time>
      </trkpt>
      <trkpt lat="45.58709" lon="6.13101">
        <ele>1007.776</ele>
        <time>2024-09-19T07:21:42Z</time>
      </trkpt>
      <trkpt lat="45.58704" lon="6.13099">
        <ele>1006.24</ele>
        <time>2024-09-19T07:21:46Z</time>
      </trkpt>
      <trkpt lat="45.587" lon="6.13097">
        <ele>1006.873</ele>
        <time>2024-09-19T07:21:52Z</time>
      </trkpt>
      <trkpt lat="45.5869" lon="6.13093">
        <ele>1008.242</ele>
        <time>2024-09-19T07:22:12Z</time>
      </trkpt>
      <trkpt lat="45.58686" lon="6.13089">
        <ele>1009.431</ele>
        <time>2024-09-19T07:22:19Z</time>
      </trkpt>
      <trkpt lat="45.58682" lon="6.13088">
        <ele>1011.591</ele>
        <time>2024-09-19T07:22:31Z</time>
      </trkpt>
      <trkpt lat="45.58677" lon="6.13086">
        <ele>1010.154</ele>
        <time>2024-09-19T07:22:37Z</time>
      </trkpt>
      <trkpt lat="45.58674" lon="6.13082">
        <ele>1011.073</ele>
        <time>2024-09-19T07:22:48Z</time>
      </trkpt>
      <trkpt lat="45.5867" lon="6.13079">
        <ele>1012.154</ele>
        <time>2024-09-19T07:22:57Z</time>
      </trkpt>
      <trkpt lat="45.58665" lon="6.13076">
        <ele>1011.694</ele>
        <time>2024-09-19T07:23:06Z</time>
      </trkpt>
      <trkpt lat="45.58661" lon="6.13074">
        <ele>1009.344</ele>
        <time>2024-09-19T07:23:10Z</time>
      </trkpt>
      <trkpt lat="45.58657" lon="6.13071">
        <ele>1010.187</ele>
        <time>2024-09-19T07:23:17Z</time>
      </trkpt>
      <trkpt lat="45.58653" lon="6.13069">
        <ele>1010.833</ele>
        <time>2024-09-19T07:23:38Z</time>
      </trkpt>
      <trkpt lat="45.58648" lon="6.1307">
        <ele>1013.541</ele>
        <time>2024-09-19T07:23:45Z</time>
      </trkpt>
      <trkpt lat="45.58645" lon="6.13065">
        <ele>1015.185</ele>
        <time>2024-09-19T07:23:50Z</time>
      </trkpt>
      <trkpt lat="45.5864" lon="6.13063">
        <ele>1016.381</ele>
        <time>2024-09-19T07:23:56Z</time>
      </trkpt>
      <trkpt lat="45.58636" lon="6.13059">
        <ele>1016.378</ele>
        <time>2024-09-19T07:24:05Z</time>
      </trkpt>
      <trkpt lat="45.58634" lon="6.13053">
        <ele>1016.184</ele>
        <time>2024-09-19T07:24:09Z</time>
      </trkpt>
      <trkpt lat="45.58627" lon="6.13044">
        <ele>1018.355</ele>
        <time>2024-09-19T07:24:27Z</time>
      </trkpt>
      <trkpt lat="45.58622" lon="6.1304">
        <ele>1016.952</ele>
        <time>2024-09-19T07:24:30Z</time>
      </trkpt>
      <trkpt lat="45.58617" lon="6.13038">
        <ele>1017.7</ele>
        <time>2024-09-19T07:24:36Z</time>
      </trkpt>
      <trkpt lat="45.58614" lon="6.13033">
        <ele>1018.803</ele>
        <time>2024-09-19T07:24:53Z</time>
      </trkpt>
      <trkpt lat="45.58614" lon="6.13029">
        <ele>1022.423</ele>
        <time>2024-09-19T07:24:57Z</time>
      </trkpt>
      <trkpt lat="45.58611" lon="6.13027">
        <ele>1026.397</ele>
        <time>2024-09-19T07:25:01Z</time>
      </trkpt>
      <trkpt lat="45.58608" lon="6.13024">
        <ele>1028.834</ele>
        <time>2024-09-19T07:25:14Z</time>
      </trkpt>
      <trkpt lat="45.58605" lon="6.1302">
        <ele>1031.538</ele>
        <time>2024-09-19T07:25:25Z</time>
      </trkpt>
      <trkpt lat="45.58597" lon="6.13012">
        <ele>1031.797</ele>
        <time>2024-09-19T07:25:39Z</time>
      </trkpt>
      <trkpt lat="45.58592" lon="6.13011">
        <ele>1031.386</ele>
        <time>2024-09-19T07:25:57Z</time>
      </trkpt>
      <trkpt lat="45.58587" lon="6.13008">
        <ele>1029.692</ele>
        <time>2024-09-19T07:26:01Z</time>
      </trkpt>
      <trkpt lat="45.58583" lon="6.13008">
        <ele>1032.65</ele>
        <time>2024-09-19T07:26:06Z</time>
      </trkpt>
      <trkpt lat="45.58579" lon="6.13009">
        <ele>1034.539</ele>
        <time>2024-09-19T07:26:11Z</time>
      </trkpt>
      <trkpt lat="45.58575" lon="6.13007">
        <ele>1035.339</ele>
        <time>2024-09-19T07:26:23Z</time>
      </trkpt>
      <trkpt lat="45.58571" lon="6.13004">
        <ele>1037.747</ele>
        <time>2024-09-19T07:26:30Z</time>
      </trkpt>
      <trkpt lat="45.58566" lon="6.13001">
        <ele>1036.235</ele>
        <time>2024-09-19T07:26:35Z</time>
      </trkpt>
      <trkpt lat="45.58561" lon="6.12999">
        <ele>1038.271</ele>
        <time>2024-09-19T07:26:41Z</time>
      </trkpt>
      <trkpt lat="45.58557" lon="6.12996">
        <ele>1038.343</ele>
        <time>2024-09-19T07:26:46Z</time>
      </trkpt>
      <trkpt lat="45.58552" lon="6.12997">
        <ele>1037.798</ele>
        <time>2024-09-19T07:26:55Z</time>
      </trkpt>
      <trkpt lat="45.58551" lon="6.12998">
        <ele>1041.198</ele>
        <time>2024-09-19T07:27:16Z</time>
      </trkpt>
      <trkpt lat="45.58545" lon="6.12996">
        <ele>1040.285</ele>
        <time>2024-09-19T07:27:47Z</time>
      </trkpt>
      <trkpt lat="45.58541" lon="6.12993">
        <ele>1042.117</ele>
        <time>2024-09-19T07:27:56Z</time>
      </trkpt>
      <trkpt lat="45.58536" lon="6.1299">
        <ele>1041.516</ele>
        <time>2024-09-19T07:28:13Z</time>
      </trkpt>
      <trkpt lat="45.58533" lon="6.12989">
        <ele>1044.688</ele>
        <time>2024-09-19T07:28:19Z</time>
      </trkpt>
      <trkpt lat="45.58528" lon="6.12986">
        <ele>1045.574</ele>
        <time>2024-09-19T07:28:28Z</time>
      </trkpt>
      <trkpt lat="45.58524" lon="6.12978">
        <ele>1049.049</ele>
        <time>2024-09-19T07:28:41Z</time>
      </trkpt>
      <trkpt lat="45.58519" lon="6.12974">
        <ele>1045.572</ele>
        <time>2024-09-19T07:28:47Z</time>
      </trkpt>
      <trkpt lat="45.58514" lon="6.12972">
        <ele>1046.57</ele>
        <time>2024-09-19T07:28:52Z</time>
      </trkpt>
      <trkpt lat="45.5851" lon="6.12969">
        <ele>1048.623</ele>
        <time>2024-09-19T07:28:59Z</time>
      </trkpt>
      <trkpt lat="45.58501" lon="6.12967">
        <ele>1050.8</ele>
        <time>2024-09-19T07:29:16Z</time>
      </trkpt>
      <trkpt lat="45.58497" lon="6.12968">
        <ele>1048.453</ele>
        <time>2024-09-19T07:29:22Z</time>
      </trkpt>
      <trkpt lat="45.58492" lon="6.12967">
        <ele>1046.834</ele>
        <time>2024-09-19T07:29:28Z</time>
      </trkpt>
      <trkpt lat="45.58488" lon="6.12968">
        <ele>1045.463</ele>
        <time>2024-09-19T07:29:35Z</time>
      </trkpt>
      <trkpt lat="45.58486" lon="6.12973">
        <ele>1048.417</ele>
        <time>2024-09-19T07:29:42Z</time>
      </trkpt>
      <trkpt lat="45.58482" lon="6.12976">
        <ele>1050.397</ele>
        <time>2024-09-19T07:29:52Z</time>
      </trkpt>
      <trkpt lat="45.58477" lon="6.12976">
        <ele>1048.62</ele>
        <time>2024-09-19T07:29:56Z</time>
      </trkpt>
      <trkpt lat="45.58475" lon="6.12978">
        <ele>1047.383</ele>
        <time>2024-09-19T07:30:16Z</time>
      </trkpt>
      <trkpt lat="45.5847" lon="6.1298">
        <ele>1044.531</ele>
        <time>2024-09-19T07:30:23Z</time>
      </trkpt>
      <trkpt lat="45.58465" lon="6.12978">
        <ele>1045.145</ele>
        <time>2024-09-19T07:30:28Z</time>
      </trkpt>
      <trkpt lat="45.58461" lon="6.12977">
        <ele>1045.287</ele>
        <time>2024-09-19T07:30:34Z</time>
      </trkpt>
      <trkpt lat="45.58457" lon="6.1298">
        <ele>1047.219</ele>
        <time>2024-09-19T07:30:40Z</time>
      </trkpt>
      <trkpt lat="45.58455" lon="6.12985">
        <ele>1050.083</ele>
        <time>2024-09-19T07:31:01Z</time>
      </trkpt>
      <trkpt lat="45.58448" lon="6.12978">
        <ele>1054.945</ele>
        <time>2024-09-19T07:31:17Z</time>
      </trkpt>
      <trkpt lat="45.58448" lon="6.12971">
        <ele>1052.788</ele>
        <time>2024-09-19T07:31:26Z</time>
      </trkpt>
      <trkpt lat="45.58447" lon="6.12965">
        <ele>1049.715</ele>
        <time>2024-09-19T07:31:31Z</time>
      </trkpt>
      <trkpt lat="45.58448" lon="6.1296">
        <ele>1053.704</ele>
        <time>2024-09-19T07:31:36Z</time>
      </trkpt>
      <trkpt lat="45.58447" lon="6.12956">
        <ele>1058.438</ele>
        <time>2024-09-19T07:31:40Z</time>
      </trkpt>
      <trkpt lat="45.5844" lon="6.12949">
        <ele>1062.364</ele>
        <time>2024-09-19T07:31:51Z</time>
      </trkpt>
      <trkpt lat="45.58429" lon="6.12935">
        <ele>1068.332</ele>
        <time>2024-09-19T07:32:04Z</time>
      </trkpt>
      <trkpt lat="45.58425" lon="6.12933">
        <ele>1069.244</ele>
        <time>2024-09-19T07:32:13Z</time>
      </trkpt>
      <trkpt lat="45.58421" lon="6.1293">
        <ele>1070.531</ele>
        <time>2024-09-19T07:32:23Z</time>
      </trkpt>
      <trkpt lat="45.58417" lon="6.12929">
        <ele>1066.458</ele>
        <time>2024-09-19T07:32:27Z</time>
      </trkpt>
      <trkpt lat="45.58414" lon="6.12927">
        <ele>1064.407</ele>
        <time>2024-09-19T07:32:32Z</time>
      </trkpt>
      <trkpt lat="45.5841" lon="6.12923">
        <ele>1063.109</ele>
        <time>2024-09-19T07:32:40Z</time>
      </trkpt>
      <trkpt lat="45.58405" lon="6.12922">
        <ele>1064.295</ele>
        <time>2024-09-19T07:32:50Z</time>
      </trkpt>
      <trkpt lat="45.584" lon="6.1292">
        <ele>1065.304</ele>
        <time>2024-09-19T07:32:57Z</time>
      </trkpt>
      <trkpt lat="45.58396" lon="6.12916">
        <ele>1065.556</ele>
        <time>2024-09-19T07:33:05Z</time>
      </trkpt>
      <trkpt lat="45.58392" lon="6.12916">
        <ele>1067.037</ele>
        <time>2024-09-19T07:33:17Z</time>
      </trkpt>
      <trkpt lat="45.58389" lon="6.12914">
        <ele>1071.267</ele>
        <time>2024-09-19T07:33:22Z</time>
      </trkpt>
      <trkpt lat="45.58385" lon="6.12912">
        <ele>1068.552</ele>
        <time>2024-09-19T07:33:33Z</time>
      </trkpt>
      <trkpt lat="45.58384" lon="6.12911">
        <ele>1070.474</ele>
        <time>2024-09-19T07:33:54Z</time>
      </trkpt>
      <trkpt lat="45.58383" lon="6.12907">
        <ele>1067.526</ele>
        <time>2024-09-19T07:34:14Z</time>
      </trkpt>
      <trkpt lat="45.58381" lon="6.12903">
        <ele>1064.552</ele>
        <time>2024-09-19T07:38:00Z</time>
      </trkpt>
      <trkpt lat="45.58377" lon="6.12906">
        <ele>1062.642</ele>
        <time>2024-09-19T07:38:04Z</time>
      </trkpt>
      <trkpt lat="45.58372" lon="6.12906">
        <ele>1061.551</ele>
        <time>2024-09-19T07:38:08Z</time>
      </trkpt>
      <trkpt lat="45.58367" lon="6.12908">
        <ele>1062.952</ele>
        <time>2024-09-19T07:38:15Z</time>
      </trkpt>
      <trkpt lat="45.5835" lon="6.12921">
        <ele>1059.445</ele>
        <time>2024-09-19T07:38:36Z</time>
      </trkpt>
      <trkpt lat="45.58345" lon="6.12921">
        <ele>1059.724</ele>
        <time>2024-09-19T07:38:40Z</time>
      </trkpt>
      <trkpt lat="45.58342" lon="6.12925">
        <ele>1060.497</ele>
        <time>2024-09-19T07:38:44Z</time>
      </trkpt>
      <trkpt lat="45.58339" lon="6.12931">
        <ele>1059.595</ele>
        <time>2024-09-19T07:38:48Z</time>
      </trkpt>
      <trkpt lat="45.58335" lon="6.12936">
        <ele>1058.439</ele>
        <time>2024-09-19T07:38:52Z</time>
      </trkpt>
      <trkpt lat="45.58332" lon="6.12938">
        <ele>1060.972</ele>
        <time>2024-09-19T07:38:57Z</time>
      </trkpt>
      <trkpt lat="45.58327" lon="6.12939">
        <ele>1061.316</ele>
        <time>2024-09-19T07:39:03Z</time>
      </trkpt>
      <trkpt lat="45.58321" lon="6.12941">
        <ele>1061.524</ele>
        <time>2024-09-19T07:39:10Z</time>
      </trkpt>
      <trkpt lat="45.58317" lon="6.12943">
        <ele>1062.635</ele>
        <time>2024-09-19T07:39:14Z</time>
      </trkpt>
      <trkpt lat="45.58314" lon="6.1295">
        <ele>1063.355</ele>
        <time>2024-09-19T07:39:19Z</time>
      </trkpt>
      <trkpt lat="45.5831" lon="6.1295">
        <ele>1060.475</ele>
        <time>2024-09-19T07:39:23Z</time>
      </trkpt>
      <trkpt lat="45.58305" lon="6.12949">
        <ele>1060.583</ele>
        <time>2024-09-19T07:39:28Z</time>
      </trkpt>
      <trkpt lat="45.58298" lon="6.12956">
        <ele>1063.317</ele>
        <time>2024-09-19T07:39:43Z</time>
      </trkpt>
      <trkpt lat="45.58294" lon="6.12957">
        <ele>1068.566</ele>
        <time>2024-09-19T07:39:51Z</time>
      </trkpt>
      <trkpt lat="45.58289" lon="6.12959">
        <ele>1068.93</ele>
        <time>2024-09-19T07:39:56Z</time>
      </trkpt>
      <trkpt lat="45.5828" lon="6.12961">
        <ele>1071.62</ele>
        <time>2024-09-19T07:40:24Z</time>
      </trkpt>
      <trkpt lat="45.58271" lon="6.12959">
        <ele>1073.467</ele>
        <time>2024-09-19T07:40:34Z</time>
      </trkpt>
      <trkpt lat="45.58266" lon="6.12962">
        <ele>1071.388</ele>
        <time>2024-09-19T07:40:45Z</time>
      </trkpt>
      <trkpt lat="45.58258" lon="6.12965">
        <ele>1070.566</ele>
        <time>2024-09-19T07:40:58Z</time>
      </trkpt>
      <trkpt lat="45.58254" lon="6.12966">
        <ele>1071.898</ele>
        <time>2024-09-19T07:41:02Z</time>
      </trkpt>
      <trkpt lat="45.58245" lon="6.12966">
        <ele>1076.852</ele>
        <time>2024-09-19T07:41:10Z</time>
      </trkpt>
      <trkpt lat="45.58241" lon="6.12967">
        <ele>1079.957</ele>
        <time>2024-09-19T07:41:16Z</time>
      </trkpt>
      <trkpt lat="45.58237" lon="6.12969">
        <ele>1078.176</ele>
        <time>2024-09-19T07:41:23Z</time>
      </trkpt>
      <trkpt lat="45.58232" lon="6.12968">
        <ele>1078.078</ele>
        <time>2024-09-19T07:41:29Z</time>
      </trkpt>
      <trkpt lat="45.58228" lon="6.12965">
        <ele>1076.467</ele>
        <time>2024-09-19T07:41:35Z</time>
      </trkpt>
      <trkpt lat="45.58224" lon="6.12963">
        <ele>1072.764</ele>
        <time>2024-09-19T07:41:41Z</time>
      </trkpt>
      <trkpt lat="45.58212" lon="6.12963">
        <ele>1069.008</ele>
        <time>2024-09-19T07:41:57Z</time>
      </trkpt>
      <trkpt lat="45.58207" lon="6.12962">
        <ele>1071.014</ele>
        <time>2024-09-19T07:42:01Z</time>
      </trkpt>
      <trkpt lat="45.58202" lon="6.12964">
        <ele>1070.33</ele>
        <time>2024-09-19T07:42:07Z</time>
      </trkpt>
      <trkpt lat="45.58189" lon="6.12956">
        <ele>1072.471</ele>
        <time>2024-09-19T07:42:26Z</time>
      </trkpt>
      <trkpt lat="45.58185" lon="6.12953">
        <ele>1074.343</ele>
        <time>2024-09-19T07:42:32Z</time>
      </trkpt>
      <trkpt lat="45.5818" lon="6.12954">
        <ele>1074.649</ele>
        <time>2024-09-19T07:42:39Z</time>
      </trkpt>
      <trkpt lat="45.58176" lon="6.12951">
        <ele>1075.481</ele>
        <time>2024-09-19T07:42:45Z</time>
      </trkpt>
      <trkpt lat="45.58171" lon="6.1295">
        <ele>1076.626</ele>
        <time>2024-09-19T07:42:50Z</time>
      </trkpt>
      <trkpt lat="45.58166" lon="6.1295">
        <ele>1077.5</ele>
        <time>2024-09-19T07:42:55Z</time>
      </trkpt>
      <trkpt lat="45.58163" lon="6.12948">
        <ele>1080.933</ele>
        <time>2024-09-19T07:43:02Z</time>
      </trkpt>
      <trkpt lat="45.5816" lon="6.12943">
        <ele>1081.56</ele>
        <time>2024-09-19T07:43:08Z</time>
      </trkpt>
      <trkpt lat="45.58156" lon="6.12941">
        <ele>1081.002</ele>
        <time>2024-09-19T07:43:15Z</time>
      </trkpt>
      <trkpt lat="45.58152" lon="6.12942">
        <ele>1084.33</ele>
        <time>2024-09-19T07:43:21Z</time>
      </trkpt>
      <trkpt lat="45.58147" lon="6.12941">
        <ele>1086.329</ele>
        <time>2024-09-19T07:43:38Z</time>
      </trkpt>
      <trkpt lat="45.58143" lon="6.12942">
        <ele>1087.311</ele>
        <time>2024-09-19T07:43:45Z</time>
      </trkpt>
      <trkpt lat="45.58141" lon="6.12942">
        <ele>1094.213</ele>
        <time>2024-09-19T07:46:06Z</time>
      </trkpt>
      <trkpt lat="45.58137" lon="6.12933">
        <ele>1095.603</ele>
        <time>2024-09-19T07:46:26Z</time>
      </trkpt>
      <trkpt lat="45.58132" lon="6.12932">
        <ele>1094.419</ele>
        <time>2024-09-19T07:46:35Z</time>
      </trkpt>
      <trkpt lat="45.58129" lon="6.12929">
        <ele>1092.674</ele>
        <time>2024-09-19T07:46:48Z</time>
      </trkpt>
      <trkpt lat="45.58126" lon="6.1293">
        <ele>1094.244</ele>
        <time>2024-09-19T07:47:08Z</time>
      </trkpt>
      <trkpt lat="45.58111" lon="6.12915">
        <ele>1090.147</ele>
        <time>2024-09-19T07:47:30Z</time>
      </trkpt>
      <trkpt lat="45.58107" lon="6.12912">
        <ele>1090.905</ele>
        <time>2024-09-19T07:47:35Z</time>
      </trkpt>
      <trkpt lat="45.58105" lon="6.12908">
        <ele>1094.641</ele>
        <time>2024-09-19T07:47:48Z</time>
      </trkpt>
      <trkpt lat="45.58095" lon="6.12902">
        <ele>1094.986</ele>
        <time>2024-09-19T07:48:02Z</time>
      </trkpt>
      <trkpt lat="45.5809" lon="6.129">
        <ele>1096.15</ele>
        <time>2024-09-19T07:48:19Z</time>
      </trkpt>
      <trkpt lat="45.58086" lon="6.12897">
        <ele>1096.812</ele>
        <time>2024-09-19T07:48:31Z</time>
      </trkpt>
      <trkpt lat="45.58079" lon="6.1289">
        <ele>1100.888</ele>
        <time>2024-09-19T07:48:45Z</time>
      </trkpt>
      <trkpt lat="45.58074" lon="6.12887">
        <ele>1101.002</ele>
        <time>2024-09-19T07:48:51Z</time>
      </trkpt>
      <trkpt lat="45.58071" lon="6.12884">
        <ele>1103.139</ele>
        <time>2024-09-19T07:49:03Z</time>
      </trkpt>
      <trkpt lat="45.58061" lon="6.1288">
        <ele>1106.035</ele>
        <time>2024-09-19T07:49:14Z</time>
      </trkpt>
      <trkpt lat="45.58057" lon="6.12878">
        <ele>1106.736</ele>
        <time>2024-09-19T07:49:20Z</time>
      </trkpt>
      <trkpt lat="45.58055" lon="6.12876">
        <ele>1102.507</ele>
        <time>2024-09-19T07:49:25Z</time>
      </trkpt>
      <trkpt lat="45.58051" lon="6.12874">
        <ele>1107.752</ele>
        <time>2024-09-19T07:49:35Z</time>
      </trkpt>
      <trkpt lat="45.58047" lon="6.12874">
        <ele>1105.597</ele>
        <time>2024-09-19T07:49:41Z</time>
      </trkpt>
      <trkpt lat="45.58043" lon="6.12871">
        <ele>1108.119</ele>
        <time>2024-09-19T07:49:50Z</time>
      </trkpt>
      <trkpt lat="45.58038" lon="6.12868">
        <ele>1107.494</ele>
        <time>2024-09-19T07:49:59Z</time>
      </trkpt>
      <trkpt lat="45.58036" lon="6.12868">
        <ele>1112.157</ele>
        <time>2024-09-19T07:50:06Z</time>
      </trkpt>
      <trkpt lat="45.58028" lon="6.12864">
        <ele>1109.268</ele>
        <time>2024-09-19T07:50:24Z</time>
      </trkpt>
      <trkpt lat="45.58023" lon="6.12862">
        <ele>1111.559</ele>
        <time>2024-09-19T07:50:30Z</time>
      </trkpt>
      <trkpt lat="45.58019" lon="6.12859">
        <ele>1112.937</ele>
        <time>2024-09-19T07:50:36Z</time>
      </trkpt>
      <trkpt lat="45.58008" lon="6.12861">
        <ele>1116.097</ele>
        <time>2024-09-19T07:50:49Z</time>
      </trkpt>
      <trkpt lat="45.58004" lon="6.12863">
        <ele>1118.787</ele>
        <time>2024-09-19T07:50:52Z</time>
      </trkpt>
      <trkpt lat="45.58001" lon="6.12863">
        <ele>1122.903</ele>
        <time>2024-09-19T07:50:55Z</time>
      </trkpt>
      <trkpt lat="45.57997" lon="6.12864">
        <ele>1120.019</ele>
        <time>2024-09-19T07:50:59Z</time>
      </trkpt>
      <trkpt lat="45.57992" lon="6.12864">
        <ele>1119.25</ele>
        <time>2024-09-19T07:51:05Z</time>
      </trkpt>
      <trkpt lat="45.57988" lon="6.12862">
        <ele>1119.78</ele>
        <time>2024-09-19T07:51:12Z</time>
      </trkpt>
      <trkpt lat="45.57983" lon="6.12862">
        <ele>1121.164</ele>
        <time>2024-09-19T07:51:20Z</time>
      </trkpt>
      <trkpt lat="45.57981" lon="6.1286">
        <ele>1117.472</ele>
        <time>2024-09-19T07:52:01Z</time>
      </trkpt>
      <trkpt lat="45.5798" lon="6.1286">
        <ele>1115.206</ele>
        <time>2024-09-19T07:52:21Z</time>
      </trkpt>
      <trkpt lat="45.57976" lon="6.12856">
        <ele>1115.972</ele>
        <time>2024-09-19T07:52:33Z</time>
      </trkpt>
      <trkpt lat="45.57972" lon="6.12855">
        <ele>1116.263</ele>
        <time>2024-09-19T07:52:54Z</time>
      </trkpt>
      <trkpt lat="45.57967" lon="6.12856">
        <ele>1115.925</ele>
        <time>2024-09-19T07:53:14Z</time>
      </trkpt>
      <trkpt lat="45.57963" lon="6.12859">
        <ele>1114.218</ele>
        <time>2024-09-19T07:53:21Z</time>
      </trkpt>
      <trkpt lat="45.57958" lon="6.12858">
        <ele>1115.653</ele>
        <time>2024-09-19T07:53:30Z</time>
      </trkpt>
      <trkpt lat="45.57958" lon="6.12851">
        <ele>1116.498</ele>
        <time>2024-09-19T07:53:48Z</time>
      </trkpt>
      <trkpt lat="45.57956" lon="6.12846">
        <ele>1118.762</ele>
        <time>2024-09-19T07:54:01Z</time>
      </trkpt>
      <trkpt lat="45.57953" lon="6.12843">
        <ele>1119.274</ele>
        <time>2024-09-19T07:54:41Z</time>
      </trkpt>
      <trkpt lat="45.57949" lon="6.1284">
        <ele>1118.75</ele>
        <time>2024-09-19T07:54:48Z</time>
      </trkpt>
      <trkpt lat="45.57946" lon="6.12835">
        <ele>1115.333</ele>
        <time>2024-09-19T07:54:54Z</time>
      </trkpt>
      <trkpt lat="45.57943" lon="6.12832">
        <ele>1117.245</ele>
        <time>2024-09-19T07:55:09Z</time>
      </trkpt>
      <trkpt lat="45.57942" lon="6.12832">
        <ele>1118.656</ele>
        <time>2024-09-19T07:55:29Z</time>
      </trkpt>
      <trkpt lat="45.57942" lon="6.12831">
        <ele>1118.967</ele>
        <time>2024-09-19T07:55:49Z</time>
      </trkpt>
      <trkpt lat="45.5794" lon="6.12826">
        <ele>1117.693</ele>
        <time>2024-09-19T07:56:03Z</time>
      </trkpt>
      <trkpt lat="45.57938" lon="6.1282">
        <ele>1119.914</ele>
        <time>2024-09-19T07:56:10Z</time>
      </trkpt>
      <trkpt lat="45.57937" lon="6.12814">
        <ele>1121.664</ele>
        <time>2024-09-19T07:56:20Z</time>
      </trkpt>
      <trkpt lat="45.57934" lon="6.12811">
        <ele>1125.143</ele>
        <time>2024-09-19T07:56:34Z</time>
      </trkpt>
      <trkpt lat="45.5793" lon="6.12801">
        <ele>1130.595</ele>
        <time>2024-09-19T07:57:11Z</time>
      </trkpt>
      <trkpt lat="45.57926" lon="6.12798">
        <ele>1131.17</ele>
        <time>2024-09-19T07:57:22Z</time>
      </trkpt>
      <trkpt lat="45.57922" lon="6.12797">
        <ele>1134.898</ele>
        <time>2024-09-19T07:57:34Z</time>
      </trkpt>
      <trkpt lat="45.57923" lon="6.1279">
        <ele>1134.422</ele>
        <time>2024-09-19T07:57:45Z</time>
      </trkpt>
      <trkpt lat="45.57922" lon="6.12788">
        <ele>1135.414</ele>
        <time>2024-09-19T07:58:26Z</time>
      </trkpt>
      <trkpt lat="45.5792" lon="6.12787">
        <ele>1135.728</ele>
        <time>2024-09-19T07:58:46Z</time>
      </trkpt>
      <trkpt lat="45.57918" lon="6.12784">
        <ele>1131.425</ele>
        <time>2024-09-19T07:58:53Z</time>
      </trkpt>
      <trkpt lat="45.57914" lon="6.12781">
        <ele>1132.404</ele>
        <time>2024-09-19T07:59:05Z</time>
      </trkpt>
      <trkpt lat="45.57913" lon="6.12783">
        <ele>1133.743</ele>
        <time>2024-09-19T07:59:25Z</time>
      </trkpt>
      <trkpt lat="45.5791" lon="6.12778">
        <ele>1135.439</ele>
        <time>2024-09-19T07:59:40Z</time>
      </trkpt>
      <trkpt lat="45.57906" lon="6.12773">
        <ele>1137.228</ele>
        <time>2024-09-19T07:59:53Z</time>
      </trkpt>
      <trkpt lat="45.57904" lon="6.12771">
        <ele>1138.489</ele>
        <time>2024-09-19T08:00:13Z</time>
      </trkpt>
      <trkpt lat="45.57903" lon="6.12771">
        <ele>1142.642</ele>
        <time>2024-09-19T08:00:34Z</time>
      </trkpt>
      <trkpt lat="45.57899" lon="6.12772">
        <ele>1146.542</ele>
        <time>2024-09-19T08:00:48Z</time>
      </trkpt>
      <trkpt lat="45.57896" lon="6.1277">
        <ele>1147.246</ele>
        <time>2024-09-19T08:01:08Z</time>
      </trkpt>
      <trkpt lat="45.57895" lon="6.1277">
        <ele>1147.651</ele>
        <time>2024-09-19T08:01:29Z</time>
      </trkpt>
      <trkpt lat="45.57892" lon="6.12766">
        <ele>1146.433</ele>
        <time>2024-09-19T08:01:38Z</time>
      </trkpt>
      <trkpt lat="45.57888" lon="6.12765">
        <ele>1149.184</ele>
        <time>2024-09-19T08:01:47Z</time>
      </trkpt>
      <trkpt lat="45.57886" lon="6.12763">
        <ele>1150.085</ele>
        <time>2024-09-19T08:02:08Z</time>
      </trkpt>
      <trkpt lat="45.57882" lon="6.12762">
        <ele>1153.354</ele>
        <time>2024-09-19T08:02:22Z</time>
      </trkpt>
      <trkpt lat="45.57882" lon="6.12761">
        <ele>1154.073</ele>
        <time>2024-09-19T08:02:42Z</time>
      </trkpt>
      <trkpt lat="45.57881" lon="6.12759">
        <ele>1152.469</ele>
        <time>2024-09-19T08:03:02Z</time>
      </trkpt>
      <trkpt lat="45.57881" lon="6.12753">
        <ele>1154.829</ele>
        <time>2024-09-19T08:03:10Z</time>
      </trkpt>
      <trkpt lat="45.5788" lon="6.12752">
        <ele>1160.218</ele>
        <time>2024-09-19T08:03:17Z</time>
      </trkpt>
      <trkpt lat="45.57878" lon="6.12748">
        <ele>1155.658</ele>
        <time>2024-09-19T08:03:25Z</time>
      </trkpt>
      <trkpt lat="45.57875" lon="6.12743">
        <ele>1154.69</ele>
        <time>2024-09-19T08:03:30Z</time>
      </trkpt>
      <trkpt lat="45.57871" lon="6.12744">
        <ele>1157.461</ele>
        <time>2024-09-19T08:03:36Z</time>
      </trkpt>
      <trkpt lat="45.57868" lon="6.12743">
        <ele>1159.869</ele>
        <time>2024-09-19T08:03:56Z</time>
      </trkpt>
      <trkpt lat="45.57868" lon="6.12742">
        <ele>1159.586</ele>
        <time>2024-09-19T08:04:17Z</time>
      </trkpt>
      <trkpt lat="45.57861" lon="6.12733">
        <ele>1160.23</ele>
        <time>2024-09-19T08:04:27Z</time>
      </trkpt>
      <trkpt lat="45.5786" lon="6.1273">
        <ele>1161.047</ele>
        <time>2024-09-19T08:04:48Z</time>
      </trkpt>
      <trkpt lat="45.57856" lon="6.12727">
        <ele>1161.177</ele>
        <time>2024-09-19T08:04:59Z</time>
      </trkpt>
      <trkpt lat="45.57856" lon="6.12726">
        <ele>1162.427</ele>
        <time>2024-09-19T08:05:41Z</time>
      </trkpt>
      <trkpt lat="45.57855" lon="6.12721">
        <ele>1162.816</ele>
        <time>2024-09-19T08:06:01Z</time>
      </trkpt>
      <trkpt lat="45.57852" lon="6.12715">
        <ele>1163.7</ele>
        <time>2024-09-19T08:06:11Z</time>
      </trkpt>
      <trkpt lat="45.57851" lon="6.12714">
        <ele>1164.704</ele>
        <time>2024-09-19T08:06:32Z</time>
      </trkpt>
      <trkpt lat="45.57849" lon="6.12709">
        <ele>1161.404</ele>
        <time>2024-09-19T08:06:41Z</time>
      </trkpt>
      <trkpt lat="45.57845" lon="6.12707">
        <ele>1164.531</ele>
        <time>2024-09-19T08:06:53Z</time>
      </trkpt>
      <trkpt lat="45.57838" lon="6.12702">
        <ele>1166.287</ele>
        <time>2024-09-19T08:07:10Z</time>
      </trkpt>
      <trkpt lat="45.57835" lon="6.12703">
        <ele>1170.299</ele>
        <time>2024-09-19T08:07:18Z</time>
      </trkpt>
      <trkpt lat="45.57832" lon="6.12699">
        <ele>1168.295</ele>
        <time>2024-09-19T08:07:27Z</time>
      </trkpt>
      <trkpt lat="45.57824" lon="6.12693">
        <ele>1166.586</ele>
        <time>2024-09-19T08:07:52Z</time>
      </trkpt>
      <trkpt lat="45.57824" lon="6.12686">
        <ele>1165.519</ele>
        <time>2024-09-19T08:08:02Z</time>
      </trkpt>
      <trkpt lat="45.57814" lon="6.12676">
        <ele>1172.658</ele>
        <time>2024-09-19T08:08:25Z</time>
      </trkpt>
      <trkpt lat="45.57811" lon="6.12671">
        <ele>1171.766</ele>
        <time>2024-09-19T08:08:32Z</time>
      </trkpt>
      <trkpt lat="45.57809" lon="6.1267">
        <ele>1173.686</ele>
        <time>2024-09-19T08:09:14Z</time>
      </trkpt>
      <trkpt lat="45.57806" lon="6.12665">
        <ele>1173.417</ele>
        <time>2024-09-19T08:09:21Z</time>
      </trkpt>
      <trkpt lat="45.57801" lon="6.12662">
        <ele>1173.571</ele>
        <time>2024-09-19T08:09:26Z</time>
      </trkpt>
      <trkpt lat="45.57798" lon="6.12659">
        <ele>1177.132</ele>
        <time>2024-09-19T08:09:31Z</time>
      </trkpt>
      <trkpt lat="45.57794" lon="6.12646">
        <ele>1178.641</ele>
        <time>2024-09-19T08:09:48Z</time>
      </trkpt>
      <trkpt lat="45.57791" lon="6.12644">
        <ele>1182.282</ele>
        <time>2024-09-19T08:09:58Z</time>
      </trkpt>
      <trkpt lat="45.57792" lon="6.12638">
        <ele>1181.079</ele>
        <time>2024-09-19T08:10:18Z</time>
      </trkpt>
      <trkpt lat="45.57789" lon="6.12635">
        <ele>1182.667</ele>
        <time>2024-09-19T08:10:39Z</time>
      </trkpt>
      <trkpt lat="45.5779" lon="6.1263">
        <ele>1180.56</ele>
        <time>2024-09-19T08:11:00Z</time>
      </trkpt>
      <trkpt lat="45.57792" lon="6.12629">
        <ele>1183.281</ele>
        <time>2024-09-19T08:11:21Z</time>
      </trkpt>
      <trkpt lat="45.57795" lon="6.12626">
        <ele>1185.286</ele>
        <time>2024-09-19T08:11:40Z</time>
      </trkpt>
      <trkpt lat="45.57796" lon="6.1262">
        <ele>1183.692</ele>
        <time>2024-09-19T08:11:54Z</time>
      </trkpt>
      <trkpt lat="45.57798" lon="6.12614">
        <ele>1185.769</ele>
        <time>2024-09-19T08:12:07Z</time>
      </trkpt>
      <trkpt lat="45.57801" lon="6.1261">
        <ele>1185.475</ele>
        <time>2024-09-19T08:12:27Z</time>
      </trkpt>
      <trkpt lat="45.57804" lon="6.12605">
        <ele>1185.932</ele>
        <time>2024-09-19T08:12:37Z</time>
      </trkpt>
      <trkpt lat="45.57807" lon="6.12599">
        <ele>1190.821</ele>
        <time>2024-09-19T08:13:06Z</time>
      </trkpt>
      <trkpt lat="45.57807" lon="6.12592">
        <ele>1191.865</ele>
        <time>2024-09-19T08:13:21Z</time>
      </trkpt>
      <trkpt lat="45.57805" lon="6.12587">
        <ele>1193.414</ele>
        <time>2024-09-19T08:13:39Z</time>
      </trkpt>
      <trkpt lat="45.57804" lon="6.12581">
        <ele>1195.538</ele>
        <time>2024-09-19T08:13:44Z</time>
      </trkpt>
      <trkpt lat="45.57801" lon="6.12576">
        <ele>1197.221</ele>
        <time>2024-09-19T08:13:50Z</time>
      </trkpt>
      <trkpt lat="45.57801" lon="6.12569">
        <ele>1198.158</ele>
        <time>2024-09-19T08:14:04Z</time>
      </trkpt>
      <trkpt lat="45.57802" lon="6.12562">
        <ele>1198.398</ele>
        <time>2024-09-19T08:14:10Z</time>
      </trkpt>
      <trkpt lat="45.57805" lon="6.12557">
        <ele>1198.913</ele>
        <time>2024-09-19T08:14:20Z</time>
      </trkpt>
      <trkpt lat="45.57809" lon="6.12552">
        <ele>1199.412</ele>
        <time>2024-09-19T08:14:26Z</time>
      </trkpt>
      <trkpt lat="45.57816" lon="6.12547">
        <ele>1206.789</ele>
        <time>2024-09-19T08:14:43Z</time>
      </trkpt>
      <trkpt lat="45.57817" lon="6.1254">
        <ele>1210.874</ele>
        <time>2024-09-19T08:15:17Z</time>
      </trkpt>
      <trkpt lat="45.57817" lon="6.12534">
        <ele>1211.381</ele>
        <time>2024-09-19T08:15:26Z</time>
      </trkpt>
      <trkpt lat="45.57819" lon="6.12528">
        <ele>1210.132</ele>
        <time>2024-09-19T08:15:37Z</time>
      </trkpt>
      <trkpt lat="45.57819" lon="6.12509">
        <ele>1205.586</ele>
        <time>2024-09-19T08:15:59Z</time>
      </trkpt>
      <trkpt lat="45.57817" lon="6.12502">
        <ele>1206.943</ele>
        <time>2024-09-19T08:16:04Z</time>
      </trkpt>
      <trkpt lat="45.57817" lon="6.12496">
        <ele>1207.086</ele>
        <time>2024-09-19T08:16:11Z</time>
      </trkpt>
      <trkpt lat="45.57818" lon="6.12489">
        <ele>1209.997</ele>
        <time>2024-09-19T08:16:17Z</time>
      </trkpt>
      <trkpt lat="45.5782" lon="6.12485">
        <ele>1204.119</ele>
        <time>2024-09-19T08:16:22Z</time>
      </trkpt>
      <trkpt lat="45.57821" lon="6.12481">
        <ele>1200.028</ele>
        <time>2024-09-19T08:16:28Z</time>
      </trkpt>
      <trkpt lat="45.57822" lon="6.12475">
        <ele>1198.591</ele>
        <time>2024-09-19T08:16:39Z</time>
      </trkpt>
      <trkpt lat="45.57821" lon="6.12468">
        <ele>1201.228</ele>
        <time>2024-09-19T08:16:50Z</time>
      </trkpt>
      <trkpt lat="45.57819" lon="6.12462">
        <ele>1200.996</ele>
        <time>2024-09-19T08:16:56Z</time>
      </trkpt>
      <trkpt lat="45.5782" lon="6.12455">
        <ele>1200.204</ele>
        <time>2024-09-19T08:17:01Z</time>
      </trkpt>
      <trkpt lat="45.57822" lon="6.12449">
        <ele>1201.969</ele>
        <time>2024-09-19T08:17:06Z</time>
      </trkpt>
      <trkpt lat="45.57824" lon="6.12444">
        <ele>1204.285</ele>
        <time>2024-09-19T08:17:10Z</time>
      </trkpt>
      <trkpt lat="45.57821" lon="6.12424">
        <ele>1206.195</ele>
        <time>2024-09-19T08:17:20Z</time>
      </trkpt>
      <trkpt lat="45.57821" lon="6.12418">
        <ele>1208.488</ele>
        <time>2024-09-19T08:17:24Z</time>
      </trkpt>
      <trkpt lat="45.5782" lon="6.12413">
        <ele>1211.094</ele>
        <time>2024-09-19T08:17:28Z</time>
      </trkpt>
      <trkpt lat="45.57821" lon="6.12407">
        <ele>1213.901</ele>
        <time>2024-09-19T08:17:32Z</time>
      </trkpt>
      <trkpt lat="45.57823" lon="6.124">
        <ele>1214.042</ele>
        <time>2024-09-19T08:17:39Z</time>
      </trkpt>
      <trkpt lat="45.57823" lon="6.12383">
        <ele>1220.679</ele>
        <time>2024-09-19T08:17:56Z</time>
      </trkpt>
      <trkpt lat="45.57824" lon="6.12376">
        <ele>1220.574</ele>
        <time>2024-09-19T08:18:37Z</time>
      </trkpt>
      <trkpt lat="45.57827" lon="6.12371">
        <ele>1220.306</ele>
        <time>2024-09-19T08:18:48Z</time>
      </trkpt>
      <trkpt lat="45.57831" lon="6.12368">
        <ele>1217.874</ele>
        <time>2024-09-19T08:18:57Z</time>
      </trkpt>
      <trkpt lat="45.57835" lon="6.12364">
        <ele>1218.174</ele>
        <time>2024-09-19T08:19:03Z</time>
      </trkpt>
      <trkpt lat="45.57837" lon="6.12351">
        <ele>1218.655</ele>
        <time>2024-09-19T08:19:37Z</time>
      </trkpt>
      <trkpt lat="45.57841" lon="6.12349">
        <ele>1214.945</ele>
        <time>2024-09-19T08:19:51Z</time>
      </trkpt>
      <trkpt lat="45.57847" lon="6.12351">
        <ele>1214.456</ele>
        <time>2024-09-19T08:20:06Z</time>
      </trkpt>
      <trkpt lat="45.57851" lon="6.12351">
        <ele>1217.844</ele>
        <time>2024-09-19T08:20:11Z</time>
      </trkpt>
      <trkpt lat="45.57856" lon="6.12353">
        <ele>1219.825</ele>
        <time>2024-09-19T08:20:27Z</time>
      </trkpt>
      <trkpt lat="45.5786" lon="6.12355">
        <ele>1217.732</ele>
        <time>2024-09-19T08:20:31Z</time>
      </trkpt>
      <trkpt lat="45.57865" lon="6.12358">
        <ele>1216.743</ele>
        <time>2024-09-19T08:20:35Z</time>
      </trkpt>
      <trkpt lat="45.57875" lon="6.12362">
        <ele>1218.476</ele>
        <time>2024-09-19T08:20:43Z</time>
      </trkpt>
      <trkpt lat="45.57887" lon="6.12362">
        <ele>1225.88</ele>
        <time>2024-09-19T08:21:05Z</time>
      </trkpt>
      <trkpt lat="45.5789" lon="6.12366">
        <ele>1226.544</ele>
        <time>2024-09-19T08:21:12Z</time>
      </trkpt>
      <trkpt lat="45.57895" lon="6.12367">
        <ele>1228.695</ele>
        <time>2024-09-19T08:21:24Z</time>
      </trkpt>
      <trkpt lat="45.579" lon="6.1237">
        <ele>1228.223</ele>
        <time>2024-09-19T08:21:31Z</time>
      </trkpt>
      <trkpt lat="45.57904" lon="6.12369">
        <ele>1230.296</ele>
        <time>2024-09-19T08:21:41Z</time>
      </trkpt>
      <trkpt lat="45.57909" lon="6.12369">
        <ele>1230.831</ele>
        <time>2024-09-19T08:21:48Z</time>
      </trkpt>
      <trkpt lat="45.57913" lon="6.12366">
        <ele>1231.417</ele>
        <time>2024-09-19T08:21:55Z</time>
      </trkpt>
      <trkpt lat="45.57921" lon="6.12369">
        <ele>1237.477</ele>
        <time>2024-09-19T08:22:07Z</time>
      </trkpt>
      <trkpt lat="45.57926" lon="6.1237">
        <ele>1238.011</ele>
        <time>2024-09-19T08:22:17Z</time>
      </trkpt>
      <trkpt lat="45.5793" lon="6.12369">
        <ele>1237.238</ele>
        <time>2024-09-19T08:22:24Z</time>
      </trkpt>
      <trkpt lat="45.57935" lon="6.12372">
        <ele>1237.777</ele>
        <time>2024-09-19T08:22:30Z</time>
      </trkpt>
      <trkpt lat="45.57939" lon="6.1237">
        <ele>1240.165</ele>
        <time>2024-09-19T08:22:41Z</time>
      </trkpt>
      <trkpt lat="45.57943" lon="6.12365">
        <ele>1240.136</ele>
        <time>2024-09-19T08:22:45Z</time>
      </trkpt>
      <trkpt lat="45.57947" lon="6.12368">
        <ele>1236.734</ele>
        <time>2024-09-19T08:22:52Z</time>
      </trkpt>
      <trkpt lat="45.57952" lon="6.1237">
        <ele>1236.926</ele>
        <time>2024-09-19T08:22:57Z</time>
      </trkpt>
      <trkpt lat="45.57956" lon="6.12368">
        <ele>1239.77</ele>
        <time>2024-09-19T08:23:02Z</time>
      </trkpt>
      <trkpt lat="45.57964" lon="6.1236">
        <ele>1240.322</ele>
        <time>2024-09-19T08:23:14Z</time>
      </trkpt>
      <trkpt lat="45.57969" lon="6.12357">
        <ele>1243.065</ele>
        <time>2024-09-19T08:23:26Z</time>
      </trkpt>
      <trkpt lat="45.57973" lon="6.12357">
        <ele>1246.56</ele>
        <time>2024-09-19T08:23:34Z</time>
      </trkpt>
      <trkpt lat="45.57978" lon="6.12356">
        <ele>1245.862</ele>
        <time>2024-09-19T08:23:46Z</time>
      </trkpt>
      <trkpt lat="45.57982" lon="6.12357">
        <ele>1243.985</ele>
        <time>2024-09-19T08:24:03Z</time>
      </trkpt>
      <trkpt lat="45.57985" lon="6.12361">
        <ele>1241.649</ele>
        <time>2024-09-19T08:24:08Z</time>
      </trkpt>
      <trkpt lat="45.57994" lon="6.12361">
        <ele>1241.235</ele>
        <time>2024-09-19T08:24:28Z</time>
      </trkpt>
      <trkpt lat="45.57999" lon="6.12357">
        <ele>1246.644</ele>
        <time>2024-09-19T08:24:35Z</time>
      </trkpt>
      <trkpt lat="45.58002" lon="6.12352">
        <ele>1246.713</ele>
        <time>2024-09-19T08:24:39Z</time>
      </trkpt>
      <trkpt lat="45.58007" lon="6.12352">
        <ele>1244.054</ele>
        <time>2024-09-19T08:24:45Z</time>
      </trkpt>
      <trkpt lat="45.58011" lon="6.12353">
        <ele>1247.269</ele>
        <time>2024-09-19T08:24:52Z</time>
      </trkpt>
      <trkpt lat="45.5802" lon="6.12351">
        <ele>1248.864</ele>
        <time>2024-09-19T08:25:07Z</time>
      </trkpt>
      <trkpt lat="45.58025" lon="6.12353">
        <ele>1248.686</ele>
        <time>2024-09-19T08:25:11Z</time>
      </trkpt>
      <trkpt lat="45.58029" lon="6.12355">
        <ele>1247.529</ele>
        <time>2024-09-19T08:25:22Z</time>
      </trkpt>
      <trkpt lat="45.58034" lon="6.12356">
        <ele>1253.096</ele>
        <time>2024-09-19T08:25:28Z</time>
      </trkpt>
      <trkpt lat="45.5804" lon="6.12356">
        <ele>1254.39</ele>
        <time>2024-09-19T08:25:32Z</time>
      </trkpt>
      <trkpt lat="45.58048" lon="6.12358">
        <ele>1258.332</ele>
        <time>2024-09-19T08:25:47Z</time>
      </trkpt>
      <trkpt lat="45.58051" lon="6.12358">
        <ele>1260.057</ele>
        <time>2024-09-19T08:26:07Z</time>
      </trkpt>
      <trkpt lat="45.58051" lon="6.12359">
        <ele>1260.097</ele>
        <time>2024-09-19T08:26:28Z</time>
      </trkpt>
      <trkpt lat="45.58054" lon="6.12357">
        <ele>1256.506</ele>
        <time>2024-09-19T08:26:40Z</time>
      </trkpt>
      <trkpt lat="45.58061" lon="6.12358">
        <ele>1252.957</ele>
        <time>2024-09-19T08:26:49Z</time>
      </trkpt>
      <trkpt lat="45.58066" lon="6.12359">
        <ele>1252.403</ele>
        <time>2024-09-19T08:26:56Z</time>
      </trkpt>
      <trkpt lat="45.5807" lon="6.12359">
        <ele>1251.629</ele>
        <time>2024-09-19T08:27:05Z</time>
      </trkpt>
      <trkpt lat="45.5808" lon="6.12361">
        <ele>1253.218</ele>
        <time>2024-09-19T08:27:18Z</time>
      </trkpt>
      <trkpt lat="45.58085" lon="6.12363">
        <ele>1253.156</ele>
        <time>2024-09-19T08:27:22Z</time>
      </trkpt>
      <trkpt lat="45.58091" lon="6.12362">
        <ele>1254.703</ele>
        <time>2024-09-19T08:27:28Z</time>
      </trkpt>
      <trkpt lat="45.58094" lon="6.1236">
        <ele>1257.899</ele>
        <time>2024-09-19T08:27:32Z</time>
      </trkpt>
      <trkpt lat="45.581" lon="6.1235">
        <ele>1256.37</ele>
        <time>2024-09-19T08:27:47Z</time>
      </trkpt>
      <trkpt lat="45.58104" lon="6.1235">
        <ele>1253.795</ele>
        <time>2024-09-19T08:28:00Z</time>
      </trkpt>
      <trkpt lat="45.58109" lon="6.12349">
        <ele>1254.882</ele>
        <time>2024-09-19T08:28:05Z</time>
      </trkpt>
      <trkpt lat="45.58114" lon="6.12347">
        <ele>1254.975</ele>
        <time>2024-09-19T08:28:10Z</time>
      </trkpt>
      <trkpt lat="45.58118" lon="6.12346">
        <ele>1257.529</ele>
        <time>2024-09-19T08:28:14Z</time>
      </trkpt>
      <trkpt lat="45.58124" lon="6.12346">
        <ele>1256.296</ele>
        <time>2024-09-19T08:28:21Z</time>
      </trkpt>
      <trkpt lat="45.58128" lon="6.1235">
        <ele>1256.43</ele>
        <time>2024-09-19T08:28:26Z</time>
      </trkpt>
      <trkpt lat="45.58132" lon="6.12351">
        <ele>1260.366</ele>
        <time>2024-09-19T08:28:29Z</time>
      </trkpt>
      <trkpt lat="45.58135" lon="6.12351">
        <ele>1256.044</ele>
        <time>2024-09-19T08:28:41Z</time>
      </trkpt>
      <trkpt lat="45.58138" lon="6.12345">
        <ele>1253.49</ele>
        <time>2024-09-19T08:28:49Z</time>
      </trkpt>
      <trkpt lat="45.5814" lon="6.12345">
        <ele>1256.477</ele>
        <time>2024-09-19T08:29:30Z</time>
      </trkpt>
      <trkpt lat="45.5814" lon="6.12344">
        <ele>1256.62</ele>
        <time>2024-09-19T08:30:10Z</time>
      </trkpt>
      <trkpt lat="45.58142" lon="6.12339">
        <ele>1257.344</ele>
        <time>2024-09-19T08:30:39Z</time>
      </trkpt>
      <trkpt lat="45.58148" lon="6.12337">
        <ele>1258.349</ele>
        <time>2024-09-19T08:30:43Z</time>
      </trkpt>
      <trkpt lat="45.58152" lon="6.12339">
        <ele>1257.651</ele>
        <time>2024-09-19T08:30:48Z</time>
      </trkpt>
      <trkpt lat="45.58156" lon="6.12337">
        <ele>1256.314</ele>
        <time>2024-09-19T08:30:56Z</time>
      </trkpt>
      <trkpt lat="45.58161" lon="6.12335">
        <ele>1254.851</ele>
        <time>2024-09-19T08:31:05Z</time>
      </trkpt>
      <trkpt lat="45.58166" lon="6.12332">
        <ele>1256.104</ele>
        <time>2024-09-19T08:31:11Z</time>
      </trkpt>
      <trkpt lat="45.5817" lon="6.12334">
        <ele>1256.824</ele>
        <time>2024-09-19T08:31:16Z</time>
      </trkpt>
      <trkpt lat="45.58171" lon="6.12333">
        <ele>1258.636</ele>
        <time>2024-09-19T08:31:37Z</time>
      </trkpt>
      <trkpt lat="45.58176" lon="6.12333">
        <ele>1259.893</ele>
        <time>2024-09-19T08:31:52Z</time>
      </trkpt>
      <trkpt lat="45.58181" lon="6.1233">
        <ele>1259.073</ele>
        <time>2024-09-19T08:31:56Z</time>
      </trkpt>
      <trkpt lat="45.58184" lon="6.12325">
        <ele>1258.463</ele>
        <time>2024-09-19T08:32:02Z</time>
      </trkpt>
      <trkpt lat="45.58186" lon="6.12318">
        <ele>1259.123</ele>
        <time>2024-09-19T08:32:07Z</time>
      </trkpt>
      <trkpt lat="45.58189" lon="6.12312">
        <ele>1260.586</ele>
        <time>2024-09-19T08:32:14Z</time>
      </trkpt>
      <trkpt lat="45.58192" lon="6.12308">
        <ele>1263.242</ele>
        <time>2024-09-19T08:32:19Z</time>
      </trkpt>
      <trkpt lat="45.58197" lon="6.12307">
        <ele>1261.926</ele>
        <time>2024-09-19T08:32:25Z</time>
      </trkpt>
      <trkpt lat="45.582" lon="6.12308">
        <ele>1264.675</ele>
        <time>2024-09-19T08:32:46Z</time>
      </trkpt>
      <trkpt lat="45.58209" lon="6.12306">
        <ele>1268.011</ele>
        <time>2024-09-19T08:33:11Z</time>
      </trkpt>
      <trkpt lat="45.58213" lon="6.12308">
        <ele>1269.556</ele>
        <time>2024-09-19T08:33:18Z</time>
      </trkpt>
      <trkpt lat="45.58219" lon="6.12305">
        <ele>1270.588</ele>
        <time>2024-09-19T08:33:22Z</time>
      </trkpt>
      <trkpt lat="45.58226" lon="6.12298">
        <ele>1267.728</ele>
        <time>2024-09-19T08:33:41Z</time>
      </trkpt>
      <trkpt lat="45.5823" lon="6.12293">
        <ele>1267.53</ele>
        <time>2024-09-19T08:33:56Z</time>
      </trkpt>
      <trkpt lat="45.58233" lon="6.12287">
        <ele>1269.644</ele>
        <time>2024-09-19T08:34:05Z</time>
      </trkpt>
      <trkpt lat="45.58238" lon="6.12286">
        <ele>1270.328</ele>
        <time>2024-09-19T08:34:14Z</time>
      </trkpt>
      <trkpt lat="45.58242" lon="6.12282">
        <ele>1273.086</ele>
        <time>2024-09-19T08:34:20Z</time>
      </trkpt>
      <trkpt lat="45.58246" lon="6.1228">
        <ele>1272.868</ele>
        <time>2024-09-19T08:34:26Z</time>
      </trkpt>
      <trkpt lat="45.58254" lon="6.12275">
        <ele>1269.629</ele>
        <time>2024-09-19T08:34:38Z</time>
      </trkpt>
      <trkpt lat="45.58259" lon="6.12273">
        <ele>1270.133</ele>
        <time>2024-09-19T08:34:44Z</time>
      </trkpt>
      <trkpt lat="45.58263" lon="6.12269">
        <ele>1270.478</ele>
        <time>2024-09-19T08:34:49Z</time>
      </trkpt>
      <trkpt lat="45.58268" lon="6.12269">
        <ele>1270.545</ele>
        <time>2024-09-19T08:34:54Z</time>
      </trkpt>
      <trkpt lat="45.58277" lon="6.12262">
        <ele>1273.046</ele>
        <time>2024-09-19T08:35:03Z</time>
      </trkpt>
      <trkpt lat="45.58287" lon="6.1226">
        <ele>1273.987</ele>
        <time>2024-09-19T08:35:14Z</time>
      </trkpt>
      <trkpt lat="45.58292" lon="6.12258">
        <ele>1271.944</ele>
        <time>2024-09-19T08:35:19Z</time>
      </trkpt>
      <trkpt lat="45.58296" lon="6.12256">
        <ele>1271.114</ele>
        <time>2024-09-19T08:35:23Z</time>
      </trkpt>
      <trkpt lat="45.58301" lon="6.12255">
        <ele>1269.523</ele>
        <time>2024-09-19T08:35:29Z</time>
      </trkpt>
      <trkpt lat="45.58303" lon="6.12248">
        <ele>1270.294</ele>
        <time>2024-09-19T08:35:35Z</time>
      </trkpt>
      <trkpt lat="45.58308" lon="6.12244">
        <ele>1268.846</ele>
        <time>2024-09-19T08:35:40Z</time>
      </trkpt>
      <trkpt lat="45.58313" lon="6.12243">
        <ele>1268.039</ele>
        <time>2024-09-19T08:35:45Z</time>
      </trkpt>
      <trkpt lat="45.58317" lon="6.12246">
        <ele>1264.391</ele>
        <time>2024-09-19T08:35:51Z</time>
      </trkpt>
      <trkpt lat="45.58319" lon="6.12249">
        <ele>1260.755</ele>
        <time>2024-09-19T08:35:54Z</time>
      </trkpt>
      <trkpt lat="45.58323" lon="6.12247">
        <ele>1259.993</ele>
        <time>2024-09-19T08:36:00Z</time>
      </trkpt>
      <trkpt lat="45.58327" lon="6.12242">
        <ele>1258.676</ele>
        <time>2024-09-19T08:36:05Z</time>
      </trkpt>
      <trkpt lat="45.58329" lon="6.12237">
        <ele>1256.655</ele>
        <time>2024-09-19T08:36:10Z</time>
      </trkpt>
      <trkpt lat="45.58332" lon="6.12233">
        <ele>1259.045</ele>
        <time>2024-09-19T08:36:14Z</time>
      </trkpt>
      <trkpt lat="45.58336" lon="6.12229">
        <ele>1259.266</ele>
        <time>2024-09-19T08:36:19Z</time>
      </trkpt>
      <trkpt lat="45.58341" lon="6.12225">
        <ele>1259.196</ele>
        <time>2024-09-19T08:36:24Z</time>
      </trkpt>
      <trkpt lat="45.58346" lon="6.12222">
        <ele>1258.497</ele>
        <time>2024-09-19T08:36:30Z</time>
      </trkpt>
      <trkpt lat="45.58354" lon="6.12214">
        <ele>1261.519</ele>
        <time>2024-09-19T08:36:39Z</time>
      </trkpt>
      <trkpt lat="45.58358" lon="6.12214">
        <ele>1257.494</ele>
        <time>2024-09-19T08:36:43Z</time>
      </trkpt>
      <trkpt lat="45.58362" lon="6.12216">
        <ele>1261.625</ele>
        <time>2024-09-19T08:36:47Z</time>
      </trkpt>
      <trkpt lat="45.58371" lon="6.12216">
        <ele>1265.63</ele>
        <time>2024-09-19T08:36:56Z</time>
      </trkpt>
      <trkpt lat="45.58376" lon="6.12217">
        <ele>1267.974</ele>
        <time>2024-09-19T08:37:02Z</time>
      </trkpt>
      <trkpt lat="45.58381" lon="6.12217">
        <ele>1269.201</ele>
        <time>2024-09-19T08:37:07Z</time>
      </trkpt>
      <trkpt lat="45.58386" lon="6.12218">
        <ele>1267.365</ele>
        <time>2024-09-19T08:39:37Z</time>
      </trkpt>
      <trkpt lat="45.58389" lon="6.12214">
        <ele>1266.252</ele>
        <time>2024-09-19T08:40:27Z</time>
      </trkpt>
      <trkpt lat="45.58394" lon="6.12214">
        <ele>1264.761</ele>
        <time>2024-09-19T08:40:32Z</time>
      </trkpt>
      <trkpt lat="45.58399" lon="6.12211">
        <ele>1265.301</ele>
        <time>2024-09-19T08:40:38Z</time>
      </trkpt>
      <trkpt lat="45.58404" lon="6.12211">
        <ele>1263.909</ele>
        <time>2024-09-19T08:40:46Z</time>
      </trkpt>
      <trkpt lat="45.58408" lon="6.1221">
        <ele>1263.511</ele>
        <time>2024-09-19T08:40:52Z</time>
      </trkpt>
      <trkpt lat="45.58418" lon="6.12206">
        <ele>1262.999</ele>
        <time>2024-09-19T08:41:04Z</time>
      </trkpt>
      <trkpt lat="45.58422" lon="6.12204">
        <ele>1263.596</ele>
        <time>2024-09-19T08:41:09Z</time>
      </trkpt>
      <trkpt lat="45.58426" lon="6.122">
        <ele>1264.036</ele>
        <time>2024-09-19T08:41:14Z</time>
      </trkpt>
      <trkpt lat="45.58429" lon="6.12196">
        <ele>1265.15</ele>
        <time>2024-09-19T08:41:19Z</time>
      </trkpt>
      <trkpt lat="45.58434" lon="6.12195">
        <ele>1263.307</ele>
        <time>2024-09-19T08:41:26Z</time>
      </trkpt>
      <trkpt lat="45.58437" lon="6.12191">
        <ele>1264.506</ele>
        <time>2024-09-19T08:41:33Z</time>
      </trkpt>
      <trkpt lat="45.58446" lon="6.12176">
        <ele>1269.478</ele>
        <time>2024-09-19T08:41:56Z</time>
      </trkpt>
      <trkpt lat="45.5845" lon="6.12173">
        <ele>1270.766</ele>
        <time>2024-09-19T08:42:13Z</time>
      </trkpt>
      <trkpt lat="45.58454" lon="6.12169">
        <ele>1269.773</ele>
        <time>2024-09-19T08:42:33Z</time>
      </trkpt>
      <trkpt lat="45.58457" lon="6.12167">
        <ele>1272.976</ele>
        <time>2024-09-19T08:42:40Z</time>
      </trkpt>
      <trkpt lat="45.58462" lon="6.12165">
        <ele>1273.559</ele>
        <time>2024-09-19T08:42:49Z</time>
      </trkpt>
      <trkpt lat="45.58465" lon="6.12161">
        <ele>1272.949</ele>
        <time>2024-09-19T08:42:58Z</time>
      </trkpt>
      <trkpt lat="45.5847" lon="6.12157">
        <ele>1274.731</ele>
        <time>2024-09-19T08:43:07Z</time>
      </trkpt>
      <trkpt lat="45.58474" lon="6.12155">
        <ele>1280.579</ele>
        <time>2024-09-19T08:43:11Z</time>
      </trkpt>
      <trkpt lat="45.58478" lon="6.12151">
        <ele>1279.169</ele>
        <time>2024-09-19T08:43:16Z</time>
      </trkpt>
      <trkpt lat="45.58482" lon="6.12146">
        <ele>1279.343</ele>
        <time>2024-09-19T08:43:22Z</time>
      </trkpt>
      <trkpt lat="45.58489" lon="6.12139">
        <ele>1273.658</ele>
        <time>2024-09-19T08:43:33Z</time>
      </trkpt>
      <trkpt lat="45.58493" lon="6.12138">
        <ele>1271.98</ele>
        <time>2024-09-19T08:43:39Z</time>
      </trkpt>
      <trkpt lat="45.58497" lon="6.12136">
        <ele>1273.474</ele>
        <time>2024-09-19T08:43:46Z</time>
      </trkpt>
      <trkpt lat="45.58502" lon="6.12132">
        <ele>1273.514</ele>
        <time>2024-09-19T08:43:53Z</time>
      </trkpt>
      <trkpt lat="45.58506" lon="6.12128">
        <ele>1275.222</ele>
        <time>2024-09-19T08:43:59Z</time>
      </trkpt>
      <trkpt lat="45.58508" lon="6.12124">
        <ele>1278.945</ele>
        <time>2024-09-19T08:44:02Z</time>
      </trkpt>
      <trkpt lat="45.58512" lon="6.12121">
        <ele>1280.428</ele>
        <time>2024-09-19T08:44:07Z</time>
      </trkpt>
      <trkpt lat="45.58516" lon="6.12119">
        <ele>1280.283</ele>
        <time>2024-09-19T08:44:11Z</time>
      </trkpt>
      <trkpt lat="45.58521" lon="6.12117">
        <ele>1279.091</ele>
        <time>2024-09-19T08:44:16Z</time>
      </trkpt>
      <trkpt lat="45.58524" lon="6.12114">
        <ele>1283.587</ele>
        <time>2024-09-19T08:44:21Z</time>
      </trkpt>
      <trkpt lat="45.58529" lon="6.12114">
        <ele>1283.854</ele>
        <time>2024-09-19T08:44:29Z</time>
      </trkpt>
      <trkpt lat="45.58534" lon="6.12116">
        <ele>1283.592</ele>
        <time>2024-09-19T08:44:35Z</time>
      </trkpt>
      <trkpt lat="45.58538" lon="6.12121">
        <ele>1282.101</ele>
        <time>2024-09-19T08:44:41Z</time>
      </trkpt>
      <trkpt lat="45.58545" lon="6.12121">
        <ele>1278.091</ele>
        <time>2024-09-19T08:44:49Z</time>
      </trkpt>
      <trkpt lat="45.58553" lon="6.12117">
        <ele>1280.48</ele>
        <time>2024-09-19T08:45:00Z</time>
      </trkpt>
      <trkpt lat="45.58557" lon="6.12114">
        <ele>1283.832</ele>
        <time>2024-09-19T08:45:04Z</time>
      </trkpt>
      <trkpt lat="45.58562" lon="6.12109">
        <ele>1288.349</ele>
        <time>2024-09-19T08:45:08Z</time>
      </trkpt>
      <trkpt lat="45.58567" lon="6.12107">
        <ele>1289.303</ele>
        <time>2024-09-19T08:45:12Z</time>
      </trkpt>
      <trkpt lat="45.58571" lon="6.12106">
        <ele>1291.491</ele>
        <time>2024-09-19T08:45:16Z</time>
      </trkpt>
      <trkpt lat="45.58575" lon="6.12104">
        <ele>1288.607</ele>
        <time>2024-09-19T08:45:19Z</time>
      </trkpt>
      <trkpt lat="45.5858" lon="6.12102">
        <ele>1289.378</ele>
        <time>2024-09-19T08:45:24Z</time>
      </trkpt>
      <trkpt lat="45.58584" lon="6.121">
        <ele>1285.919</ele>
        <time>2024-09-19T08:45:28Z</time>
      </trkpt>
      <trkpt lat="45.58591" lon="6.12098">
        <ele>1280.302</ele>
        <time>2024-09-19T08:45:39Z</time>
      </trkpt>
      <trkpt lat="45.58595" lon="6.12095">
        <ele>1276.861</ele>
        <time>2024-09-19T08:45:45Z</time>
      </trkpt>
      <trkpt lat="45.58596" lon="6.12094">
        <ele>1282.181</ele>
        <time>2024-09-19T08:45:47Z</time>
      </trkpt>
      <trkpt lat="45.586" lon="6.12091">
        <ele>1279.691</ele>
        <time>2024-09-19T08:45:52Z</time>
      </trkpt>
      <trkpt lat="45.58605" lon="6.12088">
        <ele>1280.968</ele>
        <time>2024-09-19T08:45:58Z</time>
      </trkpt>
      <trkpt lat="45.58612" lon="6.12081">
        <ele>1287.584</ele>
        <time>2024-09-19T08:46:06Z</time>
      </trkpt>
      <trkpt lat="45.58615" lon="6.12076">
        <ele>1290.054</ele>
        <time>2024-09-19T08:46:11Z</time>
      </trkpt>
      <trkpt lat="45.58623" lon="6.1207">
        <ele>1294.924</ele>
        <time>2024-09-19T08:46:29Z</time>
      </trkpt>
      <trkpt lat="45.58627" lon="6.12065">
        <ele>1295.325</ele>
        <time>2024-09-19T08:46:46Z</time>
      </trkpt>
      <trkpt lat="45.58632" lon="6.12062">
        <ele>1296.408</ele>
        <time>2024-09-19T08:46:54Z</time>
      </trkpt>
      <trkpt lat="45.58636" lon="6.12058">
        <ele>1295.709</ele>
        <time>2024-09-19T08:47:04Z</time>
      </trkpt>
      <trkpt lat="45.58641" lon="6.12056">
        <ele>1295.976</ele>
        <time>2024-09-19T08:47:09Z</time>
      </trkpt>
      <trkpt lat="45.58645" lon="6.12055">
        <ele>1299.003</ele>
        <time>2024-09-19T08:47:14Z</time>
      </trkpt>
      <trkpt lat="45.58651" lon="6.12055">
        <ele>1299.878</ele>
        <time>2024-09-19T08:47:20Z</time>
      </trkpt>
      <trkpt lat="45.58655" lon="6.12053">
        <ele>1300.175</ele>
        <time>2024-09-19T08:47:31Z</time>
      </trkpt>
      <trkpt lat="45.58655" lon="6.12052">
        <ele>1299.858</ele>
        <time>2024-09-19T08:47:52Z</time>
      </trkpt>
      <trkpt lat="45.58658" lon="6.12049">
        <ele>1301.383</ele>
        <time>2024-09-19T08:48:12Z</time>
      </trkpt>
      <trkpt lat="45.58658" lon="6.12044">
        <ele>1298.549</ele>
        <time>2024-09-19T08:48:22Z</time>
      </trkpt>
      <trkpt lat="45.58656" lon="6.12037">
        <ele>1297.288</ele>
        <time>2024-09-19T08:48:35Z</time>
      </trkpt>
      <trkpt lat="45.58655" lon="6.12031">
        <ele>1299.136</ele>
        <time>2024-09-19T08:48:43Z</time>
      </trkpt>
      <trkpt lat="45.58655" lon="6.12018">
        <ele>1300.371</ele>
        <time>2024-09-19T08:49:11Z</time>
      </trkpt>
      <trkpt lat="45.58657" lon="6.12013">
        <ele>1301.886</ele>
        <time>2024-09-19T08:49:31Z</time>
      </trkpt>
      <trkpt lat="45.5866" lon="6.12008">
        <ele>1302.909</ele>
        <time>2024-09-19T08:49:51Z</time>
      </trkpt>
      <trkpt lat="45.58664" lon="6.12007">
        <ele>1301.884</ele>
        <time>2024-09-19T08:49:59Z</time>
      </trkpt>
      <trkpt lat="45.58668" lon="6.12002">
        <ele>1302.618</ele>
        <time>2024-09-19T08:50:11Z</time>
      </trkpt>
      <trkpt lat="45.58672" lon="6.11999">
        <ele>1301.767</ele>
        <time>2024-09-19T08:50:18Z</time>
      </trkpt>
      <trkpt lat="45.58677" lon="6.11998">
        <ele>1300.919</ele>
        <time>2024-09-19T08:50:24Z</time>
      </trkpt>
      <trkpt lat="45.5868" lon="6.11995">
        <ele>1304.493</ele>
        <time>2024-09-19T08:50:34Z</time>
      </trkpt>
      <trkpt lat="45.58682" lon="6.11991">
        <ele>1307.787</ele>
        <time>2024-09-19T08:50:42Z</time>
      </trkpt>
      <trkpt lat="45.58687" lon="6.1199">
        <ele>1306.407</ele>
        <time>2024-09-19T08:50:53Z</time>
      </trkpt>
      <trkpt lat="45.58691" lon="6.11988">
        <ele>1307.595</ele>
        <time>2024-09-19T08:51:05Z</time>
      </trkpt>
      <trkpt lat="45.58695" lon="6.11984">
        <ele>1307.46</ele>
        <time>2024-09-19T08:51:18Z</time>
      </trkpt>
      <trkpt lat="45.58698" lon="6.1198">
        <ele>1309.626</ele>
        <time>2024-09-19T08:51:26Z</time>
      </trkpt>
      <trkpt lat="45.58705" lon="6.11973">
        <ele>1315.154</ele>
        <time>2024-09-19T08:51:47Z</time>
      </trkpt>
      <trkpt lat="45.58709" lon="6.11971">
        <ele>1317.926</ele>
        <time>2024-09-19T08:51:54Z</time>
      </trkpt>
      <trkpt lat="45.58712" lon="6.11969">
        <ele>1321.105</ele>
        <time>2024-09-19T08:52:01Z</time>
      </trkpt>
      <trkpt lat="45.58716" lon="6.11965">
        <ele>1323.282</ele>
        <time>2024-09-19T08:52:14Z</time>
      </trkpt>
      <trkpt lat="45.58721" lon="6.11961">
        <ele>1325.293</ele>
        <time>2024-09-19T08:52:23Z</time>
      </trkpt>
      <trkpt lat="45.58723" lon="6.11958">
        <ele>1329.395</ele>
        <time>2024-09-19T08:52:33Z</time>
      </trkpt>
      <trkpt lat="45.58727" lon="6.11956">
        <ele>1329.017</ele>
        <time>2024-09-19T08:52:46Z</time>
      </trkpt>
      <trkpt lat="45.58731" lon="6.11952">
        <ele>1325.486</ele>
        <time>2024-09-19T08:52:53Z</time>
      </trkpt>
      <trkpt lat="45.58738" lon="6.11947">
        <ele>1329.221</ele>
        <time>2024-09-19T08:53:10Z</time>
      </trkpt>
      <trkpt lat="45.58742" lon="6.11943">
        <ele>1330.16</ele>
        <time>2024-09-19T08:53:15Z</time>
      </trkpt>
      <trkpt lat="45.58747" lon="6.11942">
        <ele>1332.339</ele>
        <time>2024-09-19T08:53:29Z</time>
      </trkpt>
      <trkpt lat="45.5875" lon="6.11938">
        <ele>1334.482</ele>
        <time>2024-09-19T08:53:42Z</time>
      </trkpt>
      <trkpt lat="45.58753" lon="6.11936">
        <ele>1329.453</ele>
        <time>2024-09-19T08:53:46Z</time>
      </trkpt>
      <trkpt lat="45.58758" lon="6.11937">
        <ele>1330.692</ele>
        <time>2024-09-19T08:53:51Z</time>
      </trkpt>
      <trkpt lat="45.58762" lon="6.11936">
        <ele>1331.657</ele>
        <time>2024-09-19T08:54:12Z</time>
      </trkpt>
      <trkpt lat="45.58764" lon="6.11934">
        <ele>1336.043</ele>
        <time>2024-09-19T08:54:20Z</time>
      </trkpt>
      <trkpt lat="45.58767" lon="6.11929">
        <ele>1338.787</ele>
        <time>2024-09-19T08:54:33Z</time>
      </trkpt>
      <trkpt lat="45.58771" lon="6.11925">
        <ele>1341.327</ele>
        <time>2024-09-19T08:54:41Z</time>
      </trkpt>
      <trkpt lat="45.58773" lon="6.1192">
        <ele>1345.515</ele>
        <time>2024-09-19T08:54:55Z</time>
      </trkpt>
      <trkpt lat="45.58777" lon="6.11918">
        <ele>1347.165</ele>
        <time>2024-09-19T08:55:08Z</time>
      </trkpt>
      <trkpt lat="45.58782" lon="6.11916">
        <ele>1348.543</ele>
        <time>2024-09-19T08:55:13Z</time>
      </trkpt>
      <trkpt lat="45.58787" lon="6.11916">
        <ele>1349.493</ele>
        <time>2024-09-19T08:55:26Z</time>
      </trkpt>
      <trkpt lat="45.5879" lon="6.11912">
        <ele>1350.613</ele>
        <time>2024-09-19T08:55:37Z</time>
      </trkpt>
      <trkpt lat="45.58794" lon="6.1191">
        <ele>1351.557</ele>
        <time>2024-09-19T08:55:51Z</time>
      </trkpt>
      <trkpt lat="45.58799" lon="6.11909">
        <ele>1348.311</ele>
        <time>2024-09-19T08:55:58Z</time>
      </trkpt>
      <trkpt lat="45.58802" lon="6.11908">
        <ele>1351.709</ele>
        <time>2024-09-19T08:56:05Z</time>
      </trkpt>
      <trkpt lat="45.58807" lon="6.11907">
        <ele>1354.275</ele>
        <time>2024-09-19T08:56:12Z</time>
      </trkpt>
      <trkpt lat="45.58811" lon="6.11904">
        <ele>1355.787</ele>
        <time>2024-09-19T08:56:20Z</time>
      </trkpt>
      <trkpt lat="45.58814" lon="6.11901">
        <ele>1359.096</ele>
        <time>2024-09-19T08:56:27Z</time>
      </trkpt>
      <trkpt lat="45.58819" lon="6.11902">
        <ele>1359.563</ele>
        <time>2024-09-19T08:56:33Z</time>
      </trkpt>
      <trkpt lat="45.58825" lon="6.11896">
        <ele>1359.427</ele>
        <time>2024-09-19T08:56:47Z</time>
      </trkpt>
      <trkpt lat="45.58833" lon="6.11896">
        <ele>1352.971</ele>
        <time>2024-09-19T08:56:59Z</time>
      </trkpt>
      <trkpt lat="45.58838" lon="6.11893">
        <ele>1358.066</ele>
        <time>2024-09-19T08:57:11Z</time>
      </trkpt>
      <trkpt lat="45.58841" lon="6.11888">
        <ele>1359.252</ele>
        <time>2024-09-19T08:57:18Z</time>
      </trkpt>
      <trkpt lat="45.58844" lon="6.11884">
        <ele>1362.142</ele>
        <time>2024-09-19T08:57:36Z</time>
      </trkpt>
      <trkpt lat="45.58848" lon="6.11881">
        <ele>1362.623</ele>
        <time>2024-09-19T08:57:42Z</time>
      </trkpt>
      <trkpt lat="45.58856" lon="6.11873">
        <ele>1362.811</ele>
        <time>2024-09-19T08:58:01Z</time>
      </trkpt>
      <trkpt lat="45.58859" lon="6.11869">
        <ele>1368.922</ele>
        <time>2024-09-19T08:58:08Z</time>
      </trkpt>
      <trkpt lat="45.58863" lon="6.11865">
        <ele>1371.153</ele>
        <time>2024-09-19T08:58:15Z</time>
      </trkpt>
      <trkpt lat="45.58871" lon="6.1186">
        <ele>1374.916</ele>
        <time>2024-09-19T08:58:39Z</time>
      </trkpt>
      <trkpt lat="45.58874" lon="6.11859">
        <ele>1378.865</ele>
        <time>2024-09-19T08:58:43Z</time>
      </trkpt>
      <trkpt lat="45.58878" lon="6.11859">
        <ele>1378.443</ele>
        <time>2024-09-19T08:58:51Z</time>
      </trkpt>
      <trkpt lat="45.58882" lon="6.11856">
        <ele>1380.661</ele>
        <time>2024-09-19T08:59:20Z</time>
      </trkpt>
      <trkpt lat="45.58883" lon="6.11855">
        <ele>1380.783</ele>
        <time>2024-09-19T08:59:42Z</time>
      </trkpt>
      <trkpt lat="45.58887" lon="6.11855">
        <ele>1378.585</ele>
        <time>2024-09-19T08:59:55Z</time>
      </trkpt>
      <trkpt lat="45.58892" lon="6.11856">
        <ele>1378.778</ele>
        <time>2024-09-19T09:00:03Z</time>
      </trkpt>
      <trkpt lat="45.58897" lon="6.11855">
        <ele>1379.706</ele>
        <time>2024-09-19T09:00:09Z</time>
      </trkpt>
      <trkpt lat="45.58902" lon="6.11853">
        <ele>1379.057</ele>
        <time>2024-09-19T09:00:24Z</time>
      </trkpt>
      <trkpt lat="45.58907" lon="6.11853">
        <ele>1386.843</ele>
        <time>2024-09-19T09:00:32Z</time>
      </trkpt>
      <trkpt lat="45.5891" lon="6.11851">
        <ele>1387.132</ele>
        <time>2024-09-19T09:00:53Z</time>
      </trkpt>
      <trkpt lat="45.58913" lon="6.11847">
        <ele>1385.345</ele>
        <time>2024-09-19T09:01:11Z</time>
      </trkpt>
      <trkpt lat="45.58918" lon="6.11845">
        <ele>1387.065</ele>
        <time>2024-09-19T09:01:23Z</time>
      </trkpt>
      <trkpt lat="45.58922" lon="6.11843">
        <ele>1388.137</ele>
        <time>2024-09-19T09:01:34Z</time>
      </trkpt>
      <trkpt lat="45.58926" lon="6.1184">
        <ele>1389.037</ele>
        <time>2024-09-19T09:01:40Z</time>
      </trkpt>
      <trkpt lat="45.5893" lon="6.11836">
        <ele>1388.763</ele>
        <time>2024-09-19T09:01:50Z</time>
      </trkpt>
      <trkpt lat="45.58935" lon="6.11834">
        <ele>1387.216</ele>
        <time>2024-09-19T09:02:04Z</time>
      </trkpt>
      <trkpt lat="45.58943" lon="6.11829">
        <ele>1391.37</ele>
        <time>2024-09-19T09:02:26Z</time>
      </trkpt>
      <trkpt lat="45.58947" lon="6.11826">
        <ele>1392.225</ele>
        <time>2024-09-19T09:02:38Z</time>
      </trkpt>
      <trkpt lat="45.58949" lon="6.11825">
        <ele>1397.755</ele>
        <time>2024-09-19T09:02:45Z</time>
      </trkpt>
      <trkpt lat="45.58951" lon="6.11823">
        <ele>1398.444</ele>
        <time>2024-09-19T09:03:26Z</time>
      </trkpt>
      <trkpt lat="45.58955" lon="6.11823">
        <ele>1397.096</ele>
        <time>2024-09-19T09:03:38Z</time>
      </trkpt>
      <trkpt lat="45.58959" lon="6.1182">
        <ele>1396.847</ele>
        <time>2024-09-19T09:03:52Z</time>
      </trkpt>
      <trkpt lat="45.58969" lon="6.11818">
        <ele>1399.2</ele>
        <time>2024-09-19T09:04:08Z</time>
      </trkpt>
      <trkpt lat="45.58973" lon="6.11818">
        <ele>1397.013</ele>
        <time>2024-09-19T09:04:15Z</time>
      </trkpt>
      <trkpt lat="45.58976" lon="6.11814">
        <ele>1400.335</ele>
        <time>2024-09-19T09:04:26Z</time>
      </trkpt>
      <trkpt lat="45.5898" lon="6.11811">
        <ele>1401.394</ele>
        <time>2024-09-19T09:04:40Z</time>
      </trkpt>
      <trkpt lat="45.58983" lon="6.11807">
        <ele>1404.729</ele>
        <time>2024-09-19T09:04:46Z</time>
      </trkpt>
      <trkpt lat="45.58988" lon="6.11807">
        <ele>1404.789</ele>
        <time>2024-09-19T09:04:56Z</time>
      </trkpt>
      <trkpt lat="45.58993" lon="6.11805">
        <ele>1403.853</ele>
        <time>2024-09-19T09:05:03Z</time>
      </trkpt>
      <trkpt lat="45.58998" lon="6.11804">
        <ele>1404.564</ele>
        <time>2024-09-19T09:05:10Z</time>
      </trkpt>
      <trkpt lat="45.59003" lon="6.11799">
        <ele>1411.573</ele>
        <time>2024-09-19T09:05:22Z</time>
      </trkpt>
      <trkpt lat="45.59008" lon="6.11796">
        <ele>1413.772</ele>
        <time>2024-09-19T09:05:33Z</time>
      </trkpt>
      <trkpt lat="45.59015" lon="6.11796">
        <ele>1408.565</ele>
        <time>2024-09-19T09:05:42Z</time>
      </trkpt>
      <trkpt lat="45.59022" lon="6.11789">
        <ele>1409.002</ele>
        <time>2024-09-19T09:06:00Z</time>
      </trkpt>
      <trkpt lat="45.59025" lon="6.11784">
        <ele>1410.115</ele>
        <time>2024-09-19T09:06:10Z</time>
      </trkpt>
      <trkpt lat="45.59028" lon="6.11785">
        <ele>1405.819</ele>
        <time>2024-09-19T09:06:15Z</time>
      </trkpt>
      <trkpt lat="45.59029" lon="6.11783">
        <ele>1410.346</ele>
        <time>2024-09-19T09:06:24Z</time>
      </trkpt>
      <trkpt lat="45.59032" lon="6.11779">
        <ele>1414.129</ele>
        <time>2024-09-19T09:06:38Z</time>
      </trkpt>
      <trkpt lat="45.59037" lon="6.11778">
        <ele>1415.712</ele>
        <time>2024-09-19T09:06:52Z</time>
      </trkpt>
      <trkpt lat="45.59041" lon="6.11775">
        <ele>1417.818</ele>
        <time>2024-09-19T09:06:59Z</time>
      </trkpt>
      <trkpt lat="45.59047" lon="6.11776">
        <ele>1422.22</ele>
        <time>2024-09-19T09:07:08Z</time>
      </trkpt>
      <trkpt lat="45.59051" lon="6.11774">
        <ele>1424.084</ele>
        <time>2024-09-19T09:07:15Z</time>
      </trkpt>
      <trkpt lat="45.59056" lon="6.11773">
        <ele>1422.616</ele>
        <time>2024-09-19T09:07:24Z</time>
      </trkpt>
      <trkpt lat="45.59059" lon="6.11776">
        <ele>1418.933</ele>
        <time>2024-09-19T09:07:30Z</time>
      </trkpt>
      <trkpt lat="45.59064" lon="6.11775">
        <ele>1419.159</ele>
        <time>2024-09-19T09:07:37Z</time>
      </trkpt>
      <trkpt lat="45.59067" lon="6.11773">
        <ele>1422.336</ele>
        <time>2024-09-19T09:07:49Z</time>
      </trkpt>
      <trkpt lat="45.59069" lon="6.1177">
        <ele>1426.171</ele>
        <time>2024-09-19T09:07:56Z</time>
      </trkpt>
      <trkpt lat="45.59073" lon="6.11767">
        <ele>1425.338</ele>
        <time>2024-09-19T09:08:08Z</time>
      </trkpt>
      <trkpt lat="45.59078" lon="6.11764">
        <ele>1424.717</ele>
        <time>2024-09-19T09:08:18Z</time>
      </trkpt>
      <trkpt lat="45.59082" lon="6.11762">
        <ele>1424.447</ele>
        <time>2024-09-19T09:08:27Z</time>
      </trkpt>
      <trkpt lat="45.59085" lon="6.11759">
        <ele>1428.868</ele>
        <time>2024-09-19T09:08:41Z</time>
      </trkpt>
      <trkpt lat="45.59088" lon="6.11758">
        <ele>1427.801</ele>
        <time>2024-09-19T09:09:01Z</time>
      </trkpt>
      <trkpt lat="45.59092" lon="6.11758">
        <ele>1430.431</ele>
        <time>2024-09-19T09:09:18Z</time>
      </trkpt>
      <trkpt lat="45.59095" lon="6.11755">
        <ele>1433.583</ele>
        <time>2024-09-19T09:09:25Z</time>
      </trkpt>
      <trkpt lat="45.591" lon="6.11753">
        <ele>1434.552</ele>
        <time>2024-09-19T09:09:38Z</time>
      </trkpt>
      <trkpt lat="45.59104" lon="6.11752">
        <ele>1435.681</ele>
        <time>2024-09-19T09:09:44Z</time>
      </trkpt>
      <trkpt lat="45.59108" lon="6.11749">
        <ele>1437.804</ele>
        <time>2024-09-19T09:10:04Z</time>
      </trkpt>
      <trkpt lat="45.59112" lon="6.11748">
        <ele>1439.584</ele>
        <time>2024-09-19T09:10:11Z</time>
      </trkpt>
      <trkpt lat="45.59116" lon="6.11745">
        <ele>1437.359</ele>
        <time>2024-09-19T09:10:22Z</time>
      </trkpt>
      <trkpt lat="45.5912" lon="6.11743">
        <ele>1440.141</ele>
        <time>2024-09-19T09:10:33Z</time>
      </trkpt>
      <trkpt lat="45.59123" lon="6.11742">
        <ele>1435.956</ele>
        <time>2024-09-19T09:10:39Z</time>
      </trkpt>
      <trkpt lat="45.59127" lon="6.11742">
        <ele>1439.066</ele>
        <time>2024-09-19T09:10:48Z</time>
      </trkpt>
      <trkpt lat="45.5913" lon="6.11739">
        <ele>1441.815</ele>
        <time>2024-09-19T09:11:09Z</time>
      </trkpt>
      <trkpt lat="45.59134" lon="6.11738">
        <ele>1445.423</ele>
        <time>2024-09-19T09:11:18Z</time>
      </trkpt>
      <trkpt lat="45.59137" lon="6.11735">
        <ele>1439.054</ele>
        <time>2024-09-19T09:11:26Z</time>
      </trkpt>
      <trkpt lat="45.5914" lon="6.1173">
        <ele>1440.707</ele>
        <time>2024-09-19T09:11:35Z</time>
      </trkpt>
      <trkpt lat="45.59144" lon="6.11728">
        <ele>1442.943</ele>
        <time>2024-09-19T09:11:40Z</time>
      </trkpt>
      <trkpt lat="45.59145" lon="6.11726">
        <ele>1448.016</ele>
        <time>2024-09-19T09:11:44Z</time>
      </trkpt>
      <trkpt lat="45.59148" lon="6.11725">
        <ele>1451.857</ele>
        <time>2024-09-19T09:11:54Z</time>
      </trkpt>
      <trkpt lat="45.59153" lon="6.11724">
        <ele>1453.742</ele>
        <time>2024-09-19T09:12:05Z</time>
      </trkpt>
      <trkpt lat="45.59157" lon="6.11721">
        <ele>1453.03</ele>
        <time>2024-09-19T09:12:20Z</time>
      </trkpt>
      <trkpt lat="45.5916" lon="6.1172">
        <ele>1455.469</ele>
        <time>2024-09-19T09:12:32Z</time>
      </trkpt>
      <trkpt lat="45.59164" lon="6.11718">
        <ele>1452.74</ele>
        <time>2024-09-19T09:12:44Z</time>
      </trkpt>
      <trkpt lat="45.59168" lon="6.11717">
        <ele>1455.701</ele>
        <time>2024-09-19T09:12:55Z</time>
      </trkpt>
      <trkpt lat="45.59175" lon="6.11712">
        <ele>1458.086</ele>
        <time>2024-09-19T09:13:30Z</time>
      </trkpt>
      <trkpt lat="45.59178" lon="6.11711">
        <ele>1462.463</ele>
        <time>2024-09-19T09:13:38Z</time>
      </trkpt>
      <trkpt lat="45.59182" lon="6.11708">
        <ele>1464.288</ele>
        <time>2024-09-19T09:13:42Z</time>
      </trkpt>
      <trkpt lat="45.59189" lon="6.11706">
        <ele>1469.308</ele>
        <time>2024-09-19T09:14:07Z</time>
      </trkpt>
      <trkpt lat="45.59193" lon="6.11709">
        <ele>1472.392</ele>
        <time>2024-09-19T09:14:20Z</time>
      </trkpt>
      <trkpt lat="45.59198" lon="6.11708">
        <ele>1473.063</ele>
        <time>2024-09-19T09:14:30Z</time>
      </trkpt>
      <trkpt lat="45.59203" lon="6.11708">
        <ele>1473.157</ele>
        <time>2024-09-19T09:14:48Z</time>
      </trkpt>
      <trkpt lat="45.59206" lon="6.11707">
        <ele>1476.03</ele>
        <time>2024-09-19T09:15:02Z</time>
      </trkpt>
      <trkpt lat="45.59211" lon="6.11707">
        <ele>1470.384</ele>
        <time>2024-09-19T09:15:10Z</time>
      </trkpt>
      <trkpt lat="45.59216" lon="6.11708">
        <ele>1472.36</ele>
        <time>2024-09-19T09:15:14Z</time>
      </trkpt>
      <trkpt lat="45.5922" lon="6.11705">
        <ele>1472.412</ele>
        <time>2024-09-19T09:15:26Z</time>
      </trkpt>
      <trkpt lat="45.59222" lon="6.11703">
        <ele>1476.238</ele>
        <time>2024-09-19T09:15:37Z</time>
      </trkpt>
      <trkpt lat="45.59226" lon="6.117">
        <ele>1479.771</ele>
        <time>2024-09-19T09:15:46Z</time>
      </trkpt>
      <trkpt lat="45.59232" lon="6.11692">
        <ele>1482.131</ele>
        <time>2024-09-19T09:16:00Z</time>
      </trkpt>
      <trkpt lat="45.59236" lon="6.1169">
        <ele>1482.845</ele>
        <time>2024-09-19T09:16:08Z</time>
      </trkpt>
      <trkpt lat="45.59239" lon="6.11686">
        <ele>1487.415</ele>
        <time>2024-09-19T09:16:17Z</time>
      </trkpt>
      <trkpt lat="45.59242" lon="6.11683">
        <ele>1491.854</ele>
        <time>2024-09-19T09:16:24Z</time>
      </trkpt>
      <trkpt lat="45.59245" lon="6.11678">
        <ele>1493.802</ele>
        <time>2024-09-19T09:16:35Z</time>
      </trkpt>
      <trkpt lat="45.59249" lon="6.11678">
        <ele>1496.329</ele>
        <time>2024-09-19T09:16:45Z</time>
      </trkpt>
      <trkpt lat="45.59253" lon="6.11676">
        <ele>1495.052</ele>
        <time>2024-09-19T09:16:59Z</time>
      </trkpt>
      <trkpt lat="45.59259" lon="6.1167">
        <ele>1502.739</ele>
        <time>2024-09-19T09:17:10Z</time>
      </trkpt>
      <trkpt lat="45.59263" lon="6.11668">
        <ele>1499.795</ele>
        <time>2024-09-19T09:17:30Z</time>
      </trkpt>
      <trkpt lat="45.59267" lon="6.1167">
        <ele>1499.515</ele>
        <time>2024-09-19T09:17:42Z</time>
      </trkpt>
      <trkpt lat="45.5927" lon="6.11672">
        <ele>1495.245</ele>
        <time>2024-09-19T09:17:53Z</time>
      </trkpt>
      <trkpt lat="45.59275" lon="6.11673">
        <ele>1495.979</ele>
        <time>2024-09-19T09:18:06Z</time>
      </trkpt>
      <trkpt lat="45.59279" lon="6.1167">
        <ele>1498.26</ele>
        <time>2024-09-19T09:18:18Z</time>
      </trkpt>
      <trkpt lat="45.59281" lon="6.11669">
        <ele>1502.286</ele>
        <time>2024-09-19T09:18:36Z</time>
      </trkpt>
      <trkpt lat="45.59285" lon="6.11666">
        <ele>1504.916</ele>
        <time>2024-09-19T09:18:45Z</time>
      </trkpt>
      <trkpt lat="45.59285" lon="6.11662">
        <ele>1509.132</ele>
        <time>2024-09-19T09:18:51Z</time>
      </trkpt>
      <trkpt lat="45.59287" lon="6.11661">
        <ele>1512.109</ele>
        <time>2024-09-19T09:19:12Z</time>
      </trkpt>
      <trkpt lat="45.59292" lon="6.11662">
        <ele>1511.532</ele>
        <time>2024-09-19T09:19:25Z</time>
      </trkpt>
      <trkpt lat="45.59293" lon="6.11663">
        <ele>1511.282</ele>
        <time>2024-09-19T09:19:46Z</time>
      </trkpt>
      <trkpt lat="45.59297" lon="6.11663">
        <ele>1514.369</ele>
        <time>2024-09-19T09:20:07Z</time>
      </trkpt>
      <trkpt lat="45.59299" lon="6.11659">
        <ele>1515.89</ele>
        <time>2024-09-19T09:20:27Z</time>
      </trkpt>
      <trkpt lat="45.59303" lon="6.11656">
        <ele>1517.443</ele>
        <time>2024-09-19T09:20:37Z</time>
      </trkpt>
      <trkpt lat="45.59311" lon="6.11656">
        <ele>1523.329</ele>
        <time>2024-09-19T09:21:05Z</time>
      </trkpt>
      <trkpt lat="45.59312" lon="6.11654">
        <ele>1521.581</ele>
        <time>2024-09-19T09:21:25Z</time>
      </trkpt>
      <trkpt lat="45.59316" lon="6.11652">
        <ele>1522.909</ele>
        <time>2024-09-19T09:21:41Z</time>
      </trkpt>
      <trkpt lat="45.5932" lon="6.11649">
        <ele>1526.429</ele>
        <time>2024-09-19T09:21:54Z</time>
      </trkpt>
      <trkpt lat="45.59325" lon="6.11648">
        <ele>1525.861</ele>
        <time>2024-09-19T09:22:10Z</time>
      </trkpt>
      <trkpt lat="45.59329" lon="6.11646">
        <ele>1527.763</ele>
        <time>2024-09-19T09:22:29Z</time>
      </trkpt>
      <trkpt lat="45.59331" lon="6.11644">
        <ele>1530.004</ele>
        <time>2024-09-19T09:22:49Z</time>
      </trkpt>
      <trkpt lat="45.59334" lon="6.1164">
        <ele>1532.685</ele>
        <time>2024-09-19T09:23:00Z</time>
      </trkpt>
      <trkpt lat="45.59336" lon="6.11639">
        <ele>1533.855</ele>
        <time>2024-09-19T09:23:20Z</time>
      </trkpt>
      <trkpt lat="45.59337" lon="6.11639">
        <ele>1534.765</ele>
        <time>2024-09-19T09:23:40Z</time>
      </trkpt>
      <trkpt lat="45.59343" lon="6.11631">
        <ele>1535.631</ele>
        <time>2024-09-19T09:23:54Z</time>
      </trkpt>
      <trkpt lat="45.59348" lon="6.11629">
        <ele>1536.183</ele>
        <time>2024-09-19T09:24:04Z</time>
      </trkpt>
      <trkpt lat="45.59353" lon="6.11628">
        <ele>1535.118</ele>
        <time>2024-09-19T09:24:15Z</time>
      </trkpt>
      <trkpt lat="45.59358" lon="6.11626">
        <ele>1536.877</ele>
        <time>2024-09-19T09:24:23Z</time>
      </trkpt>
      <trkpt lat="45.59363" lon="6.11625">
        <ele>1537.389</ele>
        <time>2024-09-19T09:24:38Z</time>
      </trkpt>
      <trkpt lat="45.59367" lon="6.11623">
        <ele>1539.44</ele>
        <time>2024-09-19T09:24:49Z</time>
      </trkpt>
      <trkpt lat="45.5937" lon="6.1162">
        <ele>1542.638</ele>
        <time>2024-09-19T09:25:04Z</time>
      </trkpt>
      <trkpt lat="45.59372" lon="6.1162">
        <ele>1538.325</ele>
        <time>2024-09-19T09:35:48Z</time>
      </trkpt>
      <trkpt lat="45.59384" lon="6.11616">
        <ele>1548.052</ele>
        <time>2024-09-19T09:39:57Z</time>
      </trkpt>
      <trkpt lat="45.59384" lon="6.11611">
        <ele>1546.756</ele>
        <time>2024-09-19T09:40:17Z</time>
      </trkpt>
      <trkpt lat="45.59387" lon="6.11606">
        <ele>1546.001</ele>
        <time>2024-09-19T09:40:26Z</time>
      </trkpt>
      <trkpt lat="45.59386" lon="6.11599">
        <ele>1546.493</ele>
        <time>2024-09-19T09:40:46Z</time>
      </trkpt>
      <trkpt lat="45.59388" lon="6.11593">
        <ele>1545.973</ele>
        <time>2024-09-19T09:40:53Z</time>
      </trkpt>
      <trkpt lat="45.59391" lon="6.11588">
        <ele>1546.695</ele>
        <time>2024-09-19T09:41:04Z</time>
      </trkpt>
      <trkpt lat="45.59391" lon="6.11581">
        <ele>1545.95</ele>
        <time>2024-09-19T09:41:11Z</time>
      </trkpt>
      <trkpt lat="45.59393" lon="6.11576">
        <ele>1542.151</ele>
        <time>2024-09-19T09:41:21Z</time>
      </trkpt>
      <trkpt lat="45.59394" lon="6.11569">
        <ele>1543.228</ele>
        <time>2024-09-19T09:41:28Z</time>
      </trkpt>
      <trkpt lat="45.59395" lon="6.11564">
        <ele>1540.444</ele>
        <time>2024-09-19T09:41:39Z</time>
      </trkpt>
      <trkpt lat="45.59397" lon="6.11557">
        <ele>1538.584</ele>
        <time>2024-09-19T09:41:45Z</time>
      </trkpt>
      <trkpt lat="45.59401" lon="6.11529">
        <ele>1538.187</ele>
        <time>2024-09-19T09:42:05Z</time>
      </trkpt>
      <trkpt lat="45.59404" lon="6.1151">
        <ele>1540.08</ele>
        <time>2024-09-19T09:42:18Z</time>
      </trkpt>
      <trkpt lat="45.59404" lon="6.11496">
        <ele>1542.275</ele>
        <time>2024-09-19T09:42:28Z</time>
      </trkpt>
      <trkpt lat="45.59405" lon="6.11489">
        <ele>1542.489</ele>
        <time>2024-09-19T09:42:46Z</time>
      </trkpt>
      <trkpt lat="45.59409" lon="6.11477">
        <ele>1541.383</ele>
        <time>2024-09-19T09:43:13Z</time>
      </trkpt>
      <trkpt lat="45.59411" lon="6.11472">
        <ele>1542.457</ele>
        <time>2024-09-19T09:43:23Z</time>
      </trkpt>
      <trkpt lat="45.59415" lon="6.1146">
        <ele>1542.111</ele>
        <time>2024-09-19T09:43:44Z</time>
      </trkpt>
      <trkpt lat="45.59418" lon="6.11455">
        <ele>1543.09</ele>
        <time>2024-09-19T09:43:52Z</time>
      </trkpt>
      <trkpt lat="45.5942" lon="6.11449">
        <ele>1542.577</ele>
        <time>2024-09-19T09:43:57Z</time>
      </trkpt>
      <trkpt lat="45.59421" lon="6.11443">
        <ele>1544.945</ele>
        <time>2024-09-19T09:44:01Z</time>
      </trkpt>
      <trkpt lat="45.59423" lon="6.11439">
        <ele>1544.829</ele>
        <time>2024-09-19T09:44:21Z</time>
      </trkpt>
      <trkpt lat="45.59426" lon="6.11434">
        <ele>1544.582</ele>
        <time>2024-09-19T09:44:31Z</time>
      </trkpt>
      <trkpt lat="45.59434" lon="6.11424">
        <ele>1547.805</ele>
        <time>2024-09-19T09:44:43Z</time>
      </trkpt>
      <trkpt lat="45.59434" lon="6.11417">
        <ele>1547.711</ele>
        <time>2024-09-19T09:44:53Z</time>
      </trkpt>
      <trkpt lat="45.59433" lon="6.11409">
        <ele>1548.964</ele>
        <time>2024-09-19T09:45:02Z</time>
      </trkpt>
      <trkpt lat="45.59433" lon="6.11402">
        <ele>1548.981</ele>
        <time>2024-09-19T09:45:08Z</time>
      </trkpt>
      <trkpt lat="45.59437" lon="6.11399">
        <ele>1550.651</ele>
        <time>2024-09-19T09:45:16Z</time>
      </trkpt>
      <trkpt lat="45.59441" lon="6.11401">
        <ele>1547.155</ele>
        <time>2024-09-19T09:45:21Z</time>
      </trkpt>
      <trkpt lat="45.59446" lon="6.11404">
        <ele>1543.863</ele>
        <time>2024-09-19T09:45:37Z</time>
      </trkpt>
      <trkpt lat="45.59448" lon="6.11402">
        <ele>1541.176</ele>
        <time>2024-09-19T09:45:57Z</time>
      </trkpt>
      <trkpt lat="45.59451" lon="6.11406">
        <ele>1538.748</ele>
        <time>2024-09-19T09:46:05Z</time>
      </trkpt>
      <trkpt lat="45.59459" lon="6.1141">
        <ele>1534.835</ele>
        <time>2024-09-19T09:46:15Z</time>
      </trkpt>
      <trkpt lat="45.59464" lon="6.11411">
        <ele>1534.309</ele>
        <time>2024-09-19T09:46:21Z</time>
      </trkpt>
      <trkpt lat="45.59469" lon="6.11413">
        <ele>1532.72</ele>
        <time>2024-09-19T09:46:27Z</time>
      </trkpt>
      <trkpt lat="45.59473" lon="6.11416">
        <ele>1533.66</ele>
        <time>2024-09-19T09:46:32Z</time>
      </trkpt>
      <trkpt lat="45.5948" lon="6.11423">
        <ele>1528.685</ele>
        <time>2024-09-19T09:46:42Z</time>
      </trkpt>
      <trkpt lat="45.59488" lon="6.11433">
        <ele>1526.869</ele>
        <time>2024-09-19T09:46:55Z</time>
      </trkpt>
      <trkpt lat="45.59496" lon="6.11441">
        <ele>1530.06</ele>
        <time>2024-09-19T09:47:03Z</time>
      </trkpt>
      <trkpt lat="45.59499" lon="6.11446">
        <ele>1533.143</ele>
        <time>2024-09-19T09:47:08Z</time>
      </trkpt>
      <trkpt lat="45.59503" lon="6.11448">
        <ele>1529.813</ele>
        <time>2024-09-19T09:47:12Z</time>
      </trkpt>
      <trkpt lat="45.59506" lon="6.11451">
        <ele>1525.338</ele>
        <time>2024-09-19T09:47:18Z</time>
      </trkpt>
      <trkpt lat="45.59517" lon="6.11455">
        <ele>1528.639</ele>
        <time>2024-09-19T09:47:27Z</time>
      </trkpt>
      <trkpt lat="45.5952" lon="6.11458">
        <ele>1525.061</ele>
        <time>2024-09-19T09:47:39Z</time>
      </trkpt>
      <trkpt lat="45.59525" lon="6.1146">
        <ele>1523.553</ele>
        <time>2024-09-19T09:47:45Z</time>
      </trkpt>
      <trkpt lat="45.5953" lon="6.11463">
        <ele>1521.988</ele>
        <time>2024-09-19T09:47:51Z</time>
      </trkpt>
      <trkpt lat="45.59542" lon="6.11472">
        <ele>1518.89</ele>
        <time>2024-09-19T09:48:11Z</time>
      </trkpt>
      <trkpt lat="45.59552" lon="6.11478">
        <ele>1516.533</ele>
        <time>2024-09-19T09:48:21Z</time>
      </trkpt>
      <trkpt lat="45.59555" lon="6.11481">
        <ele>1513.024</ele>
        <time>2024-09-19T09:48:26Z</time>
      </trkpt>
      <trkpt lat="45.59559" lon="6.11483">
        <ele>1511.232</ele>
        <time>2024-09-19T09:48:31Z</time>
      </trkpt>
      <trkpt lat="45.59563" lon="6.11486">
        <ele>1511.182</ele>
        <time>2024-09-19T09:48:36Z</time>
      </trkpt>
      <trkpt lat="45.59567" lon="6.11491">
        <ele>1509.764</ele>
        <time>2024-09-19T09:48:41Z</time>
      </trkpt>
      <trkpt lat="45.59571" lon="6.11492">
        <ele>1506.699</ele>
        <time>2024-09-19T09:48:46Z</time>
      </trkpt>
      <trkpt lat="45.59574" lon="6.11495">
        <ele>1504.674</ele>
        <time>2024-09-19T09:48:52Z</time>
      </trkpt>
      <trkpt lat="45.59578" lon="6.11498">
        <ele>1502.218</ele>
        <time>2024-09-19T09:48:58Z</time>
      </trkpt>
      <trkpt lat="45.59582" lon="6.11502">
        <ele>1502.668</ele>
        <time>2024-09-19T09:49:03Z</time>
      </trkpt>
      <trkpt lat="45.59586" lon="6.11504">
        <ele>1500.267</ele>
        <time>2024-09-19T09:49:07Z</time>
      </trkpt>
      <trkpt lat="45.59596" lon="6.1151">
        <ele>1500.563</ele>
        <time>2024-09-19T09:49:17Z</time>
      </trkpt>
      <trkpt lat="45.59609" lon="6.1152">
        <ele>1499.667</ele>
        <time>2024-09-19T09:49:32Z</time>
      </trkpt>
      <trkpt lat="45.59619" lon="6.11526">
        <ele>1499.568</ele>
        <time>2024-09-19T09:49:43Z</time>
      </trkpt>
      <trkpt lat="45.59624" lon="6.1153">
        <ele>1498.694</ele>
        <time>2024-09-19T09:49:49Z</time>
      </trkpt>
      <trkpt lat="45.59628" lon="6.11532">
        <ele>1499.228</ele>
        <time>2024-09-19T09:49:54Z</time>
      </trkpt>
      <trkpt lat="45.59633" lon="6.11535">
        <ele>1497.802</ele>
        <time>2024-09-19T09:49:59Z</time>
      </trkpt>
      <trkpt lat="45.59636" lon="6.11538">
        <ele>1495.209</ele>
        <time>2024-09-19T09:50:03Z</time>
      </trkpt>
      <trkpt lat="45.59641" lon="6.1154">
        <ele>1494.207</ele>
        <time>2024-09-19T09:50:08Z</time>
      </trkpt>
      <trkpt lat="45.59645" lon="6.11542">
        <ele>1491.667</ele>
        <time>2024-09-19T09:50:14Z</time>
      </trkpt>
      <trkpt lat="45.5965" lon="6.11542">
        <ele>1488.834</ele>
        <time>2024-09-19T09:50:19Z</time>
      </trkpt>
      <trkpt lat="45.59654" lon="6.11545">
        <ele>1487.696</ele>
        <time>2024-09-19T09:50:25Z</time>
      </trkpt>
      <trkpt lat="45.59665" lon="6.11556">
        <ele>1485.735</ele>
        <time>2024-09-19T09:50:38Z</time>
      </trkpt>
      <trkpt lat="45.5967" lon="6.11558">
        <ele>1485.51</ele>
        <time>2024-09-19T09:50:43Z</time>
      </trkpt>
      <trkpt lat="45.59675" lon="6.11561">
        <ele>1484.242</ele>
        <time>2024-09-19T09:50:49Z</time>
      </trkpt>
      <trkpt lat="45.5968" lon="6.11563">
        <ele>1484.153</ele>
        <time>2024-09-19T09:50:53Z</time>
      </trkpt>
      <trkpt lat="45.59684" lon="6.11566">
        <ele>1483.94</ele>
        <time>2024-09-19T09:50:57Z</time>
      </trkpt>
      <trkpt lat="45.59689" lon="6.11569">
        <ele>1484.355</ele>
        <time>2024-09-19T09:51:02Z</time>
      </trkpt>
      <trkpt lat="45.59693" lon="6.11571">
        <ele>1482.59</ele>
        <time>2024-09-19T09:51:06Z</time>
      </trkpt>
      <trkpt lat="45.59698" lon="6.11574">
        <ele>1480.927</ele>
        <time>2024-09-19T09:51:12Z</time>
      </trkpt>
      <trkpt lat="45.59702" lon="6.11577">
        <ele>1479.558</ele>
        <time>2024-09-19T09:51:17Z</time>
      </trkpt>
      <trkpt lat="45.59706" lon="6.11579">
        <ele>1477.096</ele>
        <time>2024-09-19T09:51:22Z</time>
      </trkpt>
      <trkpt lat="45.59711" lon="6.11582">
        <ele>1478.678</ele>
        <time>2024-09-19T09:51:27Z</time>
      </trkpt>
      <trkpt lat="45.59715" lon="6.11586">
        <ele>1477.903</ele>
        <time>2024-09-19T09:51:32Z</time>
      </trkpt>
      <trkpt lat="45.59719" lon="6.11588">
        <ele>1477.838</ele>
        <time>2024-09-19T09:51:37Z</time>
      </trkpt>
      <trkpt lat="45.59723" lon="6.11591">
        <ele>1477.634</ele>
        <time>2024-09-19T09:51:42Z</time>
      </trkpt>
      <trkpt lat="45.59728" lon="6.11594">
        <ele>1475.303</ele>
        <time>2024-09-19T09:51:48Z</time>
      </trkpt>
      <trkpt lat="45.59732" lon="6.11597">
        <ele>1475.741</ele>
        <time>2024-09-19T09:51:53Z</time>
      </trkpt>
      <trkpt lat="45.59737" lon="6.116">
        <ele>1476.012</ele>
        <time>2024-09-19T09:51:58Z</time>
      </trkpt>
      <trkpt lat="45.59742" lon="6.11602">
        <ele>1474.767</ele>
        <time>2024-09-19T09:52:03Z</time>
      </trkpt>
      <trkpt lat="45.59746" lon="6.11605">
        <ele>1473.438</ele>
        <time>2024-09-19T09:52:08Z</time>
      </trkpt>
      <trkpt lat="45.59751" lon="6.11607">
        <ele>1472.611</ele>
        <time>2024-09-19T09:52:13Z</time>
      </trkpt>
      <trkpt lat="45.59755" lon="6.11611">
        <ele>1473.907</ele>
        <time>2024-09-19T09:52:38Z</time>
      </trkpt>
      <trkpt lat="45.5976" lon="6.11611">
        <ele>1476.27</ele>
        <time>2024-09-19T09:52:51Z</time>
      </trkpt>
      <trkpt lat="45.59764" lon="6.11613">
        <ele>1473.219</ele>
        <time>2024-09-19T09:52:54Z</time>
      </trkpt>
      <trkpt lat="45.59769" lon="6.11616">
        <ele>1474.014</ele>
        <time>2024-09-19T09:52:58Z</time>
      </trkpt>
      <trkpt lat="45.59773" lon="6.11618">
        <ele>1472.151</ele>
        <time>2024-09-19T09:53:03Z</time>
      </trkpt>
      <trkpt lat="45.59783" lon="6.11624">
        <ele>1472.093</ele>
        <time>2024-09-19T09:53:14Z</time>
      </trkpt>
      <trkpt lat="45.59788" lon="6.11626">
        <ele>1471.461</ele>
        <time>2024-09-19T09:53:19Z</time>
      </trkpt>
      <trkpt lat="45.59792" lon="6.11631">
        <ele>1471.757</ele>
        <time>2024-09-19T09:53:24Z</time>
      </trkpt>
      <trkpt lat="45.59802" lon="6.11635">
        <ele>1470.585</ele>
        <time>2024-09-19T09:53:33Z</time>
      </trkpt>
      <trkpt lat="45.59805" lon="6.11639">
        <ele>1466.996</ele>
        <time>2024-09-19T09:53:38Z</time>
      </trkpt>
      <trkpt lat="45.59809" lon="6.11641">
        <ele>1468.788</ele>
        <time>2024-09-19T09:53:42Z</time>
      </trkpt>
      <trkpt lat="45.59814" lon="6.11644">
        <ele>1467.794</ele>
        <time>2024-09-19T09:53:46Z</time>
      </trkpt>
      <trkpt lat="45.59818" lon="6.11646">
        <ele>1468.623</ele>
        <time>2024-09-19T09:53:51Z</time>
      </trkpt>
      <trkpt lat="45.59823" lon="6.11648">
        <ele>1464.644</ele>
        <time>2024-09-19T09:53:56Z</time>
      </trkpt>
      <trkpt lat="45.59826" lon="6.11651">
        <ele>1461.949</ele>
        <time>2024-09-19T09:54:01Z</time>
      </trkpt>
      <trkpt lat="45.59831" lon="6.11653">
        <ele>1463.09</ele>
        <time>2024-09-19T09:54:06Z</time>
      </trkpt>
      <trkpt lat="45.59835" lon="6.11656">
        <ele>1463.47</ele>
        <time>2024-09-19T09:54:12Z</time>
      </trkpt>
      <trkpt lat="45.59839" lon="6.1166">
        <ele>1463.744</ele>
        <time>2024-09-19T09:54:17Z</time>
      </trkpt>
      <trkpt lat="45.59844" lon="6.11664">
        <ele>1462.756</ele>
        <time>2024-09-19T09:54:22Z</time>
      </trkpt>
      <trkpt lat="45.59849" lon="6.11667">
        <ele>1463.894</ele>
        <time>2024-09-19T09:54:26Z</time>
      </trkpt>
      <trkpt lat="45.59858" lon="6.11674">
        <ele>1463.103</ele>
        <time>2024-09-19T09:54:36Z</time>
      </trkpt>
      <trkpt lat="45.59862" lon="6.11676">
        <ele>1460.831</ele>
        <time>2024-09-19T09:54:40Z</time>
      </trkpt>
      <trkpt lat="45.59867" lon="6.11678">
        <ele>1459.306</ele>
        <time>2024-09-19T09:54:44Z</time>
      </trkpt>
      <trkpt lat="45.59871" lon="6.1168">
        <ele>1459.57</ele>
        <time>2024-09-19T09:54:48Z</time>
      </trkpt>
      <trkpt lat="45.59876" lon="6.11681">
        <ele>1460.95</ele>
        <time>2024-09-19T09:54:51Z</time>
      </trkpt>
      <trkpt lat="45.5988" lon="6.11685">
        <ele>1461.309</ele>
        <time>2024-09-19T09:54:55Z</time>
      </trkpt>
      <trkpt lat="45.59886" lon="6.11686">
        <ele>1461.083</ele>
        <time>2024-09-19T09:54:59Z</time>
      </trkpt>
      <trkpt lat="45.59891" lon="6.11689">
        <ele>1459.819</ele>
        <time>2024-09-19T09:55:04Z</time>
      </trkpt>
      <trkpt lat="45.59896" lon="6.11691">
        <ele>1460.846</ele>
        <time>2024-09-19T09:55:08Z</time>
      </trkpt>
      <trkpt lat="45.599" lon="6.11695">
        <ele>1461.954</ele>
        <time>2024-09-19T09:55:13Z</time>
      </trkpt>
      <trkpt lat="45.59905" lon="6.11694">
        <ele>1461.052</ele>
        <time>2024-09-19T09:55:18Z</time>
      </trkpt>
      <trkpt lat="45.5991" lon="6.11695">
        <ele>1460.224</ele>
        <time>2024-09-19T09:55:23Z</time>
      </trkpt>
      <trkpt lat="45.59915" lon="6.11697">
        <ele>1459.271</ele>
        <time>2024-09-19T09:55:27Z</time>
      </trkpt>
      <trkpt lat="45.59919" lon="6.11699">
        <ele>1460.241</ele>
        <time>2024-09-19T09:55:31Z</time>
      </trkpt>
      <trkpt lat="45.59928" lon="6.11701">
        <ele>1456.491</ele>
        <time>2024-09-19T09:55:39Z</time>
      </trkpt>
      <trkpt lat="45.59932" lon="6.11703">
        <ele>1457.768</ele>
        <time>2024-09-19T09:55:43Z</time>
      </trkpt>
      <trkpt lat="45.59937" lon="6.11705">
        <ele>1455.844</ele>
        <time>2024-09-19T09:55:47Z</time>
      </trkpt>
      <trkpt lat="45.59941" lon="6.11708">
        <ele>1455.343</ele>
        <time>2024-09-19T09:55:52Z</time>
      </trkpt>
      <trkpt lat="45.59946" lon="6.11709">
        <ele>1456.507</ele>
        <time>2024-09-19T09:55:56Z</time>
      </trkpt>
      <trkpt lat="45.5995" lon="6.11712">
        <ele>1456.92</ele>
        <time>2024-09-19T09:56:01Z</time>
      </trkpt>
      <trkpt lat="45.59955" lon="6.11712">
        <ele>1457.417</ele>
        <time>2024-09-19T09:56:05Z</time>
      </trkpt>
      <trkpt lat="45.5996" lon="6.11714">
        <ele>1457.308</ele>
        <time>2024-09-19T09:56:10Z</time>
      </trkpt>
      <trkpt lat="45.59965" lon="6.11714">
        <ele>1457.87</ele>
        <time>2024-09-19T09:56:15Z</time>
      </trkpt>
      <trkpt lat="45.59979" lon="6.11717">
        <ele>1456.219</ele>
        <time>2024-09-19T09:56:29Z</time>
      </trkpt>
      <trkpt lat="45.59984" lon="6.11719">
        <ele>1455.452</ele>
        <time>2024-09-19T09:56:34Z</time>
      </trkpt>
      <trkpt lat="45.59988" lon="6.11718">
        <ele>1456.012</ele>
        <time>2024-09-19T09:56:41Z</time>
      </trkpt>
      <trkpt lat="45.59994" lon="6.11719">
        <ele>1454.404</ele>
        <time>2024-09-19T09:56:53Z</time>
      </trkpt>
      <trkpt lat="45.59999" lon="6.11719">
        <ele>1454.489</ele>
        <time>2024-09-19T09:57:00Z</time>
      </trkpt>
      <trkpt lat="45.60003" lon="6.11721">
        <ele>1452.463</ele>
        <time>2024-09-19T09:57:05Z</time>
      </trkpt>
      <trkpt lat="45.60007" lon="6.11726">
        <ele>1451.929</ele>
        <time>2024-09-19T09:57:11Z</time>
      </trkpt>
      <trkpt lat="45.60011" lon="6.11729">
        <ele>1448.105</ele>
        <time>2024-09-19T09:57:17Z</time>
      </trkpt>
      <trkpt lat="45.60014" lon="6.11733">
        <ele>1444.917</ele>
        <time>2024-09-19T09:57:23Z</time>
      </trkpt>
      <trkpt lat="45.60019" lon="6.11735">
        <ele>1443.39</ele>
        <time>2024-09-19T09:57:29Z</time>
      </trkpt>
      <trkpt lat="45.60028" lon="6.11735">
        <ele>1445.752</ele>
        <time>2024-09-19T09:57:39Z</time>
      </trkpt>
      <trkpt lat="45.60033" lon="6.11732">
        <ele>1445.659</ele>
        <time>2024-09-19T09:57:45Z</time>
      </trkpt>
      <trkpt lat="45.60038" lon="6.11728">
        <ele>1445.918</ele>
        <time>2024-09-19T09:57:51Z</time>
      </trkpt>
      <trkpt lat="45.60042" lon="6.11729">
        <ele>1443.242</ele>
        <time>2024-09-19T09:57:57Z</time>
      </trkpt>
      <trkpt lat="45.60049" lon="6.11734">
        <ele>1438.104</ele>
        <time>2024-09-19T09:58:07Z</time>
      </trkpt>
      <trkpt lat="45.60058" lon="6.11734">
        <ele>1434.965</ele>
        <time>2024-09-19T09:58:18Z</time>
      </trkpt>
      <trkpt lat="45.60063" lon="6.11732">
        <ele>1432.949</ele>
        <time>2024-09-19T09:58:23Z</time>
      </trkpt>
      <trkpt lat="45.60068" lon="6.11733">
        <ele>1432.517</ele>
        <time>2024-09-19T09:58:31Z</time>
      </trkpt>
      <trkpt lat="45.60073" lon="6.11733">
        <ele>1432.843</ele>
        <time>2024-09-19T09:58:37Z</time>
      </trkpt>
      <trkpt lat="45.60081" lon="6.11736">
        <ele>1429.541</ele>
        <time>2024-09-19T09:58:48Z</time>
      </trkpt>
      <trkpt lat="45.60083" lon="6.11736">
        <ele>1424.732</ele>
        <time>2024-09-19T09:58:57Z</time>
      </trkpt>
      <trkpt lat="45.60088" lon="6.11738">
        <ele>1424.767</ele>
        <time>2024-09-19T09:59:04Z</time>
      </trkpt>
      <trkpt lat="45.60092" lon="6.11741">
        <ele>1424.33</ele>
        <time>2024-09-19T09:59:11Z</time>
      </trkpt>
      <trkpt lat="45.60095" lon="6.11745">
        <ele>1423.165</ele>
        <time>2024-09-19T09:59:20Z</time>
      </trkpt>
      <trkpt lat="45.60099" lon="6.11746">
        <ele>1420.444</ele>
        <time>2024-09-19T09:59:26Z</time>
      </trkpt>
      <trkpt lat="45.60105" lon="6.11749">
        <ele>1419.393</ele>
        <time>2024-09-19T09:59:31Z</time>
      </trkpt>
      <trkpt lat="45.60109" lon="6.11753">
        <ele>1419.013</ele>
        <time>2024-09-19T09:59:37Z</time>
      </trkpt>
      <trkpt lat="45.60112" lon="6.11758">
        <ele>1417.924</ele>
        <time>2024-09-19T09:59:45Z</time>
      </trkpt>
      <trkpt lat="45.60116" lon="6.1176">
        <ele>1415.375</ele>
        <time>2024-09-19T09:59:51Z</time>
      </trkpt>
      <trkpt lat="45.60119" lon="6.11763">
        <ele>1411.738</ele>
        <time>2024-09-19T10:00:00Z</time>
      </trkpt>
      <trkpt lat="45.60124" lon="6.11763">
        <ele>1410.107</ele>
        <time>2024-09-19T10:00:05Z</time>
      </trkpt>
      <trkpt lat="45.60128" lon="6.11765">
        <ele>1412.157</ele>
        <time>2024-09-19T10:00:11Z</time>
      </trkpt>
      <trkpt lat="45.60135" lon="6.11774">
        <ele>1410.866</ele>
        <time>2024-09-19T10:00:24Z</time>
      </trkpt>
      <trkpt lat="45.60138" lon="6.11779">
        <ele>1411.716</ele>
        <time>2024-09-19T10:00:29Z</time>
      </trkpt>
      <trkpt lat="45.60142" lon="6.11784">
        <ele>1411.803</ele>
        <time>2024-09-19T10:00:34Z</time>
      </trkpt>
      <trkpt lat="45.60145" lon="6.1179">
        <ele>1412.066</ele>
        <time>2024-09-19T10:00:39Z</time>
      </trkpt>
      <trkpt lat="45.60149" lon="6.11792">
        <ele>1410.647</ele>
        <time>2024-09-19T10:00:44Z</time>
      </trkpt>
      <trkpt lat="45.60154" lon="6.11793">
        <ele>1407.281</ele>
        <time>2024-09-19T10:00:49Z</time>
      </trkpt>
      <trkpt lat="45.60159" lon="6.11796">
        <ele>1407.287</ele>
        <time>2024-09-19T10:00:54Z</time>
      </trkpt>
      <trkpt lat="45.6016" lon="6.11803">
        <ele>1411.512</ele>
        <time>2024-09-19T10:00:59Z</time>
      </trkpt>
      <trkpt lat="45.60162" lon="6.11808">
        <ele>1409.042</ele>
        <time>2024-09-19T10:01:03Z</time>
      </trkpt>
      <trkpt lat="45.60165" lon="6.11813">
        <ele>1411.167</ele>
        <time>2024-09-19T10:01:08Z</time>
      </trkpt>
      <trkpt lat="45.60167" lon="6.11819">
        <ele>1410.896</ele>
        <time>2024-09-19T10:01:13Z</time>
      </trkpt>
      <trkpt lat="45.60169" lon="6.11823">
        <ele>1406.03</ele>
        <time>2024-09-19T10:01:17Z</time>
      </trkpt>
      <trkpt lat="45.60173" lon="6.11825">
        <ele>1405.368</ele>
        <time>2024-09-19T10:01:21Z</time>
      </trkpt>
      <trkpt lat="45.60176" lon="6.1183">
        <ele>1403.497</ele>
        <time>2024-09-19T10:01:26Z</time>
      </trkpt>
      <trkpt lat="45.6018" lon="6.11835">
        <ele>1406.116</ele>
        <time>2024-09-19T10:01:32Z</time>
      </trkpt>
      <trkpt lat="45.60184" lon="6.11837">
        <ele>1406.311</ele>
        <time>2024-09-19T10:01:35Z</time>
      </trkpt>
      <trkpt lat="45.60188" lon="6.11836">
        <ele>1401.886</ele>
        <time>2024-09-19T10:01:39Z</time>
      </trkpt>
      <trkpt lat="45.60192" lon="6.11838">
        <ele>1398.674</ele>
        <time>2024-09-19T10:01:45Z</time>
      </trkpt>
      <trkpt lat="45.60192" lon="6.11844">
        <ele>1396.094</ele>
        <time>2024-09-19T10:01:51Z</time>
      </trkpt>
      <trkpt lat="45.60194" lon="6.1185">
        <ele>1392.316</ele>
        <time>2024-09-19T10:01:58Z</time>
      </trkpt>
      <trkpt lat="45.60199" lon="6.1186">
        <ele>1391.336</ele>
        <time>2024-09-19T10:02:11Z</time>
      </trkpt>
      <trkpt lat="45.60203" lon="6.11863">
        <ele>1389.816</ele>
        <time>2024-09-19T10:02:18Z</time>
      </trkpt>
      <trkpt lat="45.60206" lon="6.11867">
        <ele>1387.636</ele>
        <time>2024-09-19T10:02:23Z</time>
      </trkpt>
      <trkpt lat="45.6021" lon="6.11871">
        <ele>1386.821</ele>
        <time>2024-09-19T10:02:28Z</time>
      </trkpt>
      <trkpt lat="45.60215" lon="6.11872">
        <ele>1386.775</ele>
        <time>2024-09-19T10:02:34Z</time>
      </trkpt>
      <trkpt lat="45.60219" lon="6.11872">
        <ele>1388.766</ele>
        <time>2024-09-19T10:02:37Z</time>
      </trkpt>
      <trkpt lat="45.60223" lon="6.11877">
        <ele>1387.289</ele>
        <time>2024-09-19T10:02:43Z</time>
      </trkpt>
      <trkpt lat="45.60226" lon="6.11882">
        <ele>1388.721</ele>
        <time>2024-09-19T10:02:48Z</time>
      </trkpt>
      <trkpt lat="45.60229" lon="6.11886">
        <ele>1384.919</ele>
        <time>2024-09-19T10:02:52Z</time>
      </trkpt>
      <trkpt lat="45.60229" lon="6.11891">
        <ele>1380.991</ele>
        <time>2024-09-19T10:02:58Z</time>
      </trkpt>
      <trkpt lat="45.60233" lon="6.11894">
        <ele>1382.275</ele>
        <time>2024-09-19T10:03:02Z</time>
      </trkpt>
      <trkpt lat="45.60234" lon="6.11899">
        <ele>1379.099</ele>
        <time>2024-09-19T10:03:07Z</time>
      </trkpt>
      <trkpt lat="45.60237" lon="6.11904">
        <ele>1379.757</ele>
        <time>2024-09-19T10:03:12Z</time>
      </trkpt>
      <trkpt lat="45.60244" lon="6.11909">
        <ele>1377.158</ele>
        <time>2024-09-19T10:03:20Z</time>
      </trkpt>
      <trkpt lat="45.60247" lon="6.11916">
        <ele>1375.494</ele>
        <time>2024-09-19T10:03:25Z</time>
      </trkpt>
      <trkpt lat="45.60254" lon="6.11921">
        <ele>1375.92</ele>
        <time>2024-09-19T10:03:33Z</time>
      </trkpt>
      <trkpt lat="45.60258" lon="6.11923">
        <ele>1375.881</ele>
        <time>2024-09-19T10:03:38Z</time>
      </trkpt>
      <trkpt lat="45.60263" lon="6.11923">
        <ele>1374.539</ele>
        <time>2024-09-19T10:03:42Z</time>
      </trkpt>
      <trkpt lat="45.60267" lon="6.11927">
        <ele>1375.984</ele>
        <time>2024-09-19T10:03:47Z</time>
      </trkpt>
      <trkpt lat="45.60271" lon="6.1193">
        <ele>1376.127</ele>
        <time>2024-09-19T10:03:51Z</time>
      </trkpt>
      <trkpt lat="45.60276" lon="6.11933">
        <ele>1378.575</ele>
        <time>2024-09-19T10:03:55Z</time>
      </trkpt>
      <trkpt lat="45.6028" lon="6.11936">
        <ele>1377.607</ele>
        <time>2024-09-19T10:03:59Z</time>
      </trkpt>
      <trkpt lat="45.60287" lon="6.11945">
        <ele>1374.723</ele>
        <time>2024-09-19T10:04:08Z</time>
      </trkpt>
      <trkpt lat="45.60291" lon="6.11949">
        <ele>1375.47</ele>
        <time>2024-09-19T10:04:12Z</time>
      </trkpt>
      <trkpt lat="45.60294" lon="6.11953">
        <ele>1378.938</ele>
        <time>2024-09-19T10:04:16Z</time>
      </trkpt>
      <trkpt lat="45.60295" lon="6.11958">
        <ele>1374.788</ele>
        <time>2024-09-19T10:04:22Z</time>
      </trkpt>
      <trkpt lat="45.603" lon="6.1196">
        <ele>1373.936</ele>
        <time>2024-09-19T10:04:28Z</time>
      </trkpt>
      <trkpt lat="45.60302" lon="6.11963">
        <ele>1369.527</ele>
        <time>2024-09-19T10:04:32Z</time>
      </trkpt>
      <trkpt lat="45.60303" lon="6.11965">
        <ele>1364.892</ele>
        <time>2024-09-19T10:04:36Z</time>
      </trkpt>
      <trkpt lat="45.60307" lon="6.11969">
        <ele>1363.365</ele>
        <time>2024-09-19T10:04:43Z</time>
      </trkpt>
      <trkpt lat="45.60311" lon="6.11971">
        <ele>1358.541</ele>
        <time>2024-09-19T10:04:51Z</time>
      </trkpt>
      <trkpt lat="45.60316" lon="6.11974">
        <ele>1360.618</ele>
        <time>2024-09-19T10:04:57Z</time>
      </trkpt>
      <trkpt lat="45.60325" lon="6.11972">
        <ele>1363.099</ele>
        <time>2024-09-19T10:05:05Z</time>
      </trkpt>
      <trkpt lat="45.60329" lon="6.11973">
        <ele>1359.722</ele>
        <time>2024-09-19T10:05:09Z</time>
      </trkpt>
      <trkpt lat="45.60332" lon="6.11978">
        <ele>1357.366</ele>
        <time>2024-09-19T10:05:15Z</time>
      </trkpt>
      <trkpt lat="45.60336" lon="6.11981">
        <ele>1357.71</ele>
        <time>2024-09-19T10:05:19Z</time>
      </trkpt>
      <trkpt lat="45.60341" lon="6.11983">
        <ele>1358.222</ele>
        <time>2024-09-19T10:05:23Z</time>
      </trkpt>
      <trkpt lat="45.60346" lon="6.11987">
        <ele>1359.061</ele>
        <time>2024-09-19T10:05:29Z</time>
      </trkpt>
      <trkpt lat="45.60351" lon="6.11987">
        <ele>1356.537</ele>
        <time>2024-09-19T10:05:35Z</time>
      </trkpt>
      <trkpt lat="45.60355" lon="6.11989">
        <ele>1356.808</ele>
        <time>2024-09-19T10:05:43Z</time>
      </trkpt>
      <trkpt lat="45.6036" lon="6.11993">
        <ele>1356.107</ele>
        <time>2024-09-19T10:05:47Z</time>
      </trkpt>
      <trkpt lat="45.60363" lon="6.11998">
        <ele>1353.991</ele>
        <time>2024-09-19T10:05:53Z</time>
      </trkpt>
      <trkpt lat="45.60367" lon="6.11999">
        <ele>1352.407</ele>
        <time>2024-09-19T10:05:56Z</time>
      </trkpt>
      <trkpt lat="45.60372" lon="6.12002">
        <ele>1352.743</ele>
        <time>2024-09-19T10:06:00Z</time>
      </trkpt>
      <trkpt lat="45.60377" lon="6.12003">
        <ele>1351.875</ele>
        <time>2024-09-19T10:06:06Z</time>
      </trkpt>
      <trkpt lat="45.60385" lon="6.12007">
        <ele>1352.365</ele>
        <time>2024-09-19T10:06:14Z</time>
      </trkpt>
      <trkpt lat="45.60391" lon="6.12009">
        <ele>1353.853</ele>
        <time>2024-09-19T10:06:19Z</time>
      </trkpt>
      <trkpt lat="45.60395" lon="6.12011">
        <ele>1356.517</ele>
        <time>2024-09-19T10:06:23Z</time>
      </trkpt>
      <trkpt lat="45.60399" lon="6.12012">
        <ele>1358.974</ele>
        <time>2024-09-19T10:06:26Z</time>
      </trkpt>
      <trkpt lat="45.60404" lon="6.12014">
        <ele>1357.198</ele>
        <time>2024-09-19T10:06:31Z</time>
      </trkpt>
      <trkpt lat="45.60408" lon="6.12015">
        <ele>1353.391</ele>
        <time>2024-09-19T10:06:37Z</time>
      </trkpt>
      <trkpt lat="45.60413" lon="6.12017">
        <ele>1353.042</ele>
        <time>2024-09-19T10:06:42Z</time>
      </trkpt>
      <trkpt lat="45.60418" lon="6.12018">
        <ele>1352.05</ele>
        <time>2024-09-19T10:06:47Z</time>
      </trkpt>
      <trkpt lat="45.60422" lon="6.12021">
        <ele>1350.236</ele>
        <time>2024-09-19T10:06:51Z</time>
      </trkpt>
      <trkpt lat="45.60427" lon="6.12024">
        <ele>1350.816</ele>
        <time>2024-09-19T10:06:56Z</time>
      </trkpt>
      <trkpt lat="45.60435" lon="6.12032">
        <ele>1348.464</ele>
        <time>2024-09-19T10:07:05Z</time>
      </trkpt>
      <trkpt lat="45.60453" lon="6.12036">
        <ele>1349.932</ele>
        <time>2024-09-19T10:07:23Z</time>
      </trkpt>
      <trkpt lat="45.60456" lon="6.12037">
        <ele>1356.395</ele>
        <time>2024-09-19T10:29:07Z</time>
      </trkpt>
      <trkpt lat="45.60458" lon="6.1204">
        <ele>1359.194</ele>
        <time>2024-09-19T10:34:37Z</time>
      </trkpt>
      <trkpt lat="45.60464" lon="6.12042">
        <ele>1358.52</ele>
        <time>2024-09-19T10:34:42Z</time>
      </trkpt>
      <trkpt lat="45.60466" lon="6.12046">
        <ele>1355.658</ele>
        <time>2024-09-19T10:34:47Z</time>
      </trkpt>
      <trkpt lat="45.6047" lon="6.12048">
        <ele>1354.911</ele>
        <time>2024-09-19T10:34:55Z</time>
      </trkpt>
      <trkpt lat="45.60475" lon="6.12051">
        <ele>1355.351</ele>
        <time>2024-09-19T10:34:59Z</time>
      </trkpt>
      <trkpt lat="45.6048" lon="6.12052">
        <ele>1356.003</ele>
        <time>2024-09-19T10:35:03Z</time>
      </trkpt>
      <trkpt lat="45.60485" lon="6.12052">
        <ele>1356.588</ele>
        <time>2024-09-19T10:35:08Z</time>
      </trkpt>
      <trkpt lat="45.6049" lon="6.12053">
        <ele>1354.794</ele>
        <time>2024-09-19T10:35:13Z</time>
      </trkpt>
      <trkpt lat="45.60496" lon="6.12055">
        <ele>1355.626</ele>
        <time>2024-09-19T10:35:18Z</time>
      </trkpt>
      <trkpt lat="45.60501" lon="6.12056">
        <ele>1355.574</ele>
        <time>2024-09-19T10:35:22Z</time>
      </trkpt>
      <trkpt lat="45.60505" lon="6.1206">
        <ele>1356.136</ele>
        <time>2024-09-19T10:35:28Z</time>
      </trkpt>
      <trkpt lat="45.60513" lon="6.12062">
        <ele>1352.385</ele>
        <time>2024-09-19T10:35:42Z</time>
      </trkpt>
      <trkpt lat="45.60517" lon="6.12064">
        <ele>1352.13</ele>
        <time>2024-09-19T10:35:46Z</time>
      </trkpt>
      <trkpt lat="45.60523" lon="6.12066">
        <ele>1353.5</ele>
        <time>2024-09-19T10:35:51Z</time>
      </trkpt>
      <trkpt lat="45.60528" lon="6.12067">
        <ele>1354.937</ele>
        <time>2024-09-19T10:35:56Z</time>
      </trkpt>
      <trkpt lat="45.60532" lon="6.12069">
        <ele>1354.141</ele>
        <time>2024-09-19T10:36:00Z</time>
      </trkpt>
      <trkpt lat="45.60542" lon="6.12071">
        <ele>1353.685</ele>
        <time>2024-09-19T10:36:09Z</time>
      </trkpt>
      <trkpt lat="45.60545" lon="6.12077">
        <ele>1352.256</ele>
        <time>2024-09-19T10:36:15Z</time>
      </trkpt>
      <trkpt lat="45.60548" lon="6.1208">
        <ele>1349.387</ele>
        <time>2024-09-19T10:36:20Z</time>
      </trkpt>
      <trkpt lat="45.60553" lon="6.12079">
        <ele>1347.981</ele>
        <time>2024-09-19T10:36:30Z</time>
      </trkpt>
      <trkpt lat="45.60558" lon="6.1208">
        <ele>1346.416</ele>
        <time>2024-09-19T10:36:34Z</time>
      </trkpt>
      <trkpt lat="45.60562" lon="6.1208">
        <ele>1348.627</ele>
        <time>2024-09-19T10:36:38Z</time>
      </trkpt>
      <trkpt lat="45.60567" lon="6.12077">
        <ele>1349.461</ele>
        <time>2024-09-19T10:36:42Z</time>
      </trkpt>
      <trkpt lat="45.60572" lon="6.12076">
        <ele>1347.47</ele>
        <time>2024-09-19T10:36:46Z</time>
      </trkpt>
      <trkpt lat="45.60575" lon="6.12077">
        <ele>1350.846</ele>
        <time>2024-09-19T10:36:49Z</time>
      </trkpt>
      <trkpt lat="45.6058" lon="6.12078">
        <ele>1350.551</ele>
        <time>2024-09-19T10:36:53Z</time>
      </trkpt>
      <trkpt lat="45.60583" lon="6.12081">
        <ele>1346.9</ele>
        <time>2024-09-19T10:36:58Z</time>
      </trkpt>
      <trkpt lat="45.60587" lon="6.12086">
        <ele>1347.319</ele>
        <time>2024-09-19T10:37:04Z</time>
      </trkpt>
      <trkpt lat="45.60592" lon="6.12088">
        <ele>1348.399</ele>
        <time>2024-09-19T10:37:08Z</time>
      </trkpt>
      <trkpt lat="45.606" lon="6.12094">
        <ele>1345.865</ele>
        <time>2024-09-19T10:37:22Z</time>
      </trkpt>
      <trkpt lat="45.60604" lon="6.121">
        <ele>1345.018</ele>
        <time>2024-09-19T10:37:26Z</time>
      </trkpt>
      <trkpt lat="45.60607" lon="6.12105">
        <ele>1344.879</ele>
        <time>2024-09-19T10:37:31Z</time>
      </trkpt>
      <trkpt lat="45.60612" lon="6.12108">
        <ele>1345.59</ele>
        <time>2024-09-19T10:37:38Z</time>
      </trkpt>
      <trkpt lat="45.60622" lon="6.1211">
        <ele>1343.683</ele>
        <time>2024-09-19T10:37:51Z</time>
      </trkpt>
      <trkpt lat="45.60627" lon="6.12112">
        <ele>1343.817</ele>
        <time>2024-09-19T10:37:58Z</time>
      </trkpt>
      <trkpt lat="45.60631" lon="6.12114">
        <ele>1340.442</ele>
        <time>2024-09-19T10:38:03Z</time>
      </trkpt>
      <trkpt lat="45.60634" lon="6.12119">
        <ele>1343.799</ele>
        <time>2024-09-19T10:38:07Z</time>
      </trkpt>
      <trkpt lat="45.60639" lon="6.12122">
        <ele>1345.256</ele>
        <time>2024-09-19T10:38:13Z</time>
      </trkpt>
      <trkpt lat="45.60643" lon="6.12123">
        <ele>1343.442</ele>
        <time>2024-09-19T10:38:17Z</time>
      </trkpt>
      <trkpt lat="45.60648" lon="6.12125">
        <ele>1345.333</ele>
        <time>2024-09-19T10:38:22Z</time>
      </trkpt>
      <trkpt lat="45.60653" lon="6.12129">
        <ele>1345.917</ele>
        <time>2024-09-19T10:38:28Z</time>
      </trkpt>
      <trkpt lat="45.60657" lon="6.12133">
        <ele>1344.261</ele>
        <time>2024-09-19T10:38:33Z</time>
      </trkpt>
      <trkpt lat="45.60665" lon="6.12138">
        <ele>1339.891</ele>
        <time>2024-09-19T10:38:45Z</time>
      </trkpt>
      <trkpt lat="45.60671" lon="6.1214">
        <ele>1340.992</ele>
        <time>2024-09-19T10:38:50Z</time>
      </trkpt>
      <trkpt lat="45.60675" lon="6.12142">
        <ele>1339.976</ele>
        <time>2024-09-19T10:38:57Z</time>
      </trkpt>
      <trkpt lat="45.6068" lon="6.12143">
        <ele>1339.344</ele>
        <time>2024-09-19T10:39:04Z</time>
      </trkpt>
      <trkpt lat="45.60689" lon="6.12143">
        <ele>1338.558</ele>
        <time>2024-09-19T10:39:12Z</time>
      </trkpt>
      <trkpt lat="45.60693" lon="6.12147">
        <ele>1336.788</ele>
        <time>2024-09-19T10:39:18Z</time>
      </trkpt>
      <trkpt lat="45.60697" lon="6.1215">
        <ele>1338.022</ele>
        <time>2024-09-19T10:39:23Z</time>
      </trkpt>
      <trkpt lat="45.60701" lon="6.12151">
        <ele>1340.065</ele>
        <time>2024-09-19T10:39:27Z</time>
      </trkpt>
      <trkpt lat="45.60705" lon="6.12156">
        <ele>1341.777</ele>
        <time>2024-09-19T10:39:32Z</time>
      </trkpt>
      <trkpt lat="45.6071" lon="6.12158">
        <ele>1341.208</ele>
        <time>2024-09-19T10:39:37Z</time>
      </trkpt>
      <trkpt lat="45.60713" lon="6.12164">
        <ele>1340.06</ele>
        <time>2024-09-19T10:39:43Z</time>
      </trkpt>
      <trkpt lat="45.60712" lon="6.12166">
        <ele>1329.7</ele>
        <time>2024-09-19T10:41:29Z</time>
      </trkpt>
      <trkpt lat="45.6071" lon="6.12172">
        <ele>1327.653</ele>
        <time>2024-09-19T10:41:46Z</time>
      </trkpt>
      <trkpt lat="45.60706" lon="6.12174">
        <ele>1331.425</ele>
        <time>2024-09-19T10:41:52Z</time>
      </trkpt>
      <trkpt lat="45.60703" lon="6.12179">
        <ele>1328.419</ele>
        <time>2024-09-19T10:41:59Z</time>
      </trkpt>
      <trkpt lat="45.60703" lon="6.12185">
        <ele>1330.796</ele>
        <time>2024-09-19T10:42:11Z</time>
      </trkpt>
      <trkpt lat="45.60702" lon="6.12187">
        <ele>1326.818</ele>
        <time>2024-09-19T10:42:31Z</time>
      </trkpt>
      <trkpt lat="45.60698" lon="6.12189">
        <ele>1325.328</ele>
        <time>2024-09-19T10:42:52Z</time>
      </trkpt>
      <trkpt lat="45.60696" lon="6.12192">
        <ele>1324.767</ele>
        <time>2024-09-19T10:43:13Z</time>
      </trkpt>
      <trkpt lat="45.60696" lon="6.12204">
        <ele>1316.129</ele>
        <time>2024-09-19T10:44:32Z</time>
      </trkpt>
      <trkpt lat="45.60698" lon="6.1221">
        <ele>1313.38</ele>
        <time>2024-09-19T10:44:41Z</time>
      </trkpt>
      <trkpt lat="45.60697" lon="6.12215">
        <ele>1311.304</ele>
        <time>2024-09-19T10:44:49Z</time>
      </trkpt>
      <trkpt lat="45.60697" lon="6.12217">
        <ele>1306.404</ele>
        <time>2024-09-19T10:44:53Z</time>
      </trkpt>
      <trkpt lat="45.60695" lon="6.12223">
        <ele>1308.129</ele>
        <time>2024-09-19T10:45:02Z</time>
      </trkpt>
      <trkpt lat="45.60694" lon="6.12225">
        <ele>1306.152</ele>
        <time>2024-09-19T10:45:22Z</time>
      </trkpt>
      <trkpt lat="45.60693" lon="6.1223">
        <ele>1301.52</ele>
        <time>2024-09-19T10:46:03Z</time>
      </trkpt>
      <trkpt lat="45.60692" lon="6.12231">
        <ele>1300.086</ele>
        <time>2024-09-19T10:46:24Z</time>
      </trkpt>
      <trkpt lat="45.60689" lon="6.12236">
        <ele>1300.231</ele>
        <time>2024-09-19T10:46:35Z</time>
      </trkpt>
      <trkpt lat="45.60685" lon="6.12242">
        <ele>1302.257</ele>
        <time>2024-09-19T10:46:42Z</time>
      </trkpt>
      <trkpt lat="45.60684" lon="6.12248">
        <ele>1299.87</ele>
        <time>2024-09-19T10:46:53Z</time>
      </trkpt>
      <trkpt lat="45.60685" lon="6.1225">
        <ele>1294.66</ele>
        <time>2024-09-19T10:47:08Z</time>
      </trkpt>
      <trkpt lat="45.6068" lon="6.12254">
        <ele>1295.08</ele>
        <time>2024-09-19T10:47:19Z</time>
      </trkpt>
      <trkpt lat="45.60677" lon="6.12256">
        <ele>1291.596</ele>
        <time>2024-09-19T10:47:26Z</time>
      </trkpt>
      <trkpt lat="45.60673" lon="6.1226">
        <ele>1292.612</ele>
        <time>2024-09-19T10:47:38Z</time>
      </trkpt>
      <trkpt lat="45.6067" lon="6.12265">
        <ele>1292.523</ele>
        <time>2024-09-19T10:47:45Z</time>
      </trkpt>
      <trkpt lat="45.60666" lon="6.12269">
        <ele>1293.348</ele>
        <time>2024-09-19T10:47:56Z</time>
      </trkpt>
      <trkpt lat="45.60663" lon="6.12273">
        <ele>1292.423</ele>
        <time>2024-09-19T10:48:04Z</time>
      </trkpt>
      <trkpt lat="45.60661" lon="6.1228">
        <ele>1287.02</ele>
        <time>2024-09-19T10:48:44Z</time>
      </trkpt>
      <trkpt lat="45.60661" lon="6.12282">
        <ele>1285.463</ele>
        <time>2024-09-19T10:49:05Z</time>
      </trkpt>
      <trkpt lat="45.6066" lon="6.12284">
        <ele>1283.721</ele>
        <time>2024-09-19T10:49:26Z</time>
      </trkpt>
      <trkpt lat="45.60656" lon="6.12287">
        <ele>1282.467</ele>
        <time>2024-09-19T10:49:35Z</time>
      </trkpt>
      <trkpt lat="45.60653" lon="6.1229">
        <ele>1278.567</ele>
        <time>2024-09-19T10:49:43Z</time>
      </trkpt>
      <trkpt lat="45.60653" lon="6.12304">
        <ele>1274.134</ele>
        <time>2024-09-19T10:50:20Z</time>
      </trkpt>
      <trkpt lat="45.60651" lon="6.12304">
        <ele>1268.486</ele>
        <time>2024-09-19T10:50:33Z</time>
      </trkpt>
      <trkpt lat="45.60649" lon="6.12306">
        <ele>1264.237</ele>
        <time>2024-09-19T10:50:48Z</time>
      </trkpt>
      <trkpt lat="45.60647" lon="6.12311">
        <ele>1266.702</ele>
        <time>2024-09-19T10:51:05Z</time>
      </trkpt>
      <trkpt lat="45.60645" lon="6.12312">
        <ele>1262.079</ele>
        <time>2024-09-19T10:51:09Z</time>
      </trkpt>
      <trkpt lat="45.60643" lon="6.12317">
        <ele>1259.505</ele>
        <time>2024-09-19T10:51:17Z</time>
      </trkpt>
      <trkpt lat="45.60642" lon="6.12318">
        <ele>1254.686</ele>
        <time>2024-09-19T10:51:26Z</time>
      </trkpt>
      <trkpt lat="45.60641" lon="6.12321">
        <ele>1253.21</ele>
        <time>2024-09-19T10:51:47Z</time>
      </trkpt>
      <trkpt lat="45.60641" lon="6.12327">
        <ele>1255.697</ele>
        <time>2024-09-19T10:51:55Z</time>
      </trkpt>
      <trkpt lat="45.60639" lon="6.12333">
        <ele>1256.755</ele>
        <time>2024-09-19T10:52:05Z</time>
      </trkpt>
      <trkpt lat="45.60639" lon="6.12336">
        <ele>1252.301</ele>
        <time>2024-09-19T10:52:19Z</time>
      </trkpt>
      <trkpt lat="45.60638" lon="6.12338">
        <ele>1250.852</ele>
        <time>2024-09-19T10:53:01Z</time>
      </trkpt>
      <trkpt lat="45.60636" lon="6.1235">
        <ele>1248.496</ele>
        <time>2024-09-19T10:53:38Z</time>
      </trkpt>
      <trkpt lat="45.60633" lon="6.12356">
        <ele>1248.601</ele>
        <time>2024-09-19T10:53:42Z</time>
      </trkpt>
      <trkpt lat="45.60632" lon="6.12361">
        <ele>1243.363</ele>
        <time>2024-09-19T10:54:13Z</time>
      </trkpt>
      <trkpt lat="45.60632" lon="6.12372">
        <ele>1235.746</ele>
        <time>2024-09-19T10:54:47Z</time>
      </trkpt>
      <trkpt lat="45.60629" lon="6.1238">
        <ele>1230.362</ele>
        <time>2024-09-19T10:55:28Z</time>
      </trkpt>
      <trkpt lat="45.60629" lon="6.12382">
        <ele>1220.085</ele>
        <time>2024-09-19T10:55:49Z</time>
      </trkpt>
      <trkpt lat="45.60626" lon="6.12387">
        <ele>1218.736</ele>
        <time>2024-09-19T10:55:56Z</time>
      </trkpt>
      <trkpt lat="45.60624" lon="6.12391">
        <ele>1222.616</ele>
        <time>2024-09-19T10:56:03Z</time>
      </trkpt>
      <trkpt lat="45.60619" lon="6.12393">
        <ele>1223.68</ele>
        <time>2024-09-19T10:56:11Z</time>
      </trkpt>
      <trkpt lat="45.60618" lon="6.12394">
        <ele>1219.904</ele>
        <time>2024-09-19T10:56:32Z</time>
      </trkpt>
      <trkpt lat="45.60614" lon="6.12397">
        <ele>1218.861</ele>
        <time>2024-09-19T10:56:37Z</time>
      </trkpt>
      <trkpt lat="45.60611" lon="6.12398">
        <ele>1209.449</ele>
        <time>2024-09-19T10:57:32Z</time>
      </trkpt>
      <trkpt lat="45.60617" lon="6.12413">
        <ele>1199.142</ele>
        <time>2024-09-19T10:57:59Z</time>
      </trkpt>
      <trkpt lat="45.60622" lon="6.12412">
        <ele>1201.115</ele>
        <time>2024-09-19T10:58:16Z</time>
      </trkpt>
      <trkpt lat="45.60622" lon="6.12416">
        <ele>1205.399</ele>
        <time>2024-09-19T10:58:21Z</time>
      </trkpt>
      <trkpt lat="45.60627" lon="6.12419">
        <ele>1205.354</ele>
        <time>2024-09-19T10:58:31Z</time>
      </trkpt>
      <trkpt lat="45.6063" lon="6.1242">
        <ele>1201.196</ele>
        <time>2024-09-19T10:58:40Z</time>
      </trkpt>
      <trkpt lat="45.60632" lon="6.12423">
        <ele>1198.09</ele>
        <time>2024-09-19T10:59:01Z</time>
      </trkpt>
      <trkpt lat="45.6063" lon="6.12429">
        <ele>1198.118</ele>
        <time>2024-09-19T10:59:13Z</time>
      </trkpt>
      <trkpt lat="45.60627" lon="6.12433">
        <ele>1200.181</ele>
        <time>2024-09-19T10:59:24Z</time>
      </trkpt>
      <trkpt lat="45.60627" lon="6.12437">
        <ele>1196.016</ele>
        <time>2024-09-19T10:59:38Z</time>
      </trkpt>
      <trkpt lat="45.60624" lon="6.12442">
        <ele>1196.792</ele>
        <time>2024-09-19T10:59:48Z</time>
      </trkpt>
      <trkpt lat="45.60622" lon="6.12448">
        <ele>1197.516</ele>
        <time>2024-09-19T10:59:59Z</time>
      </trkpt>
      <trkpt lat="45.60621" lon="6.12454">
        <ele>1198.141</ele>
        <time>2024-09-19T11:00:13Z</time>
      </trkpt>
      <trkpt lat="45.60619" lon="6.12459">
        <ele>1201.253</ele>
        <time>2024-09-19T11:00:17Z</time>
      </trkpt>
      <trkpt lat="45.60618" lon="6.12466">
        <ele>1201.818</ele>
        <time>2024-09-19T11:00:22Z</time>
      </trkpt>
      <trkpt lat="45.60614" lon="6.12478">
        <ele>1177.894</ele>
        <time>2024-09-19T11:01:56Z</time>
      </trkpt>
      <trkpt lat="45.60625" lon="6.12482">
        <ele>1176.828</ele>
        <time>2024-09-19T11:02:16Z</time>
      </trkpt>
      <trkpt lat="45.60628" lon="6.12482">
        <ele>1174.927</ele>
        <time>2024-09-19T11:02:37Z</time>
      </trkpt>
      <trkpt lat="45.60629" lon="6.12484">
        <ele>1170.387</ele>
        <time>2024-09-19T11:02:44Z</time>
      </trkpt>
      <trkpt lat="45.60631" lon="6.12487">
        <ele>1165.998</ele>
        <time>2024-09-19T11:02:51Z</time>
      </trkpt>
      <trkpt lat="45.60632" lon="6.12489">
        <ele>1162.639</ele>
        <time>2024-09-19T11:03:11Z</time>
      </trkpt>
      <trkpt lat="45.6063" lon="6.12493">
        <ele>1165.13</ele>
        <time>2024-09-19T11:03:24Z</time>
      </trkpt>
      <trkpt lat="45.6063" lon="6.12497">
        <ele>1165.413</ele>
        <time>2024-09-19T11:03:45Z</time>
      </trkpt>
      <trkpt lat="45.60628" lon="6.12506">
        <ele>1166.342</ele>
        <time>2024-09-19T11:04:13Z</time>
      </trkpt>
      <trkpt lat="45.60629" lon="6.1251">
        <ele>1165.854</ele>
        <time>2024-09-19T11:04:33Z</time>
      </trkpt>
      <trkpt lat="45.60629" lon="6.12515">
        <ele>1161.146</ele>
        <time>2024-09-19T11:05:12Z</time>
      </trkpt>
      <trkpt lat="45.60626" lon="6.12521">
        <ele>1157.351</ele>
        <time>2024-09-19T11:05:52Z</time>
      </trkpt>
      <trkpt lat="45.60622" lon="6.12527">
        <ele>1164.961</ele>
        <time>2024-09-19T11:06:12Z</time>
      </trkpt>
      <trkpt lat="45.60621" lon="6.12529">
        <ele>1168.908</ele>
        <time>2024-09-19T11:06:33Z</time>
      </trkpt>
      <trkpt lat="45.6062" lon="6.1253">
        <ele>1169.076</ele>
        <time>2024-09-19T11:06:53Z</time>
      </trkpt>
      <trkpt lat="45.60619" lon="6.12534">
        <ele>1167.119</ele>
        <time>2024-09-19T11:07:14Z</time>
      </trkpt>
      <trkpt lat="45.60616" lon="6.12536">
        <ele>1147.341</ele>
        <time>2024-09-19T11:08:55Z</time>
      </trkpt>
      <trkpt lat="45.60615" lon="6.12541">
        <ele>1148.46</ele>
        <time>2024-09-19T11:11:18Z</time>
      </trkpt>
      <trkpt lat="45.60612" lon="6.12545">
        <ele>1151.004</ele>
        <time>2024-09-19T11:11:23Z</time>
      </trkpt>
      <trkpt lat="45.6061" lon="6.1255">
        <ele>1148.199</ele>
        <time>2024-09-19T11:11:32Z</time>
      </trkpt>
      <trkpt lat="45.60609" lon="6.12555">
        <ele>1151.68</ele>
        <time>2024-09-19T11:11:44Z</time>
      </trkpt>
      <trkpt lat="45.60609" lon="6.12558">
        <ele>1145.273</ele>
        <time>2024-09-19T11:11:54Z</time>
      </trkpt>
      <trkpt lat="45.60606" lon="6.1256">
        <ele>1146.32</ele>
        <time>2024-09-19T11:12:14Z</time>
      </trkpt>
      <trkpt lat="45.60604" lon="6.12566">
        <ele>1148.173</ele>
        <time>2024-09-19T11:12:20Z</time>
      </trkpt>
      <trkpt lat="45.60599" lon="6.12566">
        <ele>1141.345</ele>
        <time>2024-09-19T11:12:59Z</time>
      </trkpt>
      <trkpt lat="45.60597" lon="6.12567">
        <ele>1136.64</ele>
        <time>2024-09-19T11:13:35Z</time>
      </trkpt>
      <trkpt lat="45.60598" lon="6.12571">
        <ele>1140.142</ele>
        <time>2024-09-19T11:13:42Z</time>
      </trkpt>
      <trkpt lat="45.60596" lon="6.12575">
        <ele>1135.851</ele>
        <time>2024-09-19T11:13:57Z</time>
      </trkpt>
      <trkpt lat="45.60593" lon="6.12583">
        <ele>1128.939</ele>
        <time>2024-09-19T11:14:12Z</time>
      </trkpt>
      <trkpt lat="45.60591" lon="6.12581">
        <ele>1121.505</ele>
        <time>2024-09-19T11:14:21Z</time>
      </trkpt>
      <trkpt lat="45.60583" lon="6.12591">
        <ele>1119.86</ele>
        <time>2024-09-19T11:14:46Z</time>
      </trkpt>
      <trkpt lat="45.60581" lon="6.12596">
        <ele>1120.387</ele>
        <time>2024-09-19T11:14:55Z</time>
      </trkpt>
      <trkpt lat="45.60573" lon="6.12592">
        <ele>1112.827</ele>
        <time>2024-09-19T11:15:16Z</time>
      </trkpt>
      <trkpt lat="45.6057" lon="6.1259">
        <ele>1109.491</ele>
        <time>2024-09-19T11:15:25Z</time>
      </trkpt>
      <trkpt lat="45.60569" lon="6.1259">
        <ele>1109.923</ele>
        <time>2024-09-19T11:15:46Z</time>
      </trkpt>
      <trkpt lat="45.60565" lon="6.12594">
        <ele>1109.126</ele>
        <time>2024-09-19T11:15:56Z</time>
      </trkpt>
      <trkpt lat="45.60561" lon="6.12599">
        <ele>1109.824</ele>
        <time>2024-09-19T11:16:01Z</time>
      </trkpt>
      <trkpt lat="45.60559" lon="6.12604">
        <ele>1109.531</ele>
        <time>2024-09-19T11:16:05Z</time>
      </trkpt>
      <trkpt lat="45.60558" lon="6.12609">
        <ele>1105.822</ele>
        <time>2024-09-19T11:16:11Z</time>
      </trkpt>
      <trkpt lat="45.60556" lon="6.12613">
        <ele>1109.981</ele>
        <time>2024-09-19T11:16:18Z</time>
      </trkpt>
      <trkpt lat="45.60554" lon="6.12618">
        <ele>1111.998</ele>
        <time>2024-09-19T11:16:23Z</time>
      </trkpt>
      <trkpt lat="45.60551" lon="6.12618">
        <ele>1107.221</ele>
        <time>2024-09-19T11:16:26Z</time>
      </trkpt>
      <trkpt lat="45.6055" lon="6.12615">
        <ele>1102.124</ele>
        <time>2024-09-19T11:16:29Z</time>
      </trkpt>
      <trkpt lat="45.60545" lon="6.12614">
        <ele>1104.424</ele>
        <time>2024-09-19T11:16:37Z</time>
      </trkpt>
      <trkpt lat="45.60542" lon="6.12619">
        <ele>1105.859</ele>
        <time>2024-09-19T11:16:42Z</time>
      </trkpt>
      <trkpt lat="45.60543" lon="6.12623">
        <ele>1102.183</ele>
        <time>2024-09-19T11:16:49Z</time>
      </trkpt>
      <trkpt lat="45.60543" lon="6.12627">
        <ele>1098.129</ele>
        <time>2024-09-19T11:16:57Z</time>
      </trkpt>
      <trkpt lat="45.60542" lon="6.12631">
        <ele>1093.889</ele>
        <time>2024-09-19T11:17:05Z</time>
      </trkpt>
      <trkpt lat="45.60538" lon="6.12637">
        <ele>1093.748</ele>
        <time>2024-09-19T11:17:17Z</time>
      </trkpt>
      <trkpt lat="45.60536" lon="6.12638">
        <ele>1089.56</ele>
        <time>2024-09-19T11:17:24Z</time>
      </trkpt>
      <trkpt lat="45.60534" lon="6.12644">
        <ele>1082.614</ele>
        <time>2024-09-19T11:17:55Z</time>
      </trkpt>
      <trkpt lat="45.60534" lon="6.12645">
        <ele>1074.846</ele>
        <time>2024-09-19T11:18:02Z</time>
      </trkpt>
      <trkpt lat="45.6053" lon="6.12649">
        <ele>1071.556</ele>
        <time>2024-09-19T11:18:13Z</time>
      </trkpt>
      <trkpt lat="45.60529" lon="6.12654">
        <ele>1068.979</ele>
        <time>2024-09-19T11:18:21Z</time>
      </trkpt>
      <trkpt lat="45.60525" lon="6.12662">
        <ele>1065.418</ele>
        <time>2024-09-19T11:18:42Z</time>
      </trkpt>
      <trkpt lat="45.60521" lon="6.12665">
        <ele>1066.256</ele>
        <time>2024-09-19T11:19:01Z</time>
      </trkpt>
      <trkpt lat="45.60518" lon="6.12665">
        <ele>1069.255</ele>
        <time>2024-09-19T11:19:12Z</time>
      </trkpt>
      <trkpt lat="45.60513" lon="6.12666">
        <ele>1065.674</ele>
        <time>2024-09-19T11:19:20Z</time>
      </trkpt>
      <trkpt lat="45.60509" lon="6.12669">
        <ele>1063.932</ele>
        <time>2024-09-19T11:20:33Z</time>
      </trkpt>
      <trkpt lat="45.60507" lon="6.12678">
        <ele>1058.708</ele>
        <time>2024-09-19T11:21:35Z</time>
      </trkpt>
      <trkpt lat="45.60505" lon="6.12678">
        <ele>1061.672</ele>
        <time>2024-09-19T11:21:56Z</time>
      </trkpt>
      <trkpt lat="45.60503" lon="6.12682">
        <ele>1053.657</ele>
        <time>2024-09-19T11:22:20Z</time>
      </trkpt>
      <trkpt lat="45.60504" lon="6.12685">
        <ele>1048.962</ele>
        <time>2024-09-19T11:22:26Z</time>
      </trkpt>
      <trkpt lat="45.60504" lon="6.1269">
        <ele>1045.912</ele>
        <time>2024-09-19T11:22:38Z</time>
      </trkpt>
      <trkpt lat="45.605" lon="6.12694">
        <ele>1045.252</ele>
        <time>2024-09-19T11:22:51Z</time>
      </trkpt>
      <trkpt lat="45.60497" lon="6.12698">
        <ele>1045.57</ele>
        <time>2024-09-19T11:23:07Z</time>
      </trkpt>
      <trkpt lat="45.60493" lon="6.12701">
        <ele>1045.449</ele>
        <time>2024-09-19T11:23:26Z</time>
      </trkpt>
      <trkpt lat="45.6049" lon="6.12705">
        <ele>1048.482</ele>
        <time>2024-09-19T11:23:34Z</time>
      </trkpt>
      <trkpt lat="45.6049" lon="6.12706">
        <ele>1042.703</ele>
        <time>2024-09-19T11:24:50Z</time>
      </trkpt>
      <trkpt lat="45.60492" lon="6.12706">
        <ele>1037.608</ele>
        <time>2024-09-19T11:24:52Z</time>
      </trkpt>
      <trkpt lat="45.60496" lon="6.12707">
        <ele>1034.107</ele>
        <time>2024-09-19T11:24:59Z</time>
      </trkpt>
      <trkpt lat="45.60497" lon="6.12711">
        <ele>1030.032</ele>
        <time>2024-09-19T11:25:13Z</time>
      </trkpt>
      <trkpt lat="45.60496" lon="6.12718">
        <ele>1031.458</ele>
        <time>2024-09-19T11:25:19Z</time>
      </trkpt>
      <trkpt lat="45.60498" lon="6.12731">
        <ele>1030.472</ele>
        <time>2024-09-19T11:25:33Z</time>
      </trkpt>
      <trkpt lat="45.60502" lon="6.12734">
        <ele>1029.305</ele>
        <time>2024-09-19T11:25:40Z</time>
      </trkpt>
      <trkpt lat="45.60506" lon="6.12742">
        <ele>1022.536</ele>
        <time>2024-09-19T11:25:56Z</time>
      </trkpt>
      <trkpt lat="45.60507" lon="6.12749">
        <ele>1019.815</ele>
        <time>2024-09-19T11:26:05Z</time>
      </trkpt>
      <trkpt lat="45.60509" lon="6.12754">
        <ele>1016.818</ele>
        <time>2024-09-19T11:26:14Z</time>
      </trkpt>
      <trkpt lat="45.60512" lon="6.12758">
        <ele>1017.017</ele>
        <time>2024-09-19T11:26:21Z</time>
      </trkpt>
      <trkpt lat="45.60514" lon="6.12765">
        <ele>1019.016</ele>
        <time>2024-09-19T11:26:27Z</time>
      </trkpt>
      <trkpt lat="45.60512" lon="6.1277">
        <ele>1020.797</ele>
        <time>2024-09-19T11:26:31Z</time>
      </trkpt>
      <trkpt lat="45.6051" lon="6.12776">
        <ele>1019.5</ele>
        <time>2024-09-19T11:26:38Z</time>
      </trkpt>
      <trkpt lat="45.60512" lon="6.12788">
        <ele>1013.796</ele>
        <time>2024-09-19T11:26:59Z</time>
      </trkpt>
      <trkpt lat="45.60512" lon="6.12795">
        <ele>1015.727</ele>
        <time>2024-09-19T11:27:10Z</time>
      </trkpt>
      <trkpt lat="45.60515" lon="6.12799">
        <ele>1014.782</ele>
        <time>2024-09-19T11:27:17Z</time>
      </trkpt>
      <trkpt lat="45.60517" lon="6.12805">
        <ele>1013.372</ele>
        <time>2024-09-19T11:27:25Z</time>
      </trkpt>
      <trkpt lat="45.60514" lon="6.12815">
        <ele>1019.464</ele>
        <time>2024-09-19T11:27:35Z</time>
      </trkpt>
      <trkpt lat="45.60511" lon="6.12817">
        <ele>1023.241</ele>
        <time>2024-09-19T11:27:46Z</time>
      </trkpt>
      <trkpt lat="45.60508" lon="6.12818">
        <ele>1023.785</ele>
        <time>2024-09-19T11:28:06Z</time>
      </trkpt>
      <trkpt lat="45.60506" lon="6.12819">
        <ele>1018.46</ele>
        <time>2024-09-19T11:28:16Z</time>
      </trkpt>
      <trkpt lat="45.60503" lon="6.12818">
        <ele>1021.877</ele>
        <time>2024-09-19T11:28:23Z</time>
      </trkpt>
      <trkpt lat="45.60504" lon="6.12819">
        <ele>1016.85</ele>
        <time>2024-09-19T11:28:34Z</time>
      </trkpt>
      <trkpt lat="45.60505" lon="6.12825">
        <ele>1015.445</ele>
        <time>2024-09-19T11:28:45Z</time>
      </trkpt>
      <trkpt lat="45.60504" lon="6.12829">
        <ele>1011.481</ele>
        <time>2024-09-19T11:28:53Z</time>
      </trkpt>
      <trkpt lat="45.60505" lon="6.12833">
        <ele>1007.105</ele>
        <time>2024-09-19T11:29:05Z</time>
      </trkpt>
      <trkpt lat="45.60504" lon="6.12838">
        <ele>1004.52</ele>
        <time>2024-09-19T11:29:14Z</time>
      </trkpt>
      <trkpt lat="45.605" lon="6.12842">
        <ele>1002.581</ele>
        <time>2024-09-19T11:29:18Z</time>
      </trkpt>
      <trkpt lat="45.60503" lon="6.12841">
        <ele>999.949</ele>
        <time>2024-09-19T11:29:39Z</time>
      </trkpt>
      <trkpt lat="45.60508" lon="6.12845">
        <ele>999.133</ele>
        <time>2024-09-19T11:29:44Z</time>
      </trkpt>
      <trkpt lat="45.60507" lon="6.12851">
        <ele>997.193</ele>
        <time>2024-09-19T11:29:51Z</time>
      </trkpt>
      <trkpt lat="45.60504" lon="6.12855">
        <ele>994.054</ele>
        <time>2024-09-19T11:29:56Z</time>
      </trkpt>
      <trkpt lat="45.60507" lon="6.1286">
        <ele>995.496</ele>
        <time>2024-09-19T11:30:04Z</time>
      </trkpt>
      <trkpt lat="45.60509" lon="6.12872">
        <ele>991.135</ele>
        <time>2024-09-19T11:30:15Z</time>
      </trkpt>
      <trkpt lat="45.60508" lon="6.12879">
        <ele>990.678</ele>
        <time>2024-09-19T11:30:19Z</time>
      </trkpt>
      <trkpt lat="45.60505" lon="6.12884">
        <ele>990.168</ele>
        <time>2024-09-19T11:30:21Z</time>
      </trkpt>
      <trkpt lat="45.60504" lon="6.12889">
        <ele>988.833</ele>
        <time>2024-09-19T11:30:27Z</time>
      </trkpt>
      <trkpt lat="45.60506" lon="6.12895">
        <ele>990.061</ele>
        <time>2024-09-19T11:30:34Z</time>
      </trkpt>
      <trkpt lat="45.6051" lon="6.129">
        <ele>991.19</ele>
        <time>2024-09-19T11:30:40Z</time>
      </trkpt>
      <trkpt lat="45.60514" lon="6.12904">
        <ele>991.885</ele>
        <time>2024-09-19T11:30:44Z</time>
      </trkpt>
      <trkpt lat="45.60518" lon="6.12907">
        <ele>993.525</ele>
        <time>2024-09-19T11:30:48Z</time>
      </trkpt>
      <trkpt lat="45.6052" lon="6.12913">
        <ele>995.258</ele>
        <time>2024-09-19T11:30:53Z</time>
      </trkpt>
      <trkpt lat="45.60522" lon="6.12928">
        <ele>995.22</ele>
        <time>2024-09-19T11:31:05Z</time>
      </trkpt>
      <trkpt lat="45.60523" lon="6.12933">
        <ele>997.57</ele>
        <time>2024-09-19T11:31:11Z</time>
      </trkpt>
      <trkpt lat="45.60532" lon="6.12951">
        <ele>999.383</ele>
        <time>2024-09-19T11:31:24Z</time>
      </trkpt>
      <trkpt lat="45.60535" lon="6.12956">
        <ele>997.29</ele>
        <time>2024-09-19T11:31:29Z</time>
      </trkpt>
      <trkpt lat="45.60537" lon="6.12969">
        <ele>996.042</ele>
        <time>2024-09-19T11:31:42Z</time>
      </trkpt>
      <trkpt lat="45.60541" lon="6.12973">
        <ele>996.093</ele>
        <time>2024-09-19T11:31:45Z</time>
      </trkpt>
      <trkpt lat="45.60543" lon="6.1298">
        <ele>997.338</ele>
        <time>2024-09-19T11:31:49Z</time>
      </trkpt>
      <trkpt lat="45.60546" lon="6.13">
        <ele>994.122</ele>
        <time>2024-09-19T11:32:04Z</time>
      </trkpt>
      <trkpt lat="45.60549" lon="6.13004">
        <ele>999.218</ele>
        <time>2024-09-19T11:32:16Z</time>
      </trkpt>
      <trkpt lat="45.60551" lon="6.13009">
        <ele>997.773</ele>
        <time>2024-09-19T11:32:33Z</time>
      </trkpt>
      <trkpt lat="45.6055" lon="6.13017">
        <ele>998.219</ele>
        <time>2024-09-19T11:32:38Z</time>
      </trkpt>
      <trkpt lat="45.60551" lon="6.13023">
        <ele>998.453</ele>
        <time>2024-09-19T11:32:42Z</time>
      </trkpt>
      <trkpt lat="45.60554" lon="6.13029">
        <ele>996.532</ele>
        <time>2024-09-19T11:32:49Z</time>
      </trkpt>
      <trkpt lat="45.60557" lon="6.13049">
        <ele>997.23</ele>
        <time>2024-09-19T11:33:05Z</time>
      </trkpt>
      <trkpt lat="45.60557" lon="6.13062">
        <ele>993.685</ele>
        <time>2024-09-19T11:33:16Z</time>
      </trkpt>
      <trkpt lat="45.60561" lon="6.13067">
        <ele>994.158</ele>
        <time>2024-09-19T11:33:21Z</time>
      </trkpt>
      <trkpt lat="45.60564" lon="6.13073">
        <ele>993.697</ele>
        <time>2024-09-19T11:33:27Z</time>
      </trkpt>
      <trkpt lat="45.60564" lon="6.1308">
        <ele>995.648</ele>
        <time>2024-09-19T11:33:32Z</time>
      </trkpt>
      <trkpt lat="45.60565" lon="6.13087">
        <ele>997.241</ele>
        <time>2024-09-19T11:33:36Z</time>
      </trkpt>
      <trkpt lat="45.60565" lon="6.13094">
        <ele>995.578</ele>
        <time>2024-09-19T11:33:42Z</time>
      </trkpt>
      <trkpt lat="45.60563" lon="6.13101">
        <ele>994.177</ele>
        <time>2024-09-19T11:33:47Z</time>
      </trkpt>
      <trkpt lat="45.60562" lon="6.13106">
        <ele>996.104</ele>
        <time>2024-09-19T11:33:52Z</time>
      </trkpt>
      <trkpt lat="45.60561" lon="6.13113">
        <ele>995.628</ele>
        <time>2024-09-19T11:33:57Z</time>
      </trkpt>
      <trkpt lat="45.60558" lon="6.13119">
        <ele>993.877</ele>
        <time>2024-09-19T11:34:03Z</time>
      </trkpt>
      <trkpt lat="45.60554" lon="6.13124">
        <ele>995.34</ele>
        <time>2024-09-19T11:34:09Z</time>
      </trkpt>
      <trkpt lat="45.6055" lon="6.13151">
        <ele>997.464</ele>
        <time>2024-09-19T11:34:32Z</time>
      </trkpt>
      <trkpt lat="45.60543" lon="6.13163">
        <ele>995.498</ele>
        <time>2024-09-19T11:34:41Z</time>
      </trkpt>
      <trkpt lat="45.60542" lon="6.13169">
        <ele>996.188</ele>
        <time>2024-09-19T11:34:46Z</time>
      </trkpt>
      <trkpt lat="45.60539" lon="6.13175">
        <ele>994.949</ele>
        <time>2024-09-19T11:34:50Z</time>
      </trkpt>
      <trkpt lat="45.60538" lon="6.1318">
        <ele>992.48</ele>
        <time>2024-09-19T11:34:56Z</time>
      </trkpt>
      <trkpt lat="45.60536" lon="6.13186">
        <ele>994.122</ele>
        <time>2024-09-19T11:35:06Z</time>
      </trkpt>
      <trkpt lat="45.60535" lon="6.13192">
        <ele>992.918</ele>
        <time>2024-09-19T11:35:26Z</time>
      </trkpt>
      <trkpt lat="45.60536" lon="6.13199">
        <ele>991.452</ele>
        <time>2024-09-19T11:35:33Z</time>
      </trkpt>
      <trkpt lat="45.60538" lon="6.13203">
        <ele>988.249</ele>
        <time>2024-09-19T11:35:39Z</time>
      </trkpt>
      <trkpt lat="45.60538" lon="6.13222">
        <ele>980.118</ele>
        <time>2024-09-19T11:35:56Z</time>
      </trkpt>
      <trkpt lat="45.60536" lon="6.13228">
        <ele>976.577</ele>
        <time>2024-09-19T11:36:03Z</time>
      </trkpt>
      <trkpt lat="45.60533" lon="6.13234">
        <ele>976.289</ele>
        <time>2024-09-19T11:36:09Z</time>
      </trkpt>
      <trkpt lat="45.60528" lon="6.13239">
        <ele>976.395</ele>
        <time>2024-09-19T11:36:15Z</time>
      </trkpt>
      <trkpt lat="45.60525" lon="6.13244">
        <ele>979.721</ele>
        <time>2024-09-19T11:36:20Z</time>
      </trkpt>
      <trkpt lat="45.60522" lon="6.13248">
        <ele>982.031</ele>
        <time>2024-09-19T11:36:27Z</time>
      </trkpt>
      <trkpt lat="45.60519" lon="6.13255">
        <ele>979.662</ele>
        <time>2024-09-19T11:36:33Z</time>
      </trkpt>
      <trkpt lat="45.60516" lon="6.13259">
        <ele>979.887</ele>
        <time>2024-09-19T11:36:39Z</time>
      </trkpt>
      <trkpt lat="45.60511" lon="6.13271">
        <ele>978.133</ele>
        <time>2024-09-19T11:36:49Z</time>
      </trkpt>
      <trkpt lat="45.6051" lon="6.13279">
        <ele>978.787</ele>
        <time>2024-09-19T11:36:55Z</time>
      </trkpt>
      <trkpt lat="45.60507" lon="6.13285">
        <ele>975.141</ele>
        <time>2024-09-19T11:37:00Z</time>
      </trkpt>
      <trkpt lat="45.60505" lon="6.1329">
        <ele>973.551</ele>
        <time>2024-09-19T11:37:06Z</time>
      </trkpt>
      <trkpt lat="45.60502" lon="6.13296">
        <ele>969.882</ele>
        <time>2024-09-19T11:37:12Z</time>
      </trkpt>
      <trkpt lat="45.60501" lon="6.13302">
        <ele>967.253</ele>
        <time>2024-09-19T11:37:16Z</time>
      </trkpt>
      <trkpt lat="45.60498" lon="6.13306">
        <ele>964.723</ele>
        <time>2024-09-19T11:37:23Z</time>
      </trkpt>
      <trkpt lat="45.60498" lon="6.1332">
        <ele>962.405</ele>
        <time>2024-09-19T11:37:34Z</time>
      </trkpt>
      <trkpt lat="45.60497" lon="6.13328">
        <ele>963.826</ele>
        <time>2024-09-19T11:37:39Z</time>
      </trkpt>
      <trkpt lat="45.60495" lon="6.13334">
        <ele>962.566</ele>
        <time>2024-09-19T11:37:43Z</time>
      </trkpt>
      <trkpt lat="45.60492" lon="6.13339">
        <ele>963.177</ele>
        <time>2024-09-19T11:37:49Z</time>
      </trkpt>
      <trkpt lat="45.60488" lon="6.13343">
        <ele>962.416</ele>
        <time>2024-09-19T11:37:53Z</time>
      </trkpt>
      <trkpt lat="45.60484" lon="6.13348">
        <ele>963.94</ele>
        <time>2024-09-19T11:37:57Z</time>
      </trkpt>
      <trkpt lat="45.60477" lon="6.13355">
        <ele>957.288</ele>
        <time>2024-09-19T11:38:07Z</time>
      </trkpt>
      <trkpt lat="45.60473" lon="6.13358">
        <ele>955.877</ele>
        <time>2024-09-19T11:38:14Z</time>
      </trkpt>
      <trkpt lat="45.60471" lon="6.13363">
        <ele>953.496</ele>
        <time>2024-09-19T11:38:19Z</time>
      </trkpt>
      <trkpt lat="45.60468" lon="6.13368">
        <ele>951.525</ele>
        <time>2024-09-19T11:38:24Z</time>
      </trkpt>
      <trkpt lat="45.60463" lon="6.1337">
        <ele>951.117</ele>
        <time>2024-09-19T11:38:28Z</time>
      </trkpt>
      <trkpt lat="45.60458" lon="6.13373">
        <ele>951.518</ele>
        <time>2024-09-19T11:38:33Z</time>
      </trkpt>
      <trkpt lat="45.60448" lon="6.13373">
        <ele>950.428</ele>
        <time>2024-09-19T11:38:48Z</time>
      </trkpt>
      <trkpt lat="45.60443" lon="6.13375">
        <ele>948.981</ele>
        <time>2024-09-19T11:38:53Z</time>
      </trkpt>
      <trkpt lat="45.6044" lon="6.13379">
        <ele>950.916</ele>
        <time>2024-09-19T11:38:57Z</time>
      </trkpt>
      <trkpt lat="45.60435" lon="6.13381">
        <ele>950.719</ele>
        <time>2024-09-19T11:39:03Z</time>
      </trkpt>
      <trkpt lat="45.60431" lon="6.13384">
        <ele>949.246</ele>
        <time>2024-09-19T11:39:08Z</time>
      </trkpt>
      <trkpt lat="45.6042" lon="6.13384">
        <ele>948.738</ele>
        <time>2024-09-19T11:39:19Z</time>
      </trkpt>
      <trkpt lat="45.60416" lon="6.13383">
        <ele>948.183</ele>
        <time>2024-09-19T11:39:24Z</time>
      </trkpt>
      <trkpt lat="45.60412" lon="6.13384">
        <ele>944.971</ele>
        <time>2024-09-19T11:39:28Z</time>
      </trkpt>
      <trkpt lat="45.60402" lon="6.13384">
        <ele>947.27</ele>
        <time>2024-09-19T11:39:38Z</time>
      </trkpt>
      <trkpt lat="45.60398" lon="6.13385">
        <ele>945.804</ele>
        <time>2024-09-19T11:39:42Z</time>
      </trkpt>
      <trkpt lat="45.60393" lon="6.13385">
        <ele>945.028</ele>
        <time>2024-09-19T11:39:46Z</time>
      </trkpt>
      <trkpt lat="45.60388" lon="6.13383">
        <ele>945.518</ele>
        <time>2024-09-19T11:39:51Z</time>
      </trkpt>
      <trkpt lat="45.60383" lon="6.13383">
        <ele>943.61</ele>
        <time>2024-09-19T11:39:57Z</time>
      </trkpt>
      <trkpt lat="45.60379" lon="6.13387">
        <ele>944.031</ele>
        <time>2024-09-19T11:40:01Z</time>
      </trkpt>
      <trkpt lat="45.60374" lon="6.13386">
        <ele>944.706</ele>
        <time>2024-09-19T11:40:05Z</time>
      </trkpt>
      <trkpt lat="45.6037" lon="6.13383">
        <ele>945.67</ele>
        <time>2024-09-19T11:40:10Z</time>
      </trkpt>
      <trkpt lat="45.60366" lon="6.13385">
        <ele>944.107</ele>
        <time>2024-09-19T11:40:15Z</time>
      </trkpt>
      <trkpt lat="45.60362" lon="6.13386">
        <ele>941.636</ele>
        <time>2024-09-19T11:40:19Z</time>
      </trkpt>
      <trkpt lat="45.60358" lon="6.1339">
        <ele>940.071</ele>
        <time>2024-09-19T11:40:23Z</time>
      </trkpt>
      <trkpt lat="45.60356" lon="6.13391">
        <ele>935.513</ele>
        <time>2024-09-19T11:40:27Z</time>
      </trkpt>
      <trkpt lat="45.60351" lon="6.13395">
        <ele>936.209</ele>
        <time>2024-09-19T11:40:32Z</time>
      </trkpt>
      <trkpt lat="45.60346" lon="6.13398">
        <ele>937.065</ele>
        <time>2024-09-19T11:40:36Z</time>
      </trkpt>
      <trkpt lat="45.60336" lon="6.13398">
        <ele>934.471</ele>
        <time>2024-09-19T11:40:45Z</time>
      </trkpt>
      <trkpt lat="45.60332" lon="6.13399">
        <ele>933.003</ele>
        <time>2024-09-19T11:40:50Z</time>
      </trkpt>
      <trkpt lat="45.60327" lon="6.13398">
        <ele>932.748</ele>
        <time>2024-09-19T11:40:54Z</time>
      </trkpt>
      <trkpt lat="45.60321" lon="6.13398">
        <ele>931.785</ele>
        <time>2024-09-19T11:40:59Z</time>
      </trkpt>
      <trkpt lat="45.60312" lon="6.13396">
        <ele>929.232</ele>
        <time>2024-09-19T11:41:08Z</time>
      </trkpt>
      <trkpt lat="45.60307" lon="6.13394">
        <ele>928.523</ele>
        <time>2024-09-19T11:41:13Z</time>
      </trkpt>
      <trkpt lat="45.60302" lon="6.13391">
        <ele>927.79</ele>
        <time>2024-09-19T11:41:18Z</time>
      </trkpt>
      <trkpt lat="45.60298" lon="6.13388">
        <ele>927.578</ele>
        <time>2024-09-19T11:41:23Z</time>
      </trkpt>
      <trkpt lat="45.60292" lon="6.13388">
        <ele>927.643</ele>
        <time>2024-09-19T11:41:28Z</time>
      </trkpt>
      <trkpt lat="45.60288" lon="6.13386">
        <ele>927.147</ele>
        <time>2024-09-19T11:41:33Z</time>
      </trkpt>
      <trkpt lat="45.60283" lon="6.13385">
        <ele>926.261</ele>
        <time>2024-09-19T11:41:38Z</time>
      </trkpt>
      <trkpt lat="45.60274" lon="6.13387">
        <ele>923.407</ele>
        <time>2024-09-19T11:41:46Z</time>
      </trkpt>
      <trkpt lat="45.60268" lon="6.13388">
        <ele>923.387</ele>
        <time>2024-09-19T11:41:51Z</time>
      </trkpt>
      <trkpt lat="45.60263" lon="6.13387">
        <ele>924.396</ele>
        <time>2024-09-19T11:41:56Z</time>
      </trkpt>
      <trkpt lat="45.60258" lon="6.13388">
        <ele>924.445</ele>
        <time>2024-09-19T11:42:00Z</time>
      </trkpt>
      <trkpt lat="45.60253" lon="6.13391">
        <ele>923.8</ele>
        <time>2024-09-19T11:42:04Z</time>
      </trkpt>
      <trkpt lat="45.60248" lon="6.13392">
        <ele>922.815</ele>
        <time>2024-09-19T11:42:09Z</time>
      </trkpt>
      <trkpt lat="45.60243" lon="6.13394">
        <ele>921.332</ele>
        <time>2024-09-19T11:42:14Z</time>
      </trkpt>
      <trkpt lat="45.60238" lon="6.13394">
        <ele>920.231</ele>
        <time>2024-09-19T11:42:19Z</time>
      </trkpt>
      <trkpt lat="45.60233" lon="6.13393">
        <ele>920.177</ele>
        <time>2024-09-19T11:42:24Z</time>
      </trkpt>
      <trkpt lat="45.6022" lon="6.13388">
        <ele>914.353</ele>
        <time>2024-09-19T11:42:39Z</time>
      </trkpt>
      <trkpt lat="45.60214" lon="6.13389">
        <ele>913.958</ele>
        <time>2024-09-19T11:42:44Z</time>
      </trkpt>
      <trkpt lat="45.60209" lon="6.13386">
        <ele>913.569</ele>
        <time>2024-09-19T11:42:49Z</time>
      </trkpt>
      <trkpt lat="45.60204" lon="6.13385">
        <ele>913.557</ele>
        <time>2024-09-19T11:42:53Z</time>
      </trkpt>
      <trkpt lat="45.60198" lon="6.13386">
        <ele>913.028</ele>
        <time>2024-09-19T11:42:57Z</time>
      </trkpt>
      <trkpt lat="45.60193" lon="6.13386">
        <ele>913.642</ele>
        <time>2024-09-19T11:43:01Z</time>
      </trkpt>
      <trkpt lat="45.60188" lon="6.13384">
        <ele>913.666</ele>
        <time>2024-09-19T11:43:05Z</time>
      </trkpt>
      <trkpt lat="45.60184" lon="6.13384">
        <ele>912.619</ele>
        <time>2024-09-19T11:43:09Z</time>
      </trkpt>
      <trkpt lat="45.60178" lon="6.13383">
        <ele>913.1</ele>
        <time>2024-09-19T11:43:14Z</time>
      </trkpt>
      <trkpt lat="45.60168" lon="6.13383">
        <ele>909.165</ele>
        <time>2024-09-19T11:43:23Z</time>
      </trkpt>
      <trkpt lat="45.60158" lon="6.13381">
        <ele>909.019</ele>
        <time>2024-09-19T11:43:32Z</time>
      </trkpt>
      <trkpt lat="45.60154" lon="6.13378">
        <ele>910.549</ele>
        <time>2024-09-19T11:43:36Z</time>
      </trkpt>
      <trkpt lat="45.60147" lon="6.13371">
        <ele>907.261</ele>
        <time>2024-09-19T11:43:45Z</time>
      </trkpt>
      <trkpt lat="45.60142" lon="6.13371">
        <ele>906.932</ele>
        <time>2024-09-19T11:43:50Z</time>
      </trkpt>
      <trkpt lat="45.60138" lon="6.13368">
        <ele>906.644</ele>
        <time>2024-09-19T11:43:54Z</time>
      </trkpt>
      <trkpt lat="45.60134" lon="6.13366">
        <ele>904.581</ele>
        <time>2024-09-19T11:43:59Z</time>
      </trkpt>
      <trkpt lat="45.60124" lon="6.13362">
        <ele>904.427</ele>
        <time>2024-09-19T11:44:08Z</time>
      </trkpt>
      <trkpt lat="45.60115" lon="6.1336">
        <ele>904.919</ele>
        <time>2024-09-19T11:44:16Z</time>
      </trkpt>
      <trkpt lat="45.60111" lon="6.13358">
        <ele>905.851</ele>
        <time>2024-09-19T11:44:20Z</time>
      </trkpt>
      <trkpt lat="45.60106" lon="6.13357">
        <ele>904.255</ele>
        <time>2024-09-19T11:44:25Z</time>
      </trkpt>
      <trkpt lat="45.60096" lon="6.13359">
        <ele>903.889</ele>
        <time>2024-09-19T11:44:34Z</time>
      </trkpt>
      <trkpt lat="45.60093" lon="6.13363">
        <ele>904.396</ele>
        <time>2024-09-19T11:44:37Z</time>
      </trkpt>
      <trkpt lat="45.60089" lon="6.13366">
        <ele>901.284</ele>
        <time>2024-09-19T11:44:41Z</time>
      </trkpt>
      <trkpt lat="45.60084" lon="6.13365">
        <ele>902.968</ele>
        <time>2024-09-19T11:44:47Z</time>
      </trkpt>
      <trkpt lat="45.6008" lon="6.13369">
        <ele>902.805</ele>
        <time>2024-09-19T11:44:50Z</time>
      </trkpt>
      <trkpt lat="45.60075" lon="6.13369">
        <ele>903.191</ele>
        <time>2024-09-19T11:44:54Z</time>
      </trkpt>
      <trkpt lat="45.6007" lon="6.13368">
        <ele>904.211</ele>
        <time>2024-09-19T11:44:58Z</time>
      </trkpt>
      <trkpt lat="45.60066" lon="6.13369">
        <ele>905.431</ele>
        <time>2024-09-19T11:45:02Z</time>
      </trkpt>
      <trkpt lat="45.60056" lon="6.13373">
        <ele>902.8</ele>
        <time>2024-09-19T11:45:10Z</time>
      </trkpt>
      <trkpt lat="45.60051" lon="6.13376">
        <ele>905.391</ele>
        <time>2024-09-19T11:45:14Z</time>
      </trkpt>
      <trkpt lat="45.60046" lon="6.13374">
        <ele>905.04</ele>
        <time>2024-09-19T11:45:21Z</time>
      </trkpt>
      <trkpt lat="45.60042" lon="6.13378">
        <ele>903.03</ele>
        <time>2024-09-19T11:45:25Z</time>
      </trkpt>
      <trkpt lat="45.60038" lon="6.13383">
        <ele>904.99</ele>
        <time>2024-09-19T11:45:29Z</time>
      </trkpt>
      <trkpt lat="45.60033" lon="6.13385">
        <ele>905.151</ele>
        <time>2024-09-19T11:45:33Z</time>
      </trkpt>
      <trkpt lat="45.60029" lon="6.13385">
        <ele>903.272</ele>
        <time>2024-09-19T11:45:37Z</time>
      </trkpt>
      <trkpt lat="45.60024" lon="6.13384">
        <ele>904.386</ele>
        <time>2024-09-19T11:45:42Z</time>
      </trkpt>
      <trkpt lat="45.6002" lon="6.13385">
        <ele>900.832</ele>
        <time>2024-09-19T11:45:45Z</time>
      </trkpt>
      <trkpt lat="45.60016" lon="6.13387">
        <ele>898.972</ele>
        <time>2024-09-19T11:45:49Z</time>
      </trkpt>
      <trkpt lat="45.60011" lon="6.13385">
        <ele>898.905</ele>
        <time>2024-09-19T11:45:55Z</time>
      </trkpt>
      <trkpt lat="45.60006" lon="6.13386">
        <ele>898.104</ele>
        <time>2024-09-19T11:46:00Z</time>
      </trkpt>
      <trkpt lat="45.60003" lon="6.13386">
        <ele>893.042</ele>
        <time>2024-09-19T11:46:05Z</time>
      </trkpt>
      <trkpt lat="45.59998" lon="6.13384">
        <ele>892.272</ele>
        <time>2024-09-19T11:46:12Z</time>
      </trkpt>
      <trkpt lat="45.59993" lon="6.13385">
        <ele>894.147</ele>
        <time>2024-09-19T11:46:16Z</time>
      </trkpt>
      <trkpt lat="45.59983" lon="6.13389">
        <ele>890.809</ele>
        <time>2024-09-19T11:46:23Z</time>
      </trkpt>
      <trkpt lat="45.59973" lon="6.13391">
        <ele>889.251</ele>
        <time>2024-09-19T11:46:32Z</time>
      </trkpt>
      <trkpt lat="45.59971" lon="6.13394">
        <ele>894.152</ele>
        <time>2024-09-19T11:46:43Z</time>
      </trkpt>
      <trkpt lat="45.59966" lon="6.13395">
        <ele>895.03</ele>
        <time>2024-09-19T11:46:48Z</time>
      </trkpt>
      <trkpt lat="45.59961" lon="6.13397">
        <ele>894.721</ele>
        <time>2024-09-19T11:46:51Z</time>
      </trkpt>
      <trkpt lat="45.59956" lon="6.13398">
        <ele>895.371</ele>
        <time>2024-09-19T11:46:55Z</time>
      </trkpt>
      <trkpt lat="45.59953" lon="6.13399">
        <ele>892.238</ele>
        <time>2024-09-19T11:46:58Z</time>
      </trkpt>
      <trkpt lat="45.59948" lon="6.13402">
        <ele>891.699</ele>
        <time>2024-09-19T11:47:02Z</time>
      </trkpt>
      <trkpt lat="45.59943" lon="6.13399">
        <ele>890.943</ele>
        <time>2024-09-19T11:47:08Z</time>
      </trkpt>
      <trkpt lat="45.59935" lon="6.13407">
        <ele>888.391</ele>
        <time>2024-09-19T11:47:16Z</time>
      </trkpt>
      <trkpt lat="45.59921" lon="6.1341">
        <ele>885.301</ele>
        <time>2024-09-19T11:47:30Z</time>
      </trkpt>
      <trkpt lat="45.59916" lon="6.13409">
        <ele>885.625</ele>
        <time>2024-09-19T11:47:34Z</time>
      </trkpt>
      <trkpt lat="45.59912" lon="6.1341">
        <ele>885.057</ele>
        <time>2024-09-19T11:47:38Z</time>
      </trkpt>
      <trkpt lat="45.59907" lon="6.13409">
        <ele>884.517</ele>
        <time>2024-09-19T11:47:42Z</time>
      </trkpt>
      <trkpt lat="45.59902" lon="6.13406">
        <ele>886.759</ele>
        <time>2024-09-19T11:47:47Z</time>
      </trkpt>
      <trkpt lat="45.59898" lon="6.13406">
        <ele>887.362</ele>
        <time>2024-09-19T11:47:52Z</time>
      </trkpt>
      <trkpt lat="45.59898" lon="6.13407">
        <ele>886.247</ele>
        <time>2024-09-19T11:48:13Z</time>
      </trkpt>
      <trkpt lat="45.59893" lon="6.13406">
        <ele>884.598</ele>
        <time>2024-09-19T11:48:30Z</time>
      </trkpt>
      <trkpt lat="45.59889" lon="6.13407">
        <ele>886.287</ele>
        <time>2024-09-19T11:48:34Z</time>
      </trkpt>
      <trkpt lat="45.59884" lon="6.13409">
        <ele>886.921</ele>
        <time>2024-09-19T11:48:38Z</time>
      </trkpt>
      <trkpt lat="45.59879" lon="6.13412">
        <ele>887.679</ele>
        <time>2024-09-19T11:48:42Z</time>
      </trkpt>
      <trkpt lat="45.59875" lon="6.13414">
        <ele>885.856</ele>
        <time>2024-09-19T11:48:46Z</time>
      </trkpt>
      <trkpt lat="45.5987" lon="6.13416">
        <ele>884.247</ele>
        <time>2024-09-19T11:48:50Z</time>
      </trkpt>
      <trkpt lat="45.59866" lon="6.1342">
        <ele>882.418</ele>
        <time>2024-09-19T11:48:54Z</time>
      </trkpt>
      <trkpt lat="45.59862" lon="6.13422">
        <ele>880.259</ele>
        <time>2024-09-19T11:49:00Z</time>
      </trkpt>
      <trkpt lat="45.59857" lon="6.13422">
        <ele>881.245</ele>
        <time>2024-09-19T11:49:05Z</time>
      </trkpt>
      <trkpt lat="45.59837" lon="6.1343">
        <ele>879.888</ele>
        <time>2024-09-19T11:49:24Z</time>
      </trkpt>
      <trkpt lat="45.59832" lon="6.13427">
        <ele>878.681</ele>
        <time>2024-09-19T11:49:30Z</time>
      </trkpt>
      <trkpt lat="45.59828" lon="6.13426">
        <ele>875.341</ele>
        <time>2024-09-19T11:49:35Z</time>
      </trkpt>
      <trkpt lat="45.59824" lon="6.13428">
        <ele>873.642</ele>
        <time>2024-09-19T11:49:39Z</time>
      </trkpt>
      <trkpt lat="45.59819" lon="6.13427">
        <ele>874.557</ele>
        <time>2024-09-19T11:49:45Z</time>
      </trkpt>
      <trkpt lat="45.59814" lon="6.1343">
        <ele>873.395</ele>
        <time>2024-09-19T11:49:48Z</time>
      </trkpt>
      <trkpt lat="45.59811" lon="6.13434">
        <ele>874.409</ele>
        <time>2024-09-19T11:49:51Z</time>
      </trkpt>
      <trkpt lat="45.59806" lon="6.13438">
        <ele>874.294</ele>
        <time>2024-09-19T11:49:56Z</time>
      </trkpt>
      <trkpt lat="45.59802" lon="6.1344">
        <ele>868.579</ele>
        <time>2024-09-19T11:50:03Z</time>
      </trkpt>
      <trkpt lat="45.598" lon="6.13438">
        <ele>862.687</ele>
        <time>2024-09-19T11:50:05Z</time>
      </trkpt>
      <trkpt lat="45.59796" lon="6.13437">
        <ele>862.522</ele>
        <time>2024-09-19T11:50:12Z</time>
      </trkpt>
      <trkpt lat="45.59791" lon="6.1344">
        <ele>865.158</ele>
        <time>2024-09-19T11:50:17Z</time>
      </trkpt>
      <trkpt lat="45.59784" lon="6.13447">
        <ele>868.176</ele>
        <time>2024-09-19T11:50:28Z</time>
      </trkpt>
      <trkpt lat="45.59775" lon="6.13454">
        <ele>867.077</ele>
        <time>2024-09-19T11:50:38Z</time>
      </trkpt>
      <trkpt lat="45.59772" lon="6.13457">
        <ele>863.924</ele>
        <time>2024-09-19T11:50:42Z</time>
      </trkpt>
      <trkpt lat="45.59768" lon="6.13463">
        <ele>864.631</ele>
        <time>2024-09-19T11:50:46Z</time>
      </trkpt>
      <trkpt lat="45.59764" lon="6.13466">
        <ele>863.637</ele>
        <time>2024-09-19T11:50:50Z</time>
      </trkpt>
      <trkpt lat="45.59761" lon="6.1347">
        <ele>867.256</ele>
        <time>2024-09-19T11:50:53Z</time>
      </trkpt>
      <trkpt lat="45.59759" lon="6.13474">
        <ele>861.758</ele>
        <time>2024-09-19T11:50:57Z</time>
      </trkpt>
      <trkpt lat="45.59757" lon="6.1348">
        <ele>860.658</ele>
        <time>2024-09-19T11:51:02Z</time>
      </trkpt>
      <trkpt lat="45.59751" lon="6.1349">
        <ele>858.592</ele>
        <time>2024-09-19T11:51:12Z</time>
      </trkpt>
      <trkpt lat="45.59749" lon="6.13496">
        <ele>859.689</ele>
        <time>2024-09-19T11:51:16Z</time>
      </trkpt>
      <trkpt lat="45.59746" lon="6.13502">
        <ele>859.298</ele>
        <time>2024-09-19T11:51:21Z</time>
      </trkpt>
      <trkpt lat="45.59743" lon="6.13507">
        <ele>860.652</ele>
        <time>2024-09-19T11:51:25Z</time>
      </trkpt>
      <trkpt lat="45.5974" lon="6.13513">
        <ele>859.819</ele>
        <time>2024-09-19T11:51:29Z</time>
      </trkpt>
      <trkpt lat="45.59736" lon="6.13517">
        <ele>857.089</ele>
        <time>2024-09-19T11:51:34Z</time>
      </trkpt>
      <trkpt lat="45.59732" lon="6.13522">
        <ele>857.168</ele>
        <time>2024-09-19T11:51:40Z</time>
      </trkpt>
      <trkpt lat="45.59729" lon="6.13528">
        <ele>855.755</ele>
        <time>2024-09-19T11:51:44Z</time>
      </trkpt>
      <trkpt lat="45.59727" lon="6.13531">
        <ele>852.615</ele>
        <time>2024-09-19T11:51:48Z</time>
      </trkpt>
      <trkpt lat="45.59723" lon="6.13536">
        <ele>851.358</ele>
        <time>2024-09-19T11:51:53Z</time>
      </trkpt>
      <trkpt lat="45.59717" lon="6.13548">
        <ele>849.213</ele>
        <time>2024-09-19T11:52:04Z</time>
      </trkpt>
      <trkpt lat="45.59713" lon="6.13553">
        <ele>845.441</ele>
        <time>2024-09-19T11:52:09Z</time>
      </trkpt>
      <trkpt lat="45.59709" lon="6.13557">
        <ele>846.856</ele>
        <time>2024-09-19T11:52:14Z</time>
      </trkpt>
      <trkpt lat="45.59703" lon="6.13569">
        <ele>848.866</ele>
        <time>2024-09-19T11:52:24Z</time>
      </trkpt>
      <trkpt lat="45.59699" lon="6.13573">
        <ele>850.08</ele>
        <time>2024-09-19T11:52:29Z</time>
      </trkpt>
      <trkpt lat="45.59696" lon="6.13577">
        <ele>850.608</ele>
        <time>2024-09-19T11:52:33Z</time>
      </trkpt>
      <trkpt lat="45.59688" lon="6.13585">
        <ele>851.05</ele>
        <time>2024-09-19T11:52:40Z</time>
      </trkpt>
      <trkpt lat="45.59681" lon="6.13589">
        <ele>851.911</ele>
        <time>2024-09-19T11:52:46Z</time>
      </trkpt>
      <trkpt lat="45.59677" lon="6.1359">
        <ele>852.084</ele>
        <time>2024-09-19T11:52:51Z</time>
      </trkpt>
      <trkpt lat="45.59672" lon="6.13592">
        <ele>852.136</ele>
        <time>2024-09-19T11:52:56Z</time>
      </trkpt>
      <trkpt lat="45.59662" lon="6.13597">
        <ele>853.81</ele>
        <time>2024-09-19T11:53:05Z</time>
      </trkpt>
      <trkpt lat="45.59657" lon="6.13598">
        <ele>854.68</ele>
        <time>2024-09-19T11:53:11Z</time>
      </trkpt>
      <trkpt lat="45.59652" lon="6.13597">
        <ele>854.593</ele>
        <time>2024-09-19T11:53:17Z</time>
      </trkpt>
      <trkpt lat="45.59641" lon="6.13597">
        <ele>856.689</ele>
        <time>2024-09-19T11:53:28Z</time>
      </trkpt>
      <trkpt lat="45.59638" lon="6.13601">
        <ele>851.101</ele>
        <time>2024-09-19T11:53:33Z</time>
      </trkpt>
      <trkpt lat="45.59638" lon="6.13608">
        <ele>850.423</ele>
        <time>2024-09-19T11:53:41Z</time>
      </trkpt>
      <trkpt lat="45.59636" lon="6.13614">
        <ele>848.646</ele>
        <time>2024-09-19T11:53:46Z</time>
      </trkpt>
      <trkpt lat="45.59634" lon="6.13619">
        <ele>848.709</ele>
        <time>2024-09-19T11:53:50Z</time>
      </trkpt>
      <trkpt lat="45.59631" lon="6.13625">
        <ele>848.659</ele>
        <time>2024-09-19T11:53:55Z</time>
      </trkpt>
      <trkpt lat="45.59629" lon="6.13631">
        <ele>846.557</ele>
        <time>2024-09-19T11:54:00Z</time>
      </trkpt>
      <trkpt lat="45.59625" lon="6.13636">
        <ele>850.302</ele>
        <time>2024-09-19T11:54:26Z</time>
      </trkpt>
      <trkpt lat="45.59626" lon="6.13639">
        <ele>844.923</ele>
        <time>2024-09-19T11:54:33Z</time>
      </trkpt>
      <trkpt lat="45.59623" lon="6.13646">
        <ele>845.86</ele>
        <time>2024-09-19T11:54:38Z</time>
      </trkpt>
      <trkpt lat="45.5962" lon="6.13649">
        <ele>848.126</ele>
        <time>2024-09-19T11:54:42Z</time>
      </trkpt>
      <trkpt lat="45.5961" lon="6.13647">
        <ele>850.692</ele>
        <time>2024-09-19T11:54:54Z</time>
      </trkpt>
      <trkpt lat="45.596" lon="6.13651">
        <ele>850.533</ele>
        <time>2024-09-19T11:55:05Z</time>
      </trkpt>
      <trkpt lat="45.59596" lon="6.13652">
        <ele>849.276</ele>
        <time>2024-09-19T11:55:10Z</time>
      </trkpt>
      <trkpt lat="45.5959" lon="6.13655">
        <ele>850.391</ele>
        <time>2024-09-19T11:55:14Z</time>
      </trkpt>
      <trkpt lat="45.59586" lon="6.13658">
        <ele>853.808</ele>
        <time>2024-09-19T11:55:20Z</time>
      </trkpt>
      <trkpt lat="45.59583" lon="6.13664">
        <ele>852.389</ele>
        <time>2024-09-19T11:55:24Z</time>
      </trkpt>
      <trkpt lat="45.59584" lon="6.13672">
        <ele>852.003</ele>
        <time>2024-09-19T11:55:29Z</time>
      </trkpt>
      <trkpt lat="45.59583" lon="6.13678">
        <ele>850.286</ele>
        <time>2024-09-19T11:55:34Z</time>
      </trkpt>
      <trkpt lat="45.59576" lon="6.13687">
        <ele>849.336</ele>
        <time>2024-09-19T11:55:44Z</time>
      </trkpt>
      <trkpt lat="45.59573" lon="6.13692">
        <ele>846.071</ele>
        <time>2024-09-19T11:55:47Z</time>
      </trkpt>
      <trkpt lat="45.5957" lon="6.13696">
        <ele>844.655</ele>
        <time>2024-09-19T11:55:51Z</time>
      </trkpt>
      <trkpt lat="45.59566" lon="6.13702">
        <ele>843.035</ele>
        <time>2024-09-19T11:55:56Z</time>
      </trkpt>
      <trkpt lat="45.59563" lon="6.13705">
        <ele>840.516</ele>
        <time>2024-09-19T11:56:00Z</time>
      </trkpt>
      <trkpt lat="45.59559" lon="6.13711">
        <ele>840.343</ele>
        <time>2024-09-19T11:56:06Z</time>
      </trkpt>
      <trkpt lat="45.59556" lon="6.13716">
        <ele>840.398</ele>
        <time>2024-09-19T11:56:10Z</time>
      </trkpt>
      <trkpt lat="45.59553" lon="6.13723">
        <ele>841.257</ele>
        <time>2024-09-19T11:56:16Z</time>
      </trkpt>
      <trkpt lat="45.59551" lon="6.1373">
        <ele>841.918</ele>
        <time>2024-09-19T11:56:20Z</time>
      </trkpt>
      <trkpt lat="45.59547" lon="6.13734">
        <ele>844.407</ele>
        <time>2024-09-19T11:56:25Z</time>
      </trkpt>
      <trkpt lat="45.59544" lon="6.13738">
        <ele>841.854</ele>
        <time>2024-09-19T11:56:31Z</time>
      </trkpt>
    </trkseg>
  </trk>
</gpx>